Provisional Data: Susquehanna River near Danville, PA


Please select a monitoring station.
Please select start date.
Please select start date.

Toggle Unit: C/F Toggle Unit: C/F
Sample Time Temperature (C) Temperature (F) Specific Conductivity (mS/cm) pH   Turbidity (NTU+) DO (mg/L)
5/4/2021 12:00:00 AM 13.5 56.3 177 7.63 6.31 8.84
5/4/2021 12:15:00 AM 13.49 56.282 177 7.64 6.3 8.76
5/4/2021 12:30:00 AM 13.49 56.282 177 7.63 6.18 8.76
5/4/2021 12:45:00 AM 13.49 56.282 177 7.63 6.27 8.75
5/4/2021 1:00:00 AM 13.49 56.282 177 7.62 6.31 8.73
5/4/2021 1:15:00 AM 13.49 56.282 177 7.63 6.2 8.71
5/4/2021 1:30:00 AM 13.49 56.282 177 7.62 6.25 8.7
5/4/2021 1:45:00 AM 13.49 56.282 177 7.62 6.05 8.69
5/4/2021 2:00:00 AM 13.49 56.282 177 7.62 6.08 8.66
5/4/2021 2:15:00 AM 13.48 56.264 177 7.62 6.08 8.68
5/4/2021 2:30:00 AM 13.48 56.264 176 7.62 5.94 8.65
5/4/2021 2:45:00 AM 13.48 56.264 177 7.62 5.99 8.62
5/4/2021 3:00:00 AM 13.48 56.264 177 7.62 6.07 8.61
5/4/2021 3:15:00 AM 13.48 56.264 177 7.61 6.08 8.57
5/4/2021 3:30:00 AM 13.48 56.264 177 7.62 6.05 8.61
5/4/2021 3:45:00 AM 13.48 56.264 176 7.62 5.97 8.57
5/4/2021 4:00:00 AM 13.48 56.264 176 7.61 5.95 8.54
5/4/2021 4:15:00 AM 13.48 56.264 176 7.61 5.94 8.52
5/4/2021 4:30:00 AM 13.47 56.246 176 7.62 5.83 8.52
5/4/2021 4:45:00 AM 13.47 56.246 176 7.6 5.74 8.49
5/4/2021 5:00:00 AM 13.47 56.246 176 7.61 5.8 8.49
5/4/2021 5:15:00 AM 13.47 56.246 177 7.61 5.76 8.51
5/4/2021 5:30:00 AM 13.47 56.246 176 7.61 5.94 8.5
5/4/2021 5:45:00 AM 13.47 56.246 177 7.61 5.79 8.47
5/4/2021 6:00:00 AM 13.47 56.246 177 7.63 5.66 8.52
5/4/2021 6:15:00 AM 13.47 56.246 177 7.61 5.82 8.54
5/4/2021 6:30:00 AM 13.47 56.246 177 7.62 5.61 8.56
5/4/2021 6:45:00 AM 13.46 56.228 177 7.62 5.63 8.53
5/4/2021 7:00:00 AM 13.45 56.21 178 7.63 5.8 8.64
5/4/2021 7:15:00 AM 13.3 55.94 177 7.62 6.22 8.62
5/4/2021 7:30:00 AM 13.19 55.742 176 7.61 6.03 8.61
5/4/2021 7:45:00 AM 13.12 55.616 176 7.6 6.03 8.6
5/4/2021 8:00:00 AM 13.07 55.526 176 7.61 5.93 8.6
5/4/2021 8:15:00 AM 13.03 55.454 177 7.6 6.1 8.59
5/4/2021 8:30:00 AM 13.01 55.418 177 7.6 6.07 8.58
5/4/2021 8:45:00 AM 13.01 55.418 177 7.61 6.05 8.57
5/4/2021 9:00:00 AM 13.01 55.418 177 7.61 5.8 8.55
5/4/2021 9:15:00 AM 13.02 55.436 177 7.62 5.86 8.53
5/4/2021 9:30:00 AM 13.04 55.472 177 7.62 5.81 8.53
5/4/2021 9:45:00 AM 13.06 55.508 176 7.62 6.06 8.59
5/4/2021 10:00:00 AM 13.1 55.58 176 7.62 5.79 8.59
5/4/2021 10:15:00 AM 13.14 55.652 176 7.62 5.89 8.66
5/4/2021 10:30:00 AM 13.19 55.742 175 7.63 6.03 8.8
5/4/2021 10:45:00 AM 13.24 55.832 175 7.63 6.12 8.91
5/4/2021 11:00:00 AM 13.29 55.922 175 7.64 6.16 8.96
5/4/2021 11:15:00 AM 13.34 56.012 176 7.64 6.15 9.05
5/4/2021 11:30:00 AM 13.4 56.12 175 7.64 6.51 9.04
5/4/2021 11:45:00 AM 13.46 56.228 174 7.64 5.91 9.13
5/4/2021 12:00:00 PM 13.52 56.336 174 7.64 6.26 9.23
5/4/2021 12:15:00 PM 13.58 56.444 173 7.66 5.79 9.23
5/4/2021 12:30:00 PM 13.64 56.552 173 7.66 6.01 9.25
5/4/2021 12:45:00 PM 13.69 56.642 172 7.67 6.82 9.54
5/4/2021 1:00:00 PM 13.73 56.714 172 7.67 6.37 9.45
5/4/2021 1:15:00 PM 13.76 56.768 173 7.67 5.83 9.43
5/4/2021 1:30:00 PM 13.81 56.858 172 7.67 6.17 9.43
5/4/2021 1:45:00 PM 13.85 56.93 173 7.68 5.63 9.37
5/4/2021 2:00:00 PM 13.9 57.02 172 7.68 5.91 9.39
5/4/2021 2:15:00 PM 13.95 57.11 172 7.68 6.53 9.42
5/4/2021 2:30:00 PM 14.01 57.218 172 7.68 5.64 9.42
5/4/2021 2:45:00 PM 14.06 57.308 172 7.69 6.33 9.49
5/4/2021 3:00:00 PM 14.12 57.416 172 7.68 5.29 9.5
5/4/2021 3:15:00 PM 14.15 57.47 172 7.69 5.71 9.53
5/4/2021 3:30:00 PM 14.18 57.524 171 7.69 5.91 9.76
5/4/2021 3:45:00 PM 14.19 57.542 172 7.69 5.55 9.73
5/4/2021 4:00:00 PM 14.2 57.56 171 7.7 5.32 9.71
5/4/2021 4:15:00 PM 14.2 57.56 172 7.7 5.44 9.68
5/4/2021 4:30:00 PM 14.21 57.578 172 7.69 5.24 9.66
5/4/2021 4:45:00 PM 14.21 57.578 172 7.69 5.21 9.61
5/4/2021 5:00:00 PM 14.21 57.578 172 7.69 5.45 9.57
5/4/2021 5:15:00 PM 14.21 57.578 172 7.69 4.95 9.57
5/4/2021 5:30:00 PM 14.21 57.578 172 7.69 5.1 9.55
5/4/2021 5:45:00 PM 14.21 57.578 172 7.69 4.89 9.54
5/4/2021 6:00:00 PM 14.21 57.578 172 7.69 4.97 9.5
5/4/2021 6:15:00 PM 14.2 57.56 172 7.69 4.81 9.48
5/4/2021 6:30:00 PM 14.2 57.56 172 7.69 5.06 9.48
5/4/2021 6:45:00 PM 14.2 57.56 172 7.69 4.88 9.47
5/4/2021 7:00:00 PM 14.2 57.56 172 7.69 4.78 9.48
5/4/2021 7:15:00 PM 14.19 57.542 172 7.7 4.68 9.48
5/4/2021 7:30:00 PM 14.19 57.542 172 7.7 5.08 9.48
5/4/2021 7:45:00 PM 14.19 57.542 172 7.7 4.63 9.47
5/4/2021 8:00:00 PM 14.19 57.542 172 7.7 4.65 9.48
5/4/2021 8:15:00 PM 14.18 57.524 172 7.7 4.74 9.46
5/4/2021 8:30:00 PM 14.18 57.524 172 7.7 4.59 9.45
5/4/2021 8:45:00 PM 14.18 57.524 172 7.7 4.55 9.44
5/4/2021 9:00:00 PM 14.17 57.506 172 7.71 4.59 9.42
5/4/2021 9:15:00 PM 14.17 57.506 172 7.7 4.34 9.4
5/4/2021 9:30:00 PM 14.17 57.506 172 7.71 4.53 9.38
5/4/2021 9:45:00 PM 14.17 57.506 172 7.71 4.36 9.37
5/4/2021 10:00:00 PM 14.16 57.488 172 7.7 4.45 9.35
5/4/2021 10:15:00 PM 14.16 57.488 172 7.7 4.56 9.36
5/4/2021 10:30:00 PM 14.16 57.488 172 7.7 4.22 9.33
5/4/2021 10:45:00 PM 14.16 57.488 172 7.7 4.48 9.33
5/4/2021 11:00:00 PM 14.15 57.47 172 7.7 4.34 9.31
5/4/2021 11:15:00 PM 14.15 57.47 172 7.7 4.27 9.29
5/4/2021 11:30:00 PM 14.15 57.47 172 7.7 4.23 9.29
5/4/2021 11:45:00 PM 14.15 57.47 172 7.69 4.24 9.27
5/5/2021 12:00:00 AM 14.15 57.47 172 7.7 4.18 9.26
5/5/2021 12:15:00 AM 14.14 57.452 172 7.69 4.15 9.24
5/5/2021 12:30:00 AM 14.14 57.452 172 7.69 4.27 9.25
5/5/2021 12:45:00 AM 14.14 57.452 172 7.69 4.16 9.23
5/5/2021 1:00:00 AM 14.13 57.434 172 7.69 4.27 9.23
5/5/2021 1:15:00 AM 14.13 57.434 172 7.69 4.22 9.21
5/5/2021 1:30:00 AM 14.13 57.434 172 7.69 4.12 9.2
5/5/2021 1:45:00 AM 14.13 57.434 172 7.68 4.11 9.2
5/5/2021 2:00:00 AM 14.12 57.416 172 7.69 4.17 9.19
5/5/2021 2:15:00 AM 14.12 57.416 172 7.69 4.08 9.17
5/5/2021 2:30:00 AM 14.12 57.416 172 7.69 4.09 9.16
5/5/2021 2:45:00 AM 14.12 57.416 172 7.69 3.93 9.13
5/5/2021 3:00:00 AM 14.11 57.398 172 7.69 4.01 9.14
5/5/2021 3:15:00 AM 14.11 57.398 173 7.69 3.99 9.12
5/5/2021 3:30:00 AM 14.11 57.398 173 7.68 4.11 9.12
5/5/2021 3:45:00 AM 14.1 57.38 172 7.69 4 9.1
5/5/2021 4:00:00 AM 14.1 57.38 173 7.69 3.96 9.08
5/5/2021 4:15:00 AM 14.1 57.38 173 7.69 3.97 9.09
5/5/2021 4:30:00 AM 14.1 57.38 172 7.69 4.04 9.07
5/5/2021 4:45:00 AM 14.09 57.362 173 7.69 3.95 9.06
5/5/2021 5:00:00 AM 14.09 57.362 173 7.69 4.01 9.05
5/5/2021 5:15:00 AM 14.09 57.362 173 7.69 3.95 9.04
5/5/2021 5:30:00 AM 14.09 57.362 173 7.69 4.08 9.02
5/5/2021 5:45:00 AM 14.08 57.344 173 7.69 3.88 9.01
5/5/2021 6:00:00 AM 14.09 57.362 172 7.69 3.85 9.02
5/5/2021 6:15:00 AM 14.08 57.344 172 7.69 3.95 9.02
5/5/2021 6:30:00 AM 14.15 57.47 172 7.67 4.14 9.04
5/5/2021 6:45:00 AM 14.24 57.632 172 7.66 4.05 9.08
5/5/2021 7:00:00 AM 14.31 57.758 173 7.66 4.5 9.14
5/5/2021 7:15:00 AM 14.35 57.83 174 7.68 6.85 9.27
5/5/2021 7:30:00 AM 14.38 57.884 173 7.66 4.28 9.17
5/5/2021 7:45:00 AM 14.39 57.902 173 7.68 4.14 9.12
5/5/2021 8:00:00 AM 14.4 57.92 173 7.67 4.11 9.1
5/5/2021 8:15:00 AM 14.41 57.938 173 7.67 4.2 9.11
5/5/2021 8:30:00 AM 14.43 57.974 173 7.68 4.01 9.11
5/5/2021 8:45:00 AM 14.45 58.01 174 7.68 4.09 9.11
5/5/2021 9:00:00 AM 14.46 58.028 174 7.67 4.08 9.12
5/5/2021 9:15:00 AM 14.48 58.064 174 7.67 3.91 9.13
5/5/2021 9:30:00 AM 14.49 58.082 174 7.68 3.81 9.12
5/5/2021 9:45:00 AM 14.5 58.1 174 7.68 3.95 9.13
5/5/2021 10:00:00 AM 14.51 58.118 174 7.67 4.14 9.17
5/5/2021 10:15:00 AM 14.51 58.118 175 7.67 3.85 9.15
5/5/2021 10:30:00 AM 14.51 58.118 175 7.67 4.05 9.13
5/5/2021 10:45:00 AM 14.52 58.136 175 7.67 3.91 9.12
5/5/2021 11:00:00 AM 14.52 58.136 175 7.67 3.94 9.13
5/5/2021 11:15:00 AM 14.52 58.136 175 7.67 4.23 9.19
5/5/2021 11:30:00 AM 14.54 58.172 175 7.67 4.1 9.16
5/5/2021 11:45:00 AM 14.56 58.208 175 7.67 4.03 9.12
5/5/2021 12:00:00 PM 14.57 58.226 174 7.67 3.79 9.04
5/5/2021 12:15:00 PM 14.6 58.28 175 7.66 4.79 9.16
5/5/2021 12:30:00 PM 14.62 58.316 175 7.67 4.45 9.18
5/5/2021 12:45:00 PM 14.65 58.37 175 7.67 4.53 9.17
5/5/2021 1:00:00 PM 14.67 58.406 175 7.67 4.6 9.14
5/5/2021 1:15:00 PM 14.68 58.424 175 7.67 4.19 9.11
5/5/2021 1:30:00 PM 14.7 58.46 175 7.67 3.99 9.08
5/5/2021 1:45:00 PM 14.72 58.496 175 7.68 3.98 9.06
5/5/2021 2:00:00 PM 14.74 58.532 176 7.67 5 9.18
5/5/2021 2:15:00 PM 14.75 58.55 176 7.67 5.46 9.32
5/5/2021 2:30:00 PM 14.77 58.586 176 7.67 5.11 9.34
5/5/2021 2:45:00 PM 14.78 58.604 177 7.67 4.79 9.28
5/5/2021 3:00:00 PM 14.79 58.622 177 7.66 4.9 9.24
5/5/2021 3:15:00 PM 14.79 58.622 176 7.67 4.55 9.16
5/5/2021 3:30:00 PM 14.79 58.622 176 7.68 4.22 9.14
5/5/2021 3:45:00 PM 14.79 58.622 176 7.68 4.18 9.1
5/5/2021 4:00:00 PM 14.79 58.622 176 7.69 4.11 9.05
5/5/2021 4:15:00 PM 14.79 58.622 176 7.69 4.06 9.04
5/5/2021 4:30:00 PM 14.79 58.622 176 7.68 4.07 9.02
5/5/2021 4:45:00 PM 14.79 58.622 176 7.69 3.82 9.03
5/5/2021 5:00:00 PM 14.79 58.622 176 7.69 3.96 9.03
5/5/2021 5:15:00 PM 14.79 58.622 176 7.69 3.96 8.98
5/5/2021 5:30:00 PM 14.78 58.604 176 7.69 3.97 8.97
5/5/2021 5:45:00 PM 14.78 58.604 176 7.7 3.84 8.97
5/5/2021 6:00:00 PM 14.78 58.604 176 7.7 3.88 8.97
5/5/2021 6:15:00 PM 14.77 58.586 176 7.69 3.83 8.98
5/5/2021 6:30:00 PM 14.77 58.586 176 7.69 3.75 8.95
5/5/2021 6:45:00 PM 14.77 58.586 176 7.7 3.8 8.96
5/5/2021 7:00:00 PM 14.76 58.568 177 7.7 3.75 8.91
5/5/2021 7:15:00 PM 14.76 58.568 177 7.7 3.73 8.89
5/5/2021 7:30:00 PM 14.75 58.55 177 7.7 3.78 8.91
5/5/2021 7:45:00 PM 14.75 58.55 177 7.7 3.84 8.89
5/5/2021 8:00:00 PM 14.75 58.55 177 7.7 3.76 8.92
5/5/2021 8:15:00 PM 14.74 58.532 177 7.7 3.75 8.89
5/5/2021 8:30:00 PM 14.74 58.532 177 7.7 3.7 8.84
5/5/2021 8:45:00 PM 14.74 58.532 177 7.7 3.74 8.82
5/5/2021 9:00:00 PM 14.73 58.514 177 7.7 3.56 8.8
5/5/2021 9:15:00 PM 14.73 58.514 177 7.69 3.72 8.78
5/5/2021 9:30:00 PM 14.73 58.514 177 7.7 3.58 8.77
5/5/2021 9:45:00 PM 14.73 58.514 177 7.7 3.75 8.76
5/5/2021 10:00:00 PM 14.72 58.496 177 7.7 3.55 8.73
5/5/2021 10:15:00 PM 14.72 58.496 177 7.7 3.73 8.75
5/5/2021 10:30:00 PM 14.72 58.496 177 7.7 3.58 8.74
5/5/2021 10:45:00 PM 14.71 58.478 177 7.7 3.66 8.72
5/5/2021 11:00:00 PM 14.71 58.478 177 7.69 3.64 8.75
5/5/2021 11:15:00 PM 14.7 58.46 177 7.69 3.5 8.72
5/5/2021 11:30:00 PM 14.7 58.46 177 7.69 3.75 8.7
5/5/2021 11:45:00 PM 14.69 58.442 177 7.69 3.66 8.69
5/6/2021 12:00:00 AM 14.69 58.442 177 7.7 3.71 8.68
5/6/2021 12:15:00 AM 14.69 58.442 177 7.69 3.58 8.67
5/6/2021 12:30:00 AM 14.68 58.424 178 7.69 3.57 8.64
5/6/2021 12:45:00 AM 14.68 58.424 177 7.69 3.53 8.63
5/6/2021 1:00:00 AM 14.68 58.424 177 7.69 3.63 8.59
5/6/2021 1:15:00 AM 14.67 58.406 177 7.7 3.53 8.58
5/6/2021 1:30:00 AM 14.67 58.406 177 7.69 3.45 8.58
5/6/2021 1:45:00 AM 14.66 58.388 178 7.69 3.71 8.56
5/6/2021 2:00:00 AM 14.66 58.388 178 7.68 3.67 8.59
5/6/2021 2:15:00 AM 14.66 58.388 178 7.68 3.51 8.56
5/6/2021 2:30:00 AM 14.65 58.37 178 7.68 3.53 8.58
5/6/2021 2:45:00 AM 14.65 58.37 178 7.68 3.45 8.56
5/6/2021 3:00:00 AM 14.64 58.352 178 7.68 3.52 8.54
5/6/2021 3:15:00 AM 14.64 58.352 178 7.68 3.47 8.52
5/6/2021 3:30:00 AM 14.64 58.352 177 7.68 3.47 8.52
5/6/2021 3:45:00 AM 14.63 58.334 178 7.68 3.47 8.51
5/6/2021 4:00:00 AM 14.63 58.334 178 7.68 3.46 8.48
5/6/2021 4:15:00 AM 14.63 58.334 178 7.68 3.34 8.47
5/6/2021 4:30:00 AM 14.62 58.316 178 7.68 3.41 8.46
5/6/2021 4:45:00 AM 14.62 58.316 178 7.68 3.51 8.44
5/6/2021 5:00:00 AM 14.62 58.316 178 7.68 3.39 8.43
5/6/2021 5:15:00 AM 14.61 58.298 178 7.68 3.44 8.42
5/6/2021 5:30:00 AM 14.61 58.298 178 7.67 3.51 8.41
5/6/2021 5:45:00 AM 14.6 58.28 178 7.67 3.43 8.46
5/6/2021 6:00:00 AM 14.6 58.28 176 7.67 3.43 8.5
5/6/2021 6:15:00 AM 14.59 58.262 177 7.67 3.47 8.55
5/6/2021 6:30:00 AM 14.53 58.154 177 7.64 3.72 8.57
5/6/2021 6:45:00 AM 14.45 58.01 177 7.64 3.77 8.53
5/6/2021 7:00:00 AM 14.35 57.83 177 7.63 3.78 8.54
5/6/2021 7:15:00 AM 14.27 57.686 177 7.62 3.71 8.58
5/6/2021 7:30:00 AM 14.22 57.596 176 7.63 3.73 8.62
5/6/2021 7:45:00 AM 14.17 57.506 177 7.64 3.88 8.61
5/6/2021 8:00:00 AM 14.13 57.434 176 7.64 3.63 8.61
5/6/2021 8:15:00 AM 14.1 57.38 176 7.63 3.76 8.6
5/6/2021 8:30:00 AM 14.08 57.344 176 7.63 3.81 8.6
5/6/2021 8:45:00 AM 14.06 57.308 176 7.63 4.06 8.59
5/6/2021 9:00:00 AM 14.05 57.29 176 7.63 3.7 8.6
5/6/2021 9:15:00 AM 14.04 57.272 176 7.63 4.03 8.6
5/6/2021 9:30:00 AM 14.04 57.272 176 7.63 4.14 8.59
5/6/2021 9:45:00 AM 14.04 57.272 176 7.63 3.91 8.57
5/6/2021 10:00:00 AM 14.06 57.308 176 7.64 3.79 8.53
5/6/2021 10:15:00 AM 14.08 57.344 176 7.64 3.56 8.51
5/6/2021 10:30:00 AM 14.1 57.38 176 7.64 3.7 8.5
5/6/2021 10:45:00 AM 14.13 57.434 176 7.64 4.2 8.56
5/6/2021 11:00:00 AM 14.16 57.488 176 7.64 4.4 8.62
5/6/2021 11:15:00 AM 14.19 57.542 175 7.64 4.67 8.64
5/6/2021 11:30:00 AM 14.23 57.614 175 7.64 4.34 8.69
5/6/2021 11:45:00 AM 14.26 57.668 172 7.63 5.84 8.85
5/6/2021 12:00:00 PM 14.28 57.704 172 7.61 7.15 8.97
5/6/2021 12:15:00 PM 14.31 57.758 173 7.62 5.44 8.91
5/6/2021 12:30:00 PM 14.34 57.812 173 7.62 5.3 8.9
5/6/2021 12:45:00 PM 14.37 57.866 172 7.62 5.96 8.92
5/6/2021 1:00:00 PM 14.39 57.902 172 7.62 6.4 8.94
5/6/2021 1:15:00 PM 14.42 57.956 172 7.62 5.93 8.97
5/6/2021 1:30:00 PM 14.45 58.01 172 7.62 6 8.99
5/6/2021 1:45:00 PM 14.48 58.064 172 7.62 5.6 8.95
5/6/2021 2:00:00 PM 14.5 58.1 171 7.61 6.43 9.24
5/6/2021 2:15:00 PM 14.52 58.136 171 7.61 6.39 9.2
5/6/2021 2:30:00 PM 14.53 58.154 171 7.61 5.88 9.22
5/6/2021 2:45:00 PM 14.54 58.172 171 7.61 5.51 9.19
5/6/2021 3:00:00 PM 14.54 58.172 171 7.61 5.58 9.07
5/6/2021 3:15:00 PM 14.54 58.172 171 7.62 5.6 9.04
5/6/2021 3:30:00 PM 14.54 58.172 171 7.61 5.48 9.02
5/6/2021 3:45:00 PM 14.54 58.172 172 7.62 5.29 9.02
5/6/2021 4:00:00 PM 14.54 58.172 172 7.61 5.11 9.02
5/6/2021 4:15:00 PM 14.54 58.172 172 7.62 5.09 9.03
5/6/2021 4:30:00 PM 14.54 58.172 172 7.62 5.14 9.03
5/6/2021 4:45:00 PM 14.54 58.172 172 7.62 5.17 8.99
5/6/2021 5:00:00 PM 14.53 58.154 173 7.61 5.03 8.98
5/6/2021 5:15:00 PM 14.53 58.154 172 7.61 5.17 8.98
5/6/2021 5:30:00 PM 14.53 58.154 172 7.62 5.08 8.97
5/6/2021 5:45:00 PM 14.53 58.154 172 7.62 5.06 8.96
5/6/2021 6:00:00 PM 14.53 58.154 172 7.61 5.11 8.96
5/6/2021 6:15:00 PM 14.52 58.136 172 7.61 5.08 8.95
5/6/2021 6:30:00 PM 14.52 58.136 172 7.61 4.95 8.93
5/6/2021 6:45:00 PM 14.52 58.136 172 7.61 4.93 8.91
5/6/2021 7:00:00 PM 14.51 58.118 172 7.61 4.9 8.91
5/6/2021 7:15:00 PM 14.51 58.118 172 7.6 4.73 8.9
5/6/2021 7:30:00 PM 14.51 58.118 172 7.6 4.76 8.89
5/6/2021 7:45:00 PM 14.5 58.1 172 7.6 4.79 8.87
5/6/2021 8:00:00 PM 14.5 58.1 172 7.6 5.17 8.86
5/6/2021 8:15:00 PM 14.5 58.1 172 7.6 4.85 8.85
5/6/2021 8:30:00 PM 14.5 58.1 172 7.6 4.89 8.85
5/6/2021 8:45:00 PM 14.49 58.082 172 7.59 4.73 8.82
5/6/2021 9:00:00 PM 14.49 58.082 172 7.6 4.86 8.81
5/6/2021 9:15:00 PM 14.49 58.082 172 7.6 4.67 8.78
5/6/2021 9:30:00 PM 14.49 58.082 172 7.59 4.66 8.78
5/6/2021 9:45:00 PM 14.48 58.064 172 7.59 4.66 8.76
5/6/2021 10:00:00 PM 14.48 58.064 172 7.6 4.53 8.76
5/6/2021 10:15:00 PM 14.48 58.064 172 7.59 4.55 8.74
5/6/2021 10:30:00 PM 14.47 58.046 172 7.59 4.63 8.74
5/6/2021 10:45:00 PM 14.47 58.046 172 7.59 4.54 8.74
5/6/2021 11:00:00 PM 14.47 58.046 172 7.59 4.64 8.72
5/6/2021 11:15:00 PM 14.46 58.028 172 7.59 4.67 8.71
5/6/2021 11:30:00 PM 14.46 58.028 172 7.59 4.51 8.72
5/6/2021 11:45:00 PM 14.46 58.028 172 7.59 4.52 8.69
5/7/2021 12:00:00 AM 14.45 58.01 172 7.59 4.59 8.69
5/7/2021 12:15:00 AM 14.45 58.01 172 7.6 4.45 8.69
5/7/2021 12:30:00 AM 14.45 58.01 172 7.59 4.44 8.69
5/7/2021 12:45:00 AM 14.45 58.01 173 7.59 4.46 8.67
5/7/2021 1:00:00 AM 14.44 57.992 173 7.6 4.41 8.66
5/7/2021 1:15:00 AM 14.44 57.992 173 7.59 4.38 8.66
5/7/2021 1:30:00 AM 14.43 57.974 172 7.6 4.35 8.64
5/7/2021 1:45:00 AM 14.43 57.974 173 7.59 4.46 8.64
5/7/2021 2:00:00 AM 14.43 57.974 173 7.59 4.46 8.64
5/7/2021 2:15:00 AM 14.43 57.974 172 7.59 4.4 8.62
5/7/2021 2:30:00 AM 14.42 57.956 173 7.59 4.35 8.6
5/7/2021 2:45:00 AM 14.42 57.956 173 7.58 4.3 8.6
5/7/2021 3:00:00 AM 14.42 57.956 173 7.59 4.47 8.6
5/7/2021 3:15:00 AM 14.41 57.938 173 7.59 4.31 8.6
5/7/2021 3:30:00 AM 14.41 57.938 173 7.59 4.24 8.57
5/7/2021 3:45:00 AM 14.41 57.938 173 7.59 4.28 8.56
5/7/2021 4:00:00 AM 14.4 57.92 173 7.59 4.31 8.56
5/7/2021 4:15:00 AM 14.4 57.92 173 7.59 4.26 8.54
5/7/2021 4:30:00 AM 14.4 57.92 173 7.59 4.38 8.54
5/7/2021 4:45:00 AM 14.4 57.92 173 7.58 4.39 8.52
5/7/2021 5:00:00 AM 14.39 57.902 173 7.59 4.23 8.52
5/7/2021 5:15:00 AM 14.39 57.902 173 7.59 4.22 8.52
5/7/2021 5:30:00 AM 14.39 57.902 173 7.59 4.21 8.5
5/7/2021 5:45:00 AM 14.38 57.884 173 7.59 4.21 8.5
5/7/2021 6:00:00 AM 14.38 57.884 173 7.6 4.2 8.48
5/7/2021 6:15:00 AM 14.33 57.794 172 7.59 4.28 8.49
5/7/2021 6:30:00 AM 14.19 57.542 173 7.59 4.49 8.51
5/7/2021 6:45:00 AM 14.05 57.29 173 7.58 4.31 8.51
5/7/2021 7:00:00 AM 13.95 57.11 172 7.58 4.57 8.52
5/7/2021 7:15:00 AM 13.88 56.984 172 7.58 4.36 8.51
5/7/2021 7:30:00 AM 13.83 56.894 173 7.58 4.51 8.49
5/7/2021 7:45:00 AM 13.79 56.822 172 7.57 4.36 8.49
5/7/2021 8:00:00 AM 13.77 56.786 172 7.58 4.31 8.49
5/7/2021 8:15:00 AM 13.75 56.75 172 7.58 4.23 8.46
5/7/2021 8:30:00 AM 13.75 56.75 173 7.58 4.21 8.46
5/7/2021 8:45:00 AM 13.75 56.75 173 7.58 4.21 8.44
5/7/2021 9:00:00 AM 13.76 56.768 173 7.58 4.09 8.42
5/7/2021 9:15:00 AM 13.77 56.786 173 7.59 4.1 8.41
5/7/2021 9:30:00 AM 13.79 56.822 173 7.59 4.15 8.38
5/7/2021 9:45:00 AM 13.81 56.858 173 7.58 4.14 8.37
5/7/2021 10:00:00 AM 13.83 56.894 173 7.58 4.01 8.37
5/7/2021 10:15:00 AM 13.85 56.93 173 7.58 4.08 8.41
5/7/2021 10:30:00 AM 13.88 56.984 173 7.59 4.11 8.44
5/7/2021 10:45:00 AM 13.9 57.02 173 7.59 3.94 8.47
5/7/2021 11:00:00 AM 13.92 57.056 173 7.59 3.96 8.52
5/7/2021 11:15:00 AM 13.93 57.074 173 7.6 3.99 8.56
5/7/2021 11:30:00 AM 13.94 57.092 173 7.59 3.83 8.54
5/7/2021 11:45:00 AM 13.95 57.11 173 7.6 3.8 8.55
5/7/2021 12:00:00 PM 13.96 57.128 173 7.59 3.94 8.52
5/7/2021 12:15:00 PM 13.97 57.146 173 7.6 3.66 8.52
5/7/2021 12:30:00 PM 13.98 57.164 173 7.6 3.86 8.5
5/7/2021 12:45:00 PM 13.99 57.182 173 7.61 3.83 8.47
5/7/2021 1:00:00 PM 13.99 57.182 174 7.61 3.79 8.47
5/7/2021 1:15:00 PM 14 57.2 173 7.61 3.63 8.46
5/7/2021 1:30:00 PM 14.01 57.218 174 7.61 3.79 8.44
5/7/2021 1:45:00 PM 14.02 57.236 174 7.61 3.69 8.45
5/7/2021 2:00:00 PM 14.02 57.236 173 7.61 3.65 8.44
5/7/2021 2:15:00 PM 14.02 57.236 175 7.62 4.09 8.78
5/7/2021 2:30:00 PM 14.02 57.236 175 7.61 3.87 9.03
5/7/2021 2:45:00 PM 14.03 57.254 175 7.62 3.73 9.04
5/7/2021 3:00:00 PM 14.03 57.254 176 7.62 3.68 9.01
5/7/2021 3:15:00 PM 14.04 57.272 176 7.62 3.66 8.97
5/7/2021 3:30:00 PM 14.04 57.272 176 7.63 3.68 8.95
5/7/2021 3:45:00 PM 14.04 57.272 176 7.63 3.57 8.92
5/7/2021 4:00:00 PM 14.04 57.272 176 7.64 3.59 8.9
5/7/2021 4:15:00 PM 14.04 57.272 176 7.63 3.41 8.9
5/7/2021 4:30:00 PM 14.04 57.272 176 7.64 3.75 8.87
5/7/2021 4:45:00 PM 14.04 57.272 176 7.64 3.65 8.84
5/7/2021 5:00:00 PM 14.04 57.272 176 7.64 3.54 8.81
5/7/2021 5:15:00 PM 14.04 57.272 176 7.64 3.52 8.79
5/7/2021 5:30:00 PM 14.04 57.272 176 7.64 3.44 8.78
5/7/2021 5:45:00 PM 14.04 57.272 176 7.65 3.41 8.77
5/7/2021 6:00:00 PM 14.03 57.254 176 7.65 3.32 8.76
5/7/2021 6:15:00 PM 14.03 57.254 176 7.65 3.35 8.73
5/7/2021 6:30:00 PM 14.03 57.254 176 7.66 3.36 8.72
5/7/2021 6:45:00 PM 14.03 57.254 176 7.66 3.25 8.68
5/7/2021 7:00:00 PM 14.03 57.254 176 7.65 3.36 8.69
5/7/2021 7:15:00 PM 14.02 57.236 176 7.66 3.28 8.63
5/7/2021 7:30:00 PM 14.03 57.254 176 7.66 3.19 8.61
5/7/2021 7:45:00 PM 14.02 57.236 176 7.66 3.25 8.6
5/7/2021 8:00:00 PM 14.02 57.236 176 7.66 3.22 8.58
5/7/2021 8:15:00 PM 14.02 57.236 176 7.67 3.34 8.54
5/7/2021 8:30:00 PM 14.02 57.236 177 7.67 3.15 8.53
5/7/2021 8:45:00 PM 14.02 57.236 177 7.67 3.18 8.54
5/7/2021 9:00:00 PM 14.02 57.236 176 7.67 3.18 8.53
5/7/2021 9:15:00 PM 14.01 57.218 176 7.66 3.2 8.54
5/7/2021 9:30:00 PM 14.01 57.218 176 7.67 3.1 8.51
5/7/2021 9:45:00 PM 14.01 57.218 176 7.67 3.1 8.48
5/7/2021 10:00:00 PM 14.01 57.218 177 7.68 3.09 8.48
5/7/2021 10:15:00 PM 14.01 57.218 177 7.67 3.12 8.46
5/7/2021 10:30:00 PM 14.01 57.218 176 7.67 3.11 8.46
5/7/2021 10:45:00 PM 14 57.2 177 7.66 3.1 8.44
5/7/2021 11:00:00 PM 14 57.2 177 7.67 3.01 8.42
5/7/2021 11:15:00 PM 14 57.2 177 7.67 3.06 8.42
5/7/2021 11:30:00 PM 14 57.2 177 7.67 3.1 8.42
5/7/2021 11:45:00 PM 14 57.2 177 7.68 3 8.41
5/8/2021 12:00:00 AM 14 57.2 177 7.67 3.04 8.41
5/8/2021 12:15:00 AM 14 57.2 177 7.67 2.99 8.39
5/8/2021 12:30:00 AM 14 57.2 177 7.68 3.02 8.39
5/8/2021 12:45:00 AM 13.99 57.182 177 7.67 3.2 8.36
5/8/2021 1:00:00 AM 13.99 57.182 177 7.67 3.15 8.39
5/8/2021 1:15:00 AM 13.99 57.182 177 7.67 2.97 8.38
5/8/2021 1:30:00 AM 13.99 57.182 177 7.67 3.03 8.35
5/8/2021 1:45:00 AM 13.99 57.182 177 7.67 3.02 8.33
5/8/2021 2:00:00 AM 13.99 57.182 177 7.67 3.03 8.32
5/8/2021 2:15:00 AM 13.99 57.182 177 7.67 3.03 8.3
5/8/2021 2:30:00 AM 13.98 57.164 177 7.67 3 8.31
5/8/2021 2:45:00 AM 13.98 57.164 177 7.67 2.98 8.29
5/8/2021 3:00:00 AM 13.98 57.164 177 7.68 2.89 8.29
5/8/2021 3:15:00 AM 13.98 57.164 177 7.67 2.98 8.3
5/8/2021 3:30:00 AM 13.98 57.164 177 7.68 2.88 8.31
5/8/2021 3:45:00 AM 13.97 57.146 177 7.67 2.97 8.3
5/8/2021 4:00:00 AM 13.97 57.146 177 7.68 2.92 8.3
5/8/2021 4:15:00 AM 13.97 57.146 177 7.68 2.98 8.27
5/8/2021 4:30:00 AM 13.97 57.146 177 7.68 2.94 8.27
5/8/2021 4:45:00 AM 13.97 57.146 177 7.68 2.91 8.25
5/8/2021 5:00:00 AM 13.95 57.11 175 7.65 3.08 8.27
5/8/2021 5:15:00 AM 13.83 56.894 177 7.62 3.13 8.65
5/8/2021 5:30:00 AM 13.62 56.516 176 7.61 3.38 8.53
5/8/2021 5:45:00 AM 13.46 56.228 176 7.61 3.23 8.56
5/8/2021 6:00:00 AM 13.36 56.048 176 7.61 3.23 8.55
5/8/2021 6:15:00 AM 13.28 55.904 176 7.61 3.24 8.56
5/8/2021 6:30:00 AM 13.22 55.796 176 7.61 3.14 8.56
5/8/2021 6:45:00 AM 13.17 55.706 176 7.61 3.13 8.56
5/8/2021 7:00:00 AM 13.14 55.652 176 7.6 3.11 8.56
5/8/2021 7:15:00 AM 13.12 55.616 176 7.61 3.11 8.54
5/8/2021 7:30:00 AM 13.1 55.58 176 7.61 3.17 8.53
5/8/2021 7:45:00 AM 13.08 55.544 176 7.62 3.18 8.51
5/8/2021 8:00:00 AM 13.06 55.508 176 7.61 3.1 8.48
5/8/2021 8:15:00 AM 13.06 55.508 176 7.62 3.04 8.47
5/8/2021 8:30:00 AM 13.06 55.508 176 7.61 3.14 8.45
5/8/2021 8:45:00 AM 13.06 55.508 176 7.62 3.04 8.42
5/8/2021 9:00:00 AM 13.07 55.526 176 7.63 3.09 8.39
5/8/2021 9:15:00 AM 13.07 55.526 176 7.63 3 8.37
5/8/2021 9:30:00 AM 13.08 55.544 176 7.63 3.02 8.36
5/8/2021 9:45:00 AM 13.08 55.544 177 7.63 2.98 8.33
5/8/2021 10:00:00 AM 13.09 55.562 177 7.63 3.04 8.32
5/8/2021 10:15:00 AM 13.1 55.58 177 7.63 2.99 8.3
5/8/2021 10:30:00 AM 13.1 55.58 176 7.63 3.02 8.29
5/8/2021 10:45:00 AM 13.11 55.598 176 7.62 2.97 8.28
5/8/2021 11:00:00 AM 13.12 55.616 176 7.62 2.96 8.28
5/8/2021 11:15:00 AM 13.12 55.616 176 7.62 2.91 8.31
5/8/2021 11:30:00 AM 13.13 55.634 176 7.62 2.8 8.27
5/8/2021 11:45:00 AM 13.14 55.652 176 7.62 2.91 8.28
5/8/2021 12:00:00 PM 13.14 55.652 176 7.62 3 8.26
5/8/2021 12:15:00 PM 13.14 55.652 177 7.62 2.92 8.28
5/8/2021 12:30:00 PM 13.14 55.652 176 7.6 3.11 8.41
5/8/2021 12:45:00 PM 13.15 55.67 176 7.61 3.05 8.38
5/8/2021 1:00:00 PM 13.15 55.67 176 7.6 2.99 8.33
5/8/2021 1:15:00 PM 13.16 55.688 177 7.61 3.09 8.28
5/8/2021 1:30:00 PM 13.16 55.688 177 7.61 2.93 8.26
5/8/2021 1:45:00 PM 13.16 55.688 177 7.61 2.81 8.26
5/8/2021 2:00:00 PM 13.16 55.688 177 7.61 2.87 8.24
5/8/2021 2:15:00 PM 13.17 55.706 177 7.61 2.88 8.23
5/8/2021 2:30:00 PM 13.16 55.688 177 7.63 2.87 8.23
5/8/2021 2:45:00 PM 13.16 55.688 177 7.62 2.85 8.25
5/8/2021 3:00:00 PM 13.16 55.688 176 7.62 2.96 8.25
5/8/2021 3:15:00 PM 13.16 55.688 176 7.62 2.96 8.29
5/8/2021 3:30:00 PM 13.16 55.688 177 7.62 2.95 8.28
5/8/2021 3:45:00 PM 13.16 55.688 176 7.62 2.93 8.27
5/8/2021 4:00:00 PM 13.16 55.688 177 7.63 2.87 8.28
5/8/2021 4:15:00 PM 13.16 55.688 177 7.63 2.91 8.24
5/8/2021 4:30:00 PM 13.16 55.688 177 7.63 2.91 8.26
5/8/2021 4:45:00 PM 13.16 55.688 177 7.63 2.91 8.23
5/8/2021 5:00:00 PM 13.16 55.688 177 7.63 2.86 8.24
5/8/2021 5:15:00 PM 13.16 55.688 177 7.63 2.82 8.23
5/8/2021 5:30:00 PM 13.16 55.688 177 7.63 2.83 8.21
5/8/2021 5:45:00 PM 13.16 55.688 177 7.64 2.81 8.22
5/8/2021 6:00:00 PM 13.16 55.688 177 7.64 2.83 8.2
5/8/2021 6:15:00 PM 13.16 55.688 177 7.64 2.83 8.16
5/8/2021 6:30:00 PM 13.16 55.688 177 7.64 2.82 8.16
5/8/2021 6:45:00 PM 13.16 55.688 177 7.64 2.83 8.14
5/8/2021 7:00:00 PM 13.16 55.688 177 7.64 2.82 8.11
5/8/2021 7:15:00 PM 13.16 55.688 177 7.64 2.76 8.1
5/8/2021 7:30:00 PM 13.16 55.688 177 7.64 2.77 8.1
5/8/2021 7:45:00 PM 13.16 55.688 177 7.64 2.77 8.06
5/8/2021 8:00:00 PM 13.16 55.688 177 7.65 2.79 8.04
5/8/2021 8:15:00 PM 13.16 55.688 177 7.65 2.73 8.04
5/8/2021 8:30:00 PM 13.16 55.688 177 7.65 2.8 8.01
5/8/2021 8:45:00 PM 13.16 55.688 177 7.64 2.78 7.99
5/8/2021 9:00:00 PM 13.16 55.688 177 7.65 2.74 7.98
5/8/2021 9:15:00 PM 13.16 55.688 177 7.65 2.7 7.97
5/8/2021 9:30:00 PM 13.16 55.688 177 7.64 2.79 7.98
5/8/2021 9:45:00 PM 13.16 55.688 177 7.64 2.75 7.96
5/8/2021 10:00:00 PM 13.16 55.688 177 7.65 2.67 7.97
5/8/2021 10:15:00 PM 13.16 55.688 177 7.64 2.64 7.95
5/8/2021 10:30:00 PM 13.16 55.688 177 7.65 2.72 7.93
5/8/2021 10:45:00 PM 13.16 55.688 177 7.65 2.7 7.93
5/8/2021 11:00:00 PM 13.16 55.688 177 7.65 2.73 7.9
5/8/2021 11:15:00 PM 13.16 55.688 177 7.65 2.66 7.9
5/8/2021 11:30:00 PM 13.16 55.688 178 7.65 2.66 7.9
5/8/2021 11:45:00 PM 13.16 55.688 178 7.65 2.66 7.9
5/9/2021 12:00:00 AM 13.16 55.688 178 7.64 2.66 7.9
5/9/2021 12:15:00 AM 13.16 55.688 178 7.65 2.64 7.87
5/9/2021 12:30:00 AM 13.16 55.688 178 7.65 2.66 7.89
5/9/2021 12:45:00 AM 13.16 55.688 178 7.65 2.67 7.9
5/9/2021 1:00:00 AM 13.16 55.688 178 7.65 2.6 7.87
5/9/2021 1:15:00 AM 13.16 55.688 178 7.65 2.7 7.86
5/9/2021 1:30:00 AM 13.16 55.688 178 7.65 2.71 7.87
5/9/2021 1:45:00 AM 13.16 55.688 178 7.65 2.61 7.86
5/9/2021 2:00:00 AM 13.15 55.67 178 7.65 2.61 7.86
5/9/2021 2:15:00 AM 13.15 55.67 178 7.65 2.68 7.83
5/9/2021 2:30:00 AM 13.15 55.67 178 7.65 2.67 7.83
5/9/2021 2:45:00 AM 13.15 55.67 178 7.65 2.7 7.83
5/9/2021 3:00:00 AM 13.15 55.67 178 7.64 2.66 7.84
5/9/2021 3:15:00 AM 13.15 55.67 177 7.64 2.64 7.84
5/9/2021 3:30:00 AM 13.15 55.67 178 7.64 2.73 7.82
5/9/2021 3:45:00 AM 13.15 55.67 178 7.64 2.68 7.84
5/9/2021 4:00:00 AM 13.15 55.67 178 7.64 2.67 7.82
5/9/2021 4:15:00 AM 13.15 55.67 178 7.64 2.65 7.81
5/9/2021 4:30:00 AM 13.15 55.67 178 7.64 2.66 7.83
5/9/2021 4:45:00 AM 13.15 55.67 178 7.64 2.7 7.8
5/9/2021 5:00:00 AM 13.15 55.67 178 7.65 2.67 7.78
5/9/2021 5:15:00 AM 13.15 55.67 178 7.64 2.67 7.79
5/9/2021 5:30:00 AM 13.15 55.67 178 7.63 2.62 7.76
5/9/2021 5:45:00 AM 13.15 55.67 178 7.64 2.65 7.75
5/9/2021 6:00:00 AM 13.15 55.67 178 7.64 2.65 7.74
5/9/2021 6:15:00 AM 13.15 55.67 178 7.64 2.65 7.78
5/9/2021 6:30:00 AM 13.11 55.598 177 7.61 2.9 7.93
5/9/2021 6:45:00 AM 13.01 55.418 178 7.61 2.75 8.04
5/9/2021 7:00:00 AM 12.8 55.04 177 7.6 2.69 8.1
5/9/2021 7:15:00 AM 12.64 54.752 177 7.6 2.73 8.12
5/9/2021 7:30:00 AM 12.54 54.572 177 7.6 2.68 8.1
5/9/2021 7:45:00 AM 12.47 54.446 177 7.6 2.76 8.1
5/9/2021 8:00:00 AM 12.42 54.356 177 7.6 2.66 8.09
5/9/2021 8:15:00 AM 12.38 54.284 177 7.6 2.77 8.09
5/9/2021 8:30:00 AM 12.36 54.248 177 7.6 2.79 8.08
5/9/2021 8:45:00 AM 12.34 54.212 177 7.61 2.76 8.07
5/9/2021 9:00:00 AM 12.33 54.194 177 7.6 2.82 8.05
5/9/2021 9:15:00 AM 12.33 54.194 178 7.61 2.77 8.03
5/9/2021 9:30:00 AM 12.33 54.194 178 7.61 2.71 8.01
5/9/2021 9:45:00 AM 12.34 54.212 178 7.62 2.72 7.99
5/9/2021 10:00:00 AM 12.34 54.212 178 7.62 2.79 7.97
5/9/2021 10:15:00 AM 12.34 54.212 178 7.62 2.69 7.95
5/9/2021 10:30:00 AM 12.35 54.23 178 7.62 2.63 7.92
5/9/2021 10:45:00 AM 12.35 54.23 178 7.63 2.69 7.91
5/9/2021 11:00:00 AM 12.35 54.23 178 7.62 2.64 7.88
5/9/2021 11:15:00 AM 12.36 54.248 178 7.63 2.71 7.87
5/9/2021 11:30:00 AM 12.36 54.248 178 7.62 2.65 7.85
5/9/2021 11:45:00 AM 12.36 54.248 178 7.62 2.6 7.82
5/9/2021 12:00:00 PM 12.36 54.248 178 7.62 2.58 7.82
5/9/2021 12:15:00 PM 12.36 54.248 178 7.63 2.56 7.8
5/9/2021 12:30:00 PM 12.36 54.248 178 7.63 2.65 7.78
5/9/2021 12:45:00 PM 12.35 54.23 178 7.62 2.66 7.85
5/9/2021 1:00:00 PM 12.34 54.212 177 7.61 2.66 8.24
5/9/2021 1:15:00 PM 12.34 54.212 178 7.62 2.78 8.31
5/9/2021 1:30:00 PM 12.34 54.212 178 7.62 2.7 8.16
5/9/2021 1:45:00 PM 12.34 54.212 178 7.62 2.62 8.11
5/9/2021 2:00:00 PM 12.34 54.212 178 7.62 2.68 8.09
5/9/2021 2:15:00 PM 12.34 54.212 178 7.63 2.6 8.07
5/9/2021 2:30:00 PM 12.34 54.212 178 7.63 2.59 8.05
5/9/2021 2:45:00 PM 12.34 54.212 178 7.63 2.65 8.02
5/9/2021 3:00:00 PM 12.34 54.212 178 7.63 2.6 8.01
5/9/2021 3:15:00 PM 12.34 54.212 178 7.63 2.56 7.99
5/9/2021 3:30:00 PM 12.34 54.212 178 7.64 2.53 7.98
5/9/2021 3:45:00 PM 12.34 54.212 178 7.64 2.49 7.95
5/9/2021 4:00:00 PM 12.34 54.212 178 7.64 2.56 7.94
5/9/2021 4:15:00 PM 12.34 54.212 178 7.63 2.5 7.9
5/9/2021 4:30:00 PM 12.34 54.212 178 7.64 2.57 7.88
5/9/2021 4:45:00 PM 12.34 54.212 178 7.63 2.49 7.87
5/9/2021 5:00:00 PM 12.35 54.23 178 7.64 2.46 7.86
5/9/2021 5:15:00 PM 12.35 54.23 178 7.64 2.44 7.85
5/9/2021 5:30:00 PM 12.35 54.23 178 7.63 2.47 7.84
5/9/2021 5:45:00 PM 12.35 54.23 178 7.64 2.46 7.85
5/9/2021 6:00:00 PM 12.35 54.23 178 7.64 2.45 7.83
5/9/2021 6:15:00 PM 12.35 54.23 178 7.64 2.41 7.83
5/9/2021 6:30:00 PM 12.35 54.23 179 7.64 2.46 7.82
5/9/2021 6:45:00 PM 12.35 54.23 179 7.64 2.4 7.85
5/9/2021 7:00:00 PM 12.35 54.23 179 7.63 2.36 7.88
5/9/2021 7:15:00 PM 12.36 54.248 179 7.64 2.42 7.87
5/9/2021 7:30:00 PM 12.36 54.248 178 7.64 2.36 7.88
5/9/2021 7:45:00 PM 12.36 54.248 179 7.64 2.42 7.86
5/9/2021 8:00:00 PM 12.36 54.248 178 7.64 2.4 7.88
5/9/2021 8:15:00 PM 12.36 54.248 178 7.64 2.37 7.89
5/9/2021 8:30:00 PM 12.36 54.248 179 7.64 2.4 7.88
5/9/2021 8:45:00 PM 12.36 54.248 179 7.65 2.42 7.94
5/9/2021 9:00:00 PM 12.36 54.248 179 7.65 2.35 7.95
5/9/2021 9:15:00 PM 12.36 54.248 179 7.64 2.36 7.9
5/9/2021 9:30:00 PM 12.36 54.248 179 7.65 2.37 7.91
5/9/2021 9:45:00 PM 12.36 54.248 179 7.65 2.37 7.98
5/9/2021 10:00:00 PM 12.37 54.266 179 7.65 2.32 7.93
5/9/2021 10:15:00 PM 12.37 54.266 179 7.65 2.34 7.96
5/9/2021 10:30:00 PM 12.37 54.266 179 7.66 2.38 7.94
5/9/2021 10:45:00 PM 12.37 54.266 179 7.65 2.31 7.91
5/9/2021 11:00:00 PM 12.37 54.266 179 7.65 2.35 8
5/9/2021 11:15:00 PM 12.37 54.266 179 7.66 2.29 7.93
5/9/2021 11:30:00 PM 12.37 54.266 179 7.66 2.23 7.96
5/9/2021 11:45:00 PM 12.37 54.266 179 7.66 2.29 7.98
5/10/2021 12:00:00 AM 12.37 54.266 179 7.66 2.26 7.97
5/10/2021 12:15:00 AM 12.37 54.266 179 7.67 2.23 7.98
5/10/2021 12:30:00 AM 12.38 54.284 179 7.66 2.28 7.96
5/10/2021 12:45:00 AM 12.38 54.284 179 7.66 2.21 8.02
5/10/2021 1:00:00 AM 12.38 54.284 179 7.67 2.12 8.01
5/10/2021 1:15:00 AM 12.38 54.284 179 7.66 2.25 7.99
5/10/2021 1:30:00 AM 12.38 54.284 179 7.67 2.15 8.05
5/10/2021 1:45:00 AM 12.38 54.284 179 7.66 2.15 8.07
5/10/2021 2:00:00 AM 12.38 54.284 179 7.67 2.25 8.06
5/10/2021 2:15:00 AM 12.38 54.284 179 7.67 2.16 8.12
5/10/2021 2:30:00 AM 12.38 54.284 179 7.67 2.16 8.08
5/10/2021 2:45:00 AM 12.38 54.284 179 7.67 2.17 8.04
5/10/2021 3:00:00 AM 12.38 54.284 179 7.67 2.12 8.08
5/10/2021 3:15:00 AM 12.38 54.284 179 7.67 2.2 8.22
5/10/2021 3:30:00 AM 12.38 54.284 179 7.67 2.18 8.09
5/10/2021 3:45:00 AM 12.38 54.284 179 7.67 2.16 8.06
5/10/2021 4:00:00 AM 12.38 54.284 179 7.67 2.24 8.04
5/10/2021 4:15:00 AM 12.38 54.284 179 7.67 2.17 8.02
5/10/2021 4:30:00 AM 12.38 54.284 179 7.67 2.18 8.05
5/10/2021 4:45:00 AM 12.38 54.284 179 7.67 2.16 8.04
5/10/2021 5:00:00 AM 12.38 54.284 179 7.67 2.1 8.06
5/10/2021 5:15:00 AM 12.39 54.302 179 7.67 2.17 8.02
5/10/2021 5:30:00 AM 12.39 54.302 179 7.68 2.17 8.09
5/10/2021 5:45:00 AM 12.39 54.302 179 7.67 2.15 8.02
5/10/2021 6:00:00 AM 12.39 54.302 178 7.64 2.39 7.71
5/10/2021 6:15:00 AM 12.29 54.122 178 7.63 2.41 8
5/10/2021 6:30:00 AM 12.1 53.78 178 7.61 2.35 8
5/10/2021 6:45:00 AM 11.97 53.546 178 7.61 2.44 8.05
5/10/2021 7:00:00 AM 11.88 53.384 178 7.61 2.39 8.11
5/10/2021 7:15:00 AM 11.82 53.276 178 7.61 2.46 8.11
5/10/2021 7:30:00 AM 11.77 53.186 178 7.62 2.43 8.12
5/10/2021 7:45:00 AM 11.73 53.114 178 7.62 2.43 8.19
5/10/2021 8:00:00 AM 11.71 53.078 178 7.62 2.45 8.33
5/10/2021 8:15:00 AM 11.69 53.042 178 7.62 2.39 8.18
5/10/2021 8:30:00 AM 11.67 53.006 178 7.62 2.49 8.16
5/10/2021 8:45:00 AM 11.66 52.988 177 7.63 2.9 8.39
5/10/2021 9:00:00 AM 11.66 52.988 176 7.63 2.92 8.44
5/10/2021 9:15:00 AM 11.65 52.97 177 7.63 2.5 8.28
5/10/2021 9:30:00 AM 11.64 52.952 177 7.63 2.54 8.33
5/10/2021 9:45:00 AM 11.63 52.934 177 7.62 2.64 8.34
5/10/2021 10:00:00 AM 11.63 52.934 177 7.63 2.53 8.36
5/10/2021 10:15:00 AM 11.64 52.952 177 7.63 2.57 8.29
5/10/2021 10:30:00 AM 11.64 52.952 177 7.63 2.52 8.23
5/10/2021 10:45:00 AM 11.64 52.952 177 7.63 2.43 8.19
5/10/2021 11:00:00 AM 11.65 52.97 177 7.64 2.43 8.16
5/10/2021 11:15:00 AM 11.67 53.006 177 7.64 2.41 8.15
5/10/2021 11:30:00 AM 11.69 53.042 177 7.63 2.64 8.19
5/10/2021 11:45:00 AM 11.7 53.06 177 7.63 2.69 8.3
5/10/2021 12:00:00 PM 11.72 53.096 176 7.65 2.63 8.36
5/10/2021 12:15:00 PM 11.74 53.132 176 7.64 2.65 8.35
5/10/2021 12:30:00 PM 11.76 53.168 176 7.64 2.53 8.37
5/10/2021 12:45:00 PM 11.78 53.204 176 7.64 2.62 8.41
5/10/2021 1:00:00 PM 11.8 53.24 176 7.65 2.68 8.56
5/10/2021 1:15:00 PM 11.83 53.294 175 7.65 3.05 8.54
5/10/2021 1:30:00 PM 11.85 53.33 175 7.66 2.96 8.63
5/10/2021 1:45:00 PM 11.87 53.366 174 7.66 2.66 8.71
5/10/2021 2:00:00 PM 11.89 53.402 175 7.67 2.7 8.66
5/10/2021 2:15:00 PM 11.91 53.438 171 7.69 4.2 9.35
5/10/2021 2:30:00 PM 11.94 53.492 172 7.69 4.42 9.57
5/10/2021 2:45:00 PM 11.96 53.528 171 7.69 4.06 9.57
5/10/2021 3:00:00 PM 11.97 53.546 174 7.69 3.48 9.45
5/10/2021 3:15:00 PM 11.98 53.564 173 7.69 3.42 9.34
5/10/2021 3:30:00 PM 11.99 53.582 173 7.69 3.17 9.21
5/10/2021 3:45:00 PM 11.99 53.582 173 7.68 3.12 9.11
5/10/2021 4:00:00 PM 12 53.6 173 7.68 3.06 9.11
5/10/2021 4:15:00 PM 12 53.6 173 7.68 3.1 9.13
5/10/2021 4:30:00 PM 12 53.6 173 7.68 3.2 9.11
5/10/2021 4:45:00 PM 12 53.6 174 7.67 2.93 9.09
5/10/2021 5:00:00 PM 12.01 53.618 173 7.68 3.01 9.1
5/10/2021 5:15:00 PM 12.01 53.618 173 7.68 2.89 9.12
5/10/2021 5:30:00 PM 12.01 53.618 173 7.69 3.11 9.05
5/10/2021 5:45:00 PM 12.01 53.618 174 7.69 3.12 9.06
5/10/2021 6:00:00 PM 12.01 53.618 174 7.68 2.91 9.01
5/10/2021 6:15:00 PM 12.01 53.618 174 7.68 3.01 9.05
5/10/2021 6:30:00 PM 12.01 53.618 174 7.69 3.08 9.03
5/10/2021 6:45:00 PM 12.01 53.618 174 7.69 2.93 9.06
5/10/2021 7:00:00 PM 12.01 53.618 174 7.68 2.97 9.01
5/10/2021 7:15:00 PM 12.01 53.618 174 7.68 3.01 9.01
5/10/2021 7:30:00 PM 12.01 53.618 173 7.68 2.98 9.1
5/10/2021 7:45:00 PM 12.01 53.618 174 7.69 3.03 9.08
5/10/2021 8:00:00 PM 12.01 53.618 173 7.69 3.06 9.05
5/10/2021 8:15:00 PM 12.01 53.618 174 7.69 3.02 9.08
5/10/2021 8:30:00 PM 12.01 53.618 174 7.69 2.96 9.03
5/10/2021 8:45:00 PM 12.01 53.618 173 7.69 2.99 9.07
5/10/2021 9:00:00 PM 12.01 53.618 174 7.69 2.94 9.02
5/10/2021 9:15:00 PM 12.01 53.618 174 7.69 2.93 9.07
5/10/2021 9:30:00 PM 12.01 53.618 174 7.7 2.93 9.03
5/10/2021 9:45:00 PM 12.01 53.618 174 7.69 3.05 9.04
5/10/2021 10:00:00 PM 12.01 53.618 174 7.69 2.94 9.06
5/10/2021 10:15:00 PM 12.01 53.618 174 7.69 2.92 9.12
5/10/2021 10:30:00 PM 12.01 53.618 173 7.69 2.95 9.05
5/10/2021 10:45:00 PM 12.01 53.618 173 7.69 2.94 9.07
5/10/2021 11:00:00 PM 12.01 53.618 174 7.69 2.89 9.04
5/10/2021 11:15:00 PM 12.01 53.618 174 7.69 3.01 9.06
5/10/2021 11:30:00 PM 12.01 53.618 173 7.69 2.9 9.09
5/10/2021 11:45:00 PM 12.01 53.618 173 7.68 2.83 9.07
5/11/2021 12:00:00 AM 12.01 53.618 173 7.69 2.9 9.08
5/11/2021 12:15:00 AM 12.01 53.618 173 7.68 2.99 9.05
5/11/2021 12:30:00 AM 12.01 53.618 173 7.68 2.97 9.1
5/11/2021 12:45:00 AM 12.01 53.618 173 7.68 2.89 9.1
5/11/2021 1:00:00 AM 12.01 53.618 173 7.69 2.87 9.06
5/11/2021 1:15:00 AM 12.01 53.618 173 7.68 2.94 9.08
5/11/2021 1:30:00 AM 12.01 53.618 173 7.68 2.95 9.08
5/11/2021 1:45:00 AM 12.01 53.618 173 7.68 2.83 9.07
5/11/2021 2:00:00 AM 12.01 53.618 173 7.68 2.85 9.06
5/11/2021 2:15:00 AM 12.01 53.618 173 7.68 2.92 9.04
5/11/2021 2:30:00 AM 12.01 53.618 173 7.67 2.82 9.04
5/11/2021 2:45:00 AM 12.01 53.618 173 7.68 2.85 9.03
5/11/2021 3:00:00 AM 12.01 53.618 173 7.67 2.91 9.05
5/11/2021 3:15:00 AM 12.01 53.618 173 7.67 2.9 9.04
5/11/2021 3:30:00 AM 12.01 53.618 173 7.68 2.89 9.06
5/11/2021 3:45:00 AM 12.01 53.618 173 7.68 2.88 9.09
5/11/2021 4:00:00 AM 12.01 53.618 172 7.68 2.93 9.05
5/11/2021 4:15:00 AM 12.01 53.618 173 7.68 2.91 9.1
5/11/2021 4:30:00 AM 12.01 53.618 173 7.68 2.85 9.05
5/11/2021 4:45:00 AM 12.01 53.618 172 7.67 2.91 9.03
5/11/2021 5:00:00 AM 12.01 53.618 173 7.68 2.91 9.03
5/11/2021 5:15:00 AM 12.01 53.618 172 7.67 2.88 9.04
5/11/2021 5:30:00 AM 12.01 53.618 173 7.67 2.86 9.02
5/11/2021 5:45:00 AM 12.01 53.618 173 7.67 2.81 9.03
5/11/2021 6:00:00 AM 12.01 53.618 173 7.67 2.72 9.01
5/11/2021 6:15:00 AM 12.01 53.618 174 7.67 2.73 8.79
5/11/2021 6:30:00 AM 11.89 53.402 173 7.65 3.18 8.96
5/11/2021 6:45:00 AM 11.78 53.204 173 7.65 3.17 8.86
5/11/2021 7:00:00 AM 11.54 52.772 173 7.64 2.96 8.86
5/11/2021 7:15:00 AM 11.36 52.448 173 7.65 2.94 8.88
5/11/2021 7:30:00 AM 11.23 52.214 173 7.65 2.95 8.87
5/11/2021 7:45:00 AM 11.15 52.07 173 7.64 2.87 8.85
5/11/2021 8:00:00 AM 11.09 51.962 173 7.64 2.93 8.86
5/11/2021 8:15:00 AM 11.05 51.89 173 7.65 2.88 8.86
5/11/2021 8:30:00 AM 11.02 51.836 173 7.65 2.99 8.87
5/11/2021 8:45:00 AM 11 51.8 173 7.65 2.94 8.89
5/11/2021 9:00:00 AM 10.99 51.782 173 7.65 3.01 8.92
5/11/2021 9:15:00 AM 10.99 51.782 173 7.65 2.97 8.93
5/11/2021 9:30:00 AM 10.99 51.782 173 7.66 3.01 8.93
5/11/2021 9:45:00 AM 11 51.8 173 7.66 2.97 8.91
5/11/2021 10:00:00 AM 11.01 51.818 173 7.67 2.89 8.88
5/11/2021 10:15:00 AM 11.02 51.836 173 7.67 2.9 8.84
5/11/2021 10:30:00 AM 11.04 51.872 173 7.66 3.01 8.88
5/11/2021 10:45:00 AM 11.06 51.908 173 7.66 3.07 8.93
5/11/2021 11:00:00 AM 11.07 51.926 173 7.66 3.17 8.93
5/11/2021 11:15:00 AM 11.08 51.944 172 7.66 3.14 8.96
5/11/2021 11:30:00 AM 11.08 51.944 169 7.67 4.1 9.32
5/11/2021 11:45:00 AM 11.09 51.962 169 7.67 4.46 9.51
5/11/2021 12:00:00 PM 11.11 51.998 169 7.67 4.2 9.5
5/11/2021 12:15:00 PM 11.11 51.998 169 7.67 3.93 9.46
5/11/2021 12:30:00 PM 11.12 52.016 169 7.67 3.91 9.36
5/11/2021 12:45:00 PM 11.11 51.998 169 7.67 3.77 9.44
5/11/2021 1:00:00 PM 11.11 51.998 170 7.68 3.91 9.33
5/11/2021 1:15:00 PM 11.12 52.016 169 7.68 3.99 9.38
5/11/2021 1:30:00 PM 11.12 52.016 169 7.68 3.82 9.32
5/11/2021 1:45:00 PM 11.12 52.016 169 7.68 3.88 9.32
5/11/2021 2:00:00 PM 11.12 52.016 168 7.67 3.65 9.39
5/11/2021 2:15:00 PM 11.11 51.998 166 7.69 5.06 9.84
5/11/2021 2:30:00 PM 11.11 51.998 166 7.69 4.92 9.85
5/11/2021 2:45:00 PM 11.11 51.998 165 7.69 4.97 9.93
5/11/2021 3:00:00 PM 11.12 52.016 166 7.7 4.73 9.86
5/11/2021 3:15:00 PM 11.12 52.016 166 7.69 4.27 9.66
5/11/2021 3:30:00 PM 11.12 52.016 164 7.66 3.9 9.62
5/11/2021 3:45:00 PM 11.12 52.016 166 7.64 4.25 9.58
5/11/2021 4:00:00 PM 11.12 52.016 166 7.63 4.49 9.53
5/11/2021 4:15:00 PM 11.12 52.016 164 7.6 4.57 9.47
5/11/2021 4:30:00 PM 11.12 52.016 166 7.6 3.86 9.34
5/11/2021 4:45:00 PM 11.12 52.016 164 7.59 4.29 9.33
5/11/2021 5:00:00 PM 11.13 52.034 165 7.6 4.3 9.34
5/11/2021 5:15:00 PM 11.13 52.034 164 7.59 4.51 9.29
5/11/2021 5:30:00 PM 11.13 52.034 168 7.57 4.37 9.24
5/11/2021 5:45:00 PM 11.13 52.034 163 7.56 4.17 9.21
5/11/2021 6:00:00 PM 11.13 52.034 162 7.55 4.64 9.2
5/11/2021 6:15:00 PM 11.13 52.034 162 7.54 4.6 9.22
5/11/2021 6:30:00 PM 11.13 52.034 162 7.53 4.67 9.15
5/11/2021 6:45:00 PM 11.14 52.052 161 7.52 4.74 9.13
5/11/2021 7:00:00 PM 11.14 52.052 162 7.51 4.73 9.04
5/11/2021 7:15:00 PM 11.14 52.052 163 7.51 4.76 9
5/11/2021 7:30:00 PM 11.14 52.052 163 7.5 4.77 8.95
5/11/2021 7:45:00 PM 11.14 52.052 162 7.5 4.77 8.91
5/11/2021 8:00:00 PM 11.15 52.07 163 7.51 4.5 8.92
5/11/2021 8:15:00 PM 11.15 52.07 164 7.51 4.67 8.86
5/11/2021 8:30:00 PM 11.15 52.07 164 7.5 4.57 8.84
5/11/2021 8:45:00 PM 11.15 52.07 162 7.51 4.24 8.82
5/11/2021 9:00:00 PM 11.15 52.07 164 7.51 4.28 8.8
5/11/2021 9:15:00 PM 11.15 52.07 164 7.5 4.41 8.79
5/11/2021 9:30:00 PM 11.15 52.07 164 7.51 4.43 8.78
5/11/2021 9:45:00 PM 11.16 52.088 163 7.51 4.15 8.74
5/11/2021 10:00:00 PM 11.16 52.088 164 7.51 4.25 8.74
5/11/2021 10:15:00 PM 11.16 52.088 164 7.51 4.27 8.73
5/11/2021 10:30:00 PM 11.16 52.088 164 7.51 4.19 8.71
5/11/2021 10:45:00 PM 11.16 52.088 164 7.51 4.29 8.69
5/11/2021 11:00:00 PM 11.16 52.088 164 7.51 4.39 8.64
5/11/2021 11:15:00 PM 11.16 52.088 164 7.5 4.21 8.6
5/11/2021 11:30:00 PM 11.16 52.088 163 7.5 4.26 8.55
5/11/2021 11:45:00 PM 11.17 52.106 164 7.5 4.27 8.52
5/12/2021 12:00:00 AM 11.17 52.106 164 7.5 4.12 8.52
5/12/2021 12:15:00 AM 11.17 52.106 164 7.5 4.17 8.53
5/12/2021 12:30:00 AM 11.17 52.106 165 7.51 4.06 8.54
5/12/2021 12:45:00 AM 11.17 52.106 164 7.5 4.14 8.52
5/12/2021 1:00:00 AM 11.17 52.106 166 7.51 4.25 8.54
5/12/2021 1:15:00 AM 11.17 52.106 165 7.51 4.22 8.54
5/12/2021 1:30:00 AM 11.18 52.124 165 7.51 3.99 8.54
5/12/2021 1:45:00 AM 11.18 52.124 164 7.51 4.04 8.52
5/12/2021 2:00:00 AM 11.18 52.124 164 7.5 4.01 8.47
5/12/2021 2:15:00 AM 11.18 52.124 165 7.5 4.12 8.47
5/12/2021 2:30:00 AM 11.18 52.124 165 7.5 4.12 8.43
5/12/2021 2:45:00 AM 11.18 52.124 165 7.5 3.93 8.41
5/12/2021 3:00:00 AM 11.18 52.124 164 7.5 3.93 8.39
5/12/2021 3:15:00 AM 11.18 52.124 164 7.49 3.76 8.38
5/12/2021 3:30:00 AM 11.18 52.124 165 7.51 3.99 8.38
5/12/2021 3:45:00 AM 11.18 52.124 166 7.51 3.87 8.38
5/12/2021 4:00:00 AM 11.19 52.142 165 7.51 3.8 8.37
5/12/2021 4:15:00 AM 11.19 52.142 165 7.5 3.81 8.36
5/12/2021 4:30:00 AM 11.19 52.142 165 7.5 3.86 8.32
5/12/2021 4:45:00 AM 11.19 52.142 166 7.5 3.71 8.3
5/12/2021 5:00:00 AM 11.19 52.142 166 7.5 3.74 8.26
5/12/2021 5:15:00 AM 11.19 52.142 166 7.5 3.8 8.3
5/12/2021 5:30:00 AM 11.19 52.142 166 7.5 3.69 8.26
5/12/2021 5:45:00 AM 11.19 52.142 167 7.5 3.6 8.23
5/12/2021 6:00:00 AM 11.2 52.16 168 7.52 3.59 8.27
5/12/2021 6:15:00 AM 11.21 52.178 167 7.52 3.49 8.29
5/12/2021 6:30:00 AM 11.15 52.07 166 7.51 3.74 8.18
5/12/2021 6:45:00 AM 11.05 51.89 166 7.52 3.79 8.29
5/12/2021 7:00:00 AM 10.9 51.62 165 7.52 3.86 8.3
5/12/2021 7:15:00 AM 10.77 51.386 165 7.52 4.17 8.32
5/12/2021 7:30:00 AM 10.67 51.206 166 7.51 4.04 8.32
5/12/2021 7:45:00 AM 10.6 51.08 166 7.52 3.95 8.35
5/12/2021 8:00:00 AM 10.52 50.936 166 7.51 4.05 8.35
5/12/2021 8:15:00 AM 10.47 50.846 166 7.52 4.02 8.34
5/12/2021 8:30:00 AM 10.43 50.774 166 7.53 3.93 8.35
5/12/2021 8:45:00 AM 10.4 50.72 166 7.52 3.99 8.37
5/12/2021 9:00:00 AM 10.39 50.702 166 7.53 3.94 8.38
5/12/2021 9:15:00 AM 10.39 50.702 166 7.53 3.95 8.38
5/12/2021 9:30:00 AM 10.4 50.72 167 7.53 3.9 8.37
5/12/2021 9:45:00 AM 10.41 50.738 167 7.54 3.72 8.33
5/12/2021 10:00:00 AM 10.43 50.774 167 7.54 3.75 8.31
5/12/2021 10:15:00 AM 10.45 50.81 167 7.54 3.75 8.28
5/12/2021 10:30:00 AM 10.48 50.864 167 7.54 4.14 8.36
5/12/2021 10:45:00 AM 10.51 50.918 167 7.55 4.3 8.42
5/12/2021 11:00:00 AM 10.54 50.972 166 7.55 4.25 8.49
5/12/2021 11:15:00 AM 10.57 51.026 166 7.56 4.25 8.56
5/12/2021 11:30:00 AM 10.61 51.098 165 7.56 4.29 8.57
5/12/2021 11:45:00 AM 10.64 51.152 166 7.56 4.49 8.64
5/12/2021 12:00:00 PM 10.68 51.224 160 7.56 6.25 9.08
5/12/2021 12:15:00 PM 10.72 51.296 161 7.56 6.73 9.18
5/12/2021 12:30:00 PM 10.75 51.35 162 7.57 5.99 9.12
5/12/2021 12:45:00 PM 10.79 51.422 163 7.58 6.26 9.03
5/12/2021 1:00:00 PM 10.82 51.476 160 7.57 6.13 9
5/12/2021 1:15:00 PM 10.85 51.53 162 7.59 6.21 9.05
5/12/2021 1:30:00 PM 10.88 51.584 163 7.6 5.86 9.14
5/12/2021 1:45:00 PM 10.92 51.656 162 7.59 6.27 9.17
5/12/2021 2:00:00 PM 10.95 51.71 161 7.6 5.96 9.14
5/12/2021 2:15:00 PM 10.98 51.764 162 7.59 6.16 9.19
5/12/2021 2:30:00 PM 11 51.8 158 7.61 7.67 9.65
5/12/2021 2:45:00 PM 11.02 51.836 158 7.62 6.99 9.73
5/12/2021 3:00:00 PM 11.03 51.854 159 7.62 6.58 9.68
5/12/2021 3:15:00 PM 11.04 51.872 159 7.61 7.13 9.56
5/12/2021 3:30:00 PM 11.05 51.89 159 7.6 6.15 9.41
5/12/2021 3:45:00 PM 11.05 51.89 160 7.58 6.15 9.38
5/12/2021 4:00:00 PM 11.05 51.89 160 7.6 5.61 9.35
5/12/2021 4:15:00 PM 11.06 51.908 159 7.6 5.85 9.29
5/12/2021 4:30:00 PM 11.06 51.908 162 7.6 5.57 9.33
5/12/2021 4:45:00 PM 11.06 51.908 160 7.6 5.68 9.36
5/12/2021 5:00:00 PM 11.06 51.908 161 7.6 5.83 9.34
5/12/2021 5:15:00 PM 11.06 51.908 160 7.6 5.74 9.34
5/12/2021 5:30:00 PM 11.06 51.908 161 7.6 5.84 9.34
5/12/2021 5:45:00 PM 11.06 51.908 161 7.6 6.95 9.37
5/12/2021 6:00:00 PM 11.06 51.908 161 7.61 5.81 9.3
5/12/2021 6:15:00 PM 11.07 51.926 163 7.61 5.85 9.22
5/12/2021 6:30:00 PM 11.07 51.926 161 7.6 5.32 9.23
5/12/2021 6:45:00 PM 11.07 51.926 162 7.61 5.68 9.33
5/12/2021 7:00:00 PM 11.07 51.926 162 7.61 6.17 9.38
5/12/2021 7:15:00 PM 11.07 51.926 162 7.6 5.55 9.36
5/12/2021 7:30:00 PM 11.06 51.908 161 7.6 5.92 9.35
5/12/2021 7:45:00 PM 11.06 51.908 162 7.61 5.64 9.32
5/12/2021 8:00:00 PM 11.06 51.908 162 7.61 5.55 9.38
5/12/2021 8:15:00 PM 11.06 51.908 162 7.6 5.82 9.23
5/12/2021 8:30:00 PM 11.06 51.908 161 7.61 6 9.36
5/12/2021 8:45:00 PM 11.06 51.908 161 7.6 6.24 9.27
5/12/2021 9:00:00 PM 11.06 51.908 162 7.6 5.97 9.29
5/12/2021 9:15:00 PM 11.06 51.908 161 7.6 5.59 9.23
5/12/2021 9:30:00 PM 11.06 51.908 160 7.6 5.84 9.28
5/12/2021 9:45:00 PM 11.06 51.908 160 7.6 5.88 9.33
5/12/2021 10:00:00 PM 11.06 51.908 161 7.6 5.71 9.37
5/12/2021 10:15:00 PM 11.06 51.908 161 7.6 5.64 9.27
5/12/2021 10:30:00 PM 11.07 51.926 161 7.59 5.6 9.24
5/12/2021 10:45:00 PM 11.07 51.926 162 7.6 5.53 9.23
5/12/2021 11:00:00 PM 11.07 51.926 161 7.6 5.46 9.21
5/12/2021 11:15:00 PM 11.06 51.908 161 7.6 5.51 9.22
5/12/2021 11:30:00 PM 11.06 51.908 161 7.61 5.81 9.19
5/12/2021 11:45:00 PM 11.06 51.908 161 7.6 5.58 9.21
5/13/2021 12:00:00 AM 11.06 51.908 161 7.6 5.49 9.22
5/13/2021 12:15:00 AM 11.06 51.908 161 7.61 5.39 9.17
5/13/2021 12:30:00 AM 11.06 51.908 161 7.6 5.34 9.16
5/13/2021 12:45:00 AM 11.06 51.908 161 7.61 5.41 9.17
5/13/2021 1:00:00 AM 11.06 51.908 161 7.6 5.29 9.14
5/13/2021 1:15:00 AM 11.06 51.908 161 7.6 5.43 9.14
5/13/2021 1:30:00 AM 11.06 51.908 161 7.6 5.43 9.12
5/13/2021 1:45:00 AM 11.06 51.908 161 7.6 5.39 9.13
5/13/2021 2:00:00 AM 11.06 51.908 161 7.6 5.34 9.11
5/13/2021 2:15:00 AM 11.06 51.908 161 7.61 5.44 9.11
5/13/2021 2:30:00 AM 11.06 51.908 161 7.6 5.37 9.08
5/13/2021 2:45:00 AM 11.06 51.908 161 7.6 5.62 9.09
5/13/2021 3:00:00 AM 11.06 51.908 162 7.6 5.31 9.06
5/13/2021 3:15:00 AM 11.06 51.908 161 7.6 5.23 9.06
5/13/2021 3:30:00 AM 11.06 51.908 161 7.6 5.3 9.09
5/13/2021 3:45:00 AM 11.06 51.908 161 7.6 5.26 9.06
5/13/2021 4:00:00 AM 11.06 51.908 160 7.6 5.12 9.04
5/13/2021 4:15:00 AM 11.06 51.908 161 7.6 5.16 9.04
5/13/2021 4:30:00 AM 11.06 51.908 161 7.61 5.46 9.03
5/13/2021 4:45:00 AM 11.06 51.908 161 7.6 5.18 9.02
5/13/2021 5:00:00 AM 11.06 51.908 161 7.6 5.15 9.02
5/13/2021 5:15:00 AM 11.06 51.908 161 7.61 5.22 8.96
5/13/2021 5:30:00 AM 11.06 51.908 161 7.6 5.1 8.96
5/13/2021 5:45:00 AM 11.06 51.908 161 7.6 5.13 8.97
5/13/2021 6:00:00 AM 11.07 51.926 161 7.6 5.06 8.9
5/13/2021 6:15:00 AM 11.06 51.908 161 7.6 4.96 8.87
5/13/2021 6:30:00 AM 11.03 51.854 161 7.59 4.98 8.88
5/13/2021 6:45:00 AM 11.01 51.818 161 7.59 5.01 8.87
5/13/2021 7:00:00 AM 10.99 51.782 161 7.58 5.08 8.91
5/13/2021 7:15:00 AM 10.97 51.746 161 7.58 5.21 8.94
5/13/2021 7:30:00 AM 10.97 51.746 161 7.58 5.24 8.93
5/13/2021 7:45:00 AM 10.97 51.746 161 7.57 5.03 8.89
5/13/2021 8:00:00 AM 10.97 51.746 161 7.59 4.97 8.86
5/13/2021 8:15:00 AM 10.99 51.782 161 7.59 4.98 8.83
5/13/2021 8:30:00 AM 11 51.8 161 7.59 5 8.81
5/13/2021 8:45:00 AM 11.02 51.836 161 7.58 5.02 8.8
5/13/2021 9:00:00 AM 11.05 51.89 161 7.59 4.78 8.81
5/13/2021 9:15:00 AM 11.07 51.926 161 7.59 4.71 8.85
5/13/2021 9:30:00 AM 11.1 51.98 161 7.59 4.74 8.88
5/13/2021 9:45:00 AM 11.13 52.034 161 7.59 5.22 8.89
5/13/2021 10:00:00 AM 11.18 52.124 162 7.59 4.87 8.89
5/13/2021 10:15:00 AM 11.22 52.196 162 7.59 4.74 8.91
5/13/2021 10:30:00 AM 11.26 52.268 162 7.6 5.31 9.17
5/13/2021 10:45:00 AM 11.31 52.358 162 7.59 5.48 9.29
5/13/2021 11:00:00 AM 11.36 52.448 162 7.6 5.45 9.25
5/13/2021 11:15:00 AM 11.39 52.502 162 7.6 5.06 9.22
5/13/2021 11:30:00 AM 11.43 52.574 162 7.6 4.95 9.19
5/13/2021 11:45:00 AM 11.47 52.646 162 7.61 4.8 9.22
5/13/2021 12:00:00 PM 11.52 52.736 162 7.61 4.83 9.13
5/13/2021 12:15:00 PM 11.58 52.844 162 7.61 5.83 9.19
5/13/2021 12:30:00 PM 11.64 52.952 162 7.62 5.25 9.39
5/13/2021 12:45:00 PM 11.69 53.042 162 7.61 4.98 9.36
5/13/2021 1:00:00 PM 11.72 53.096 162 7.62 5.28 9.39
5/13/2021 1:15:00 PM 11.76 53.168 163 7.63 5.09 9.35
5/13/2021 1:30:00 PM 11.77 53.186 162 7.63 4.98 9.35
5/13/2021 1:45:00 PM 11.8 53.24 163 7.63 5.16 9.39
5/13/2021 2:00:00 PM 11.83 53.294 163 7.62 5.33 9.33
5/13/2021 2:15:00 PM 11.86 53.348 164 7.67 6.53 10.25
5/13/2021 2:30:00 PM 11.91 53.438 164 7.67 6.15 10.22
5/13/2021 2:45:00 PM 11.93 53.474 164 7.67 5.98 10.24
5/13/2021 3:00:00 PM 11.94 53.492 163 7.68 5.49 10.13
5/13/2021 3:15:00 PM 11.95 53.51 164 7.67 5.25 9.87
5/13/2021 3:30:00 PM 11.96 53.528 164 7.66 5.25 9.78
5/13/2021 3:45:00 PM 11.96 53.528 163 7.67 5.12 9.79
5/13/2021 4:00:00 PM 11.96 53.528 164 7.66 4.94 9.67
5/13/2021 4:15:00 PM 11.96 53.528 163 7.67 4.95 9.62
5/13/2021 4:30:00 PM 11.96 53.528 163 7.66 4.85 9.57
5/13/2021 4:45:00 PM 11.96 53.528 163 7.66 4.96 9.52
5/13/2021 5:00:00 PM 11.96 53.528 163 7.66 5.08 9.51
5/13/2021 5:15:00 PM 11.96 53.528 163 7.67 5.07 9.48
5/13/2021 5:30:00 PM 11.96 53.528 163 7.66 4.92 9.47
5/13/2021 5:45:00 PM 11.96 53.528 164 7.66 4.85 9.43
5/13/2021 6:00:00 PM 11.96 53.528 164 7.66 4.8 9.41
5/13/2021 6:15:00 PM 11.96 53.528 164 7.67 4.68 9.39
5/13/2021 6:30:00 PM 11.96 53.528 164 7.67 4.83 9.36
5/13/2021 6:45:00 PM 11.95 53.51 164 7.66 4.7 9.34
5/13/2021 7:00:00 PM 11.95 53.51 164 7.67 4.75 9.3
5/13/2021 7:15:00 PM 11.95 53.51 164 7.67 4.63 9.3
5/13/2021 7:30:00 PM 11.95 53.51 164 7.67 4.82 9.29
5/13/2021 7:45:00 PM 11.95 53.51 164 7.67 4.58 9.28
5/13/2021 8:00:00 PM 11.94 53.492 164 7.67 4.58 9.27
5/13/2021 8:15:00 PM 11.94 53.492 164 7.68 4.5 9.24
5/13/2021 8:30:00 PM 11.94 53.492 164 7.67 4.63 9.25
5/13/2021 8:45:00 PM 11.94 53.492 164 7.68 4.54 9.21
5/13/2021 9:00:00 PM 11.94 53.492 164 7.68 4.55 9.2
5/13/2021 9:15:00 PM 11.94 53.492 164 7.68 4.56 9.17
5/13/2021 9:30:00 PM 11.93 53.474 164 7.68 4.54 9.15
5/13/2021 9:45:00 PM 11.93 53.474 164 7.68 4.54 9.14
5/13/2021 10:00:00 PM 11.93 53.474 164 7.68 4.39 9.11
5/13/2021 10:15:00 PM 11.93 53.474 164 7.69 4.57 9.11
5/13/2021 10:30:00 PM 11.93 53.474 164 7.68 4.52 9.08
5/13/2021 10:45:00 PM 11.93 53.474 164 7.69 4.37 9.06
5/13/2021 11:00:00 PM 11.92 53.456 164 7.69 4.44 9.06
5/13/2021 11:15:00 PM 11.92 53.456 165 7.69 4.41 9.03
5/13/2021 11:30:00 PM 11.92 53.456 165 7.69 4.39 9.04
5/13/2021 11:45:00 PM 11.92 53.456 165 7.7 4.36 9.02
5/14/2021 12:00:00 AM 11.92 53.456 165 7.69 4.37 8.99
5/14/2021 12:15:00 AM 11.92 53.456 165 7.69 4.31 8.98
5/14/2021 12:30:00 AM 11.92 53.456 165 7.69 4.36 9.02
5/14/2021 12:45:00 AM 11.91 53.438 165 7.7 4.29 8.98
5/14/2021 1:00:00 AM 11.91 53.438 165 7.7 4.23 8.94
5/14/2021 1:15:00 AM 11.91 53.438 165 7.7 4.17 8.93
5/14/2021 1:30:00 AM 11.91 53.438 165 7.7 4.22 8.91
5/14/2021 1:45:00 AM 11.91 53.438 165 7.7 4.25 8.89
5/14/2021 2:00:00 AM 11.91 53.438 165 7.69 4.21 8.9
5/14/2021 2:15:00 AM 11.91 53.438 165 7.7 4.26 8.87
5/14/2021 2:30:00 AM 11.9 53.42 165 7.71 4.14 8.85
5/14/2021 2:45:00 AM 11.91 53.438 165 7.7 4.22 8.84
5/14/2021 3:00:00 AM 11.9 53.42 165 7.71 4.08 8.86
5/14/2021 3:15:00 AM 11.9 53.42 165 7.71 4.12 8.84
5/14/2021 3:30:00 AM 11.9 53.42 165 7.71 4.05 8.84
5/14/2021 3:45:00 AM 11.9 53.42 165 7.7 4.12 8.8
5/14/2021 4:00:00 AM 11.9 53.42 165 7.71 4.1 8.84
5/14/2021 4:15:00 AM 11.9 53.42 165 7.71 4.13 8.8
5/14/2021 4:30:00 AM 11.9 53.42 165 7.71 4.05 8.77
5/14/2021 4:45:00 AM 11.9 53.42 165 7.71 4.14 8.77
5/14/2021 5:00:00 AM 11.89 53.402 165 7.7 4.12 8.75
5/14/2021 5:15:00 AM 11.89 53.402 165 7.7 4.06 8.78
5/14/2021 5:30:00 AM 11.89 53.402 165 7.71 4.06 8.73
5/14/2021 5:45:00 AM 11.89 53.402 165 7.71 4.07 8.78
5/14/2021 6:00:00 AM 11.89 53.402 163 7.63 4.33 8.96
5/14/2021 6:15:00 AM 11.85 53.33 163 7.61 5 9.06
5/14/2021 6:30:00 AM 11.72 53.096 163 7.61 4.63 9.09
5/14/2021 6:45:00 AM 11.6 52.88 163 7.61 4.42 9.15
5/14/2021 7:00:00 AM 11.53 52.754 164 7.61 4.4 9.2
5/14/2021 7:15:00 AM 11.47 52.646 164 7.61 4.36 9.22
5/14/2021 7:30:00 AM 11.44 52.592 164 7.62 4.85 9.21
5/14/2021 7:45:00 AM 11.42 52.556 164 7.61 4.39 9.2
5/14/2021 8:00:00 AM 11.42 52.556 164 7.6 4.9 9.15
5/14/2021 8:15:00 AM 11.43 52.574 164 7.62 4.26 9.11
5/14/2021 8:30:00 AM 11.45 52.61 164 7.62 4.31 9.07
5/14/2021 8:45:00 AM 11.47 52.646 164 7.62 4.36 9.06
5/14/2021 9:00:00 AM 11.51 52.718 164 7.62 4.2 9.02
5/14/2021 9:15:00 AM 11.54 52.772 164 7.62 4.3 9.03
5/14/2021 9:30:00 AM 11.58 52.844 164 7.62 4.23 9.06
5/14/2021 9:45:00 AM 11.63 52.934 164 7.62 4.44 9.02
5/14/2021 10:00:00 AM 11.66 52.988 165 7.62 4.46 9.23
5/14/2021 10:15:00 AM 11.72 53.096 165 7.62 4.45 9.2
5/14/2021 10:30:00 AM 11.76 53.168 165 7.62 4.6 9.17
5/14/2021 10:45:00 AM 11.81 53.258 164 7.62 4.4 9.25
5/14/2021 11:00:00 AM 11.86 53.348 165 7.62 4.38 9.37
5/14/2021 11:15:00 AM 11.93 53.474 165 7.63 4.47 9.39
5/14/2021 11:30:00 AM 11.99 53.582 164 7.64 4.16 9.4
5/14/2021 11:45:00 AM 12.07 53.726 166 7.64 4.37 9.37
5/14/2021 12:00:00 PM 12.13 53.834 165 7.63 4.63 9.49
5/14/2021 12:15:00 PM 12.2 53.96 166 7.64 4.44 9.57
5/14/2021 12:30:00 PM 12.27 54.086 166 7.64 4.65 9.43
5/14/2021 12:45:00 PM 12.34 54.212 166 7.64 4.67 9.48
5/14/2021 1:00:00 PM 12.42 54.356 168 7.65 4.6 9.54
5/14/2021 1:15:00 PM 12.49 54.482 167 7.66 4.5 9.79
5/14/2021 1:30:00 PM 12.56 54.608 168 7.66 4.47 9.7
5/14/2021 1:45:00 PM 12.63 54.734 167 7.67 4.49 9.82
5/14/2021 2:00:00 PM 12.69 54.842 170 7.69 5 10.12
5/14/2021 2:15:00 PM 12.73 54.914 171 7.7 4.6 10.38
5/14/2021 2:30:00 PM 12.76 54.968 171 7.71 4.52 10.38
5/14/2021 2:45:00 PM 12.78 55.004 170 7.71 4.39 10.33
5/14/2021 3:00:00 PM 12.79 55.022 168 7.69 4.34 10.04
5/14/2021 3:15:00 PM 12.8 55.04 170 7.69 4.32 9.92
5/14/2021 3:30:00 PM 12.8 55.04 169 7.69 4.1 9.84
5/14/2021 3:45:00 PM 12.81 55.058 169 7.69 3.95 9.8
5/14/2021 4:00:00 PM 12.81 55.058 169 7.69 4.03 9.78
5/14/2021 4:15:00 PM 12.82 55.076 168 7.68 4.23 9.72
5/14/2021 4:30:00 PM 12.82 55.076 169 7.68 4.24 9.69
5/14/2021 4:45:00 PM 12.82 55.076 169 7.69 3.94 9.68
5/14/2021 5:00:00 PM 12.82 55.076 169 7.69 3.9 9.67
5/14/2021 5:15:00 PM 12.82 55.076 169 7.7 4.12 9.67
5/14/2021 5:30:00 PM 12.81 55.058 169 7.7 3.78 9.69
5/14/2021 5:45:00 PM 12.81 55.058 169 7.7 3.83 9.66
5/14/2021 6:00:00 PM 12.81 55.058 169 7.69 3.85 9.63
5/14/2021 6:15:00 PM 12.81 55.058 169 7.7 3.8 9.61
5/14/2021 6:30:00 PM 12.8 55.04 169 7.7 3.68 9.6
5/14/2021 6:45:00 PM 12.8 55.04 169 7.7 3.78 9.6
5/14/2021 7:00:00 PM 12.8 55.04 169 7.7 3.71 9.55
5/14/2021 7:15:00 PM 12.8 55.04 170 7.7 3.6 9.52
5/14/2021 7:30:00 PM 12.79 55.022 169 7.7 3.66 9.49
5/14/2021 7:45:00 PM 12.79 55.022 170 7.71 3.65 9.46
5/14/2021 8:00:00 PM 12.79 55.022 169 7.71 3.55 9.46
5/14/2021 8:15:00 PM 12.78 55.004 169 7.71 3.58 9.43
5/14/2021 8:30:00 PM 12.78 55.004 170 7.72 3.5 9.42
5/14/2021 8:45:00 PM 12.78 55.004 170 7.72 3.44 9.38
5/14/2021 9:00:00 PM 12.78 55.004 170 7.72 3.44 9.43
5/14/2021 9:15:00 PM 12.77 54.986 170 7.72 3.44 9.34
5/14/2021 9:30:00 PM 12.77 54.986 170 7.72 3.51 9.35
5/14/2021 9:45:00 PM 12.77 54.986 170 7.73 3.54 9.39
5/14/2021 10:00:00 PM 12.77 54.986 170 7.73 3.52 9.32
5/14/2021 10:15:00 PM 12.77 54.986 170 7.72 3.44 9.31
5/14/2021 10:30:00 PM 12.76 54.968 170 7.72 3.39 9.27
5/14/2021 10:45:00 PM 12.76 54.968 170 7.71 3.36 9.23
5/14/2021 11:00:00 PM 12.76 54.968 170 7.72 3.39 9.2
5/14/2021 11:15:00 PM 12.76 54.968 170 7.73 3.36 9.18
5/14/2021 11:30:00 PM 12.75 54.95 170 7.73 3.34 9.15
5/14/2021 11:45:00 PM 12.75 54.95 170 7.73 3.42 9.15
5/15/2021 12:00:00 AM 12.75 54.95 170 7.74 3.36 9.12
5/15/2021 12:15:00 AM 12.75 54.95 170 7.74 3.37 9.11
5/15/2021 12:30:00 AM 12.74 54.932 170 7.73 3.38 9.08
5/15/2021 12:45:00 AM 12.74 54.932 170 7.73 3.28 9.11
5/15/2021 1:00:00 AM 12.74 54.932 170 7.73 3.2 9.05
5/15/2021 1:15:00 AM 12.74 54.932 171 7.74 3.23 9.04
5/15/2021 1:30:00 AM 12.74 54.932 171 7.74 3.37 9
5/15/2021 1:45:00 AM 12.73 54.914 171 7.74 3.23 8.99
5/15/2021 2:00:00 AM 12.73 54.914 171 7.74 3.25 9
5/15/2021 2:15:00 AM 12.73 54.914 171 7.74 3.29 9.01
5/15/2021 2:30:00 AM 12.73 54.914 171 7.74 3.24 8.92
5/15/2021 2:45:00 AM 12.73 54.914 171 7.74 3.25 8.9
5/15/2021 3:00:00 AM 12.73 54.914 171 7.74 3.19 8.88
5/15/2021 3:15:00 AM 12.72 54.896 171 7.74 3.28 8.89
5/15/2021 3:30:00 AM 12.72 54.896 170 7.73 3.29 8.86
5/15/2021 3:45:00 AM 12.72 54.896 171 7.73 3.11 8.92
5/15/2021 4:00:00 AM 12.72 54.896 171 7.74 3.17 8.82
5/15/2021 4:15:00 AM 12.72 54.896 171 7.73 3.2 8.84
5/15/2021 4:30:00 AM 12.71 54.878 171 7.74 3.16 8.8
5/15/2021 4:45:00 AM 12.71 54.878 171 7.74 3.21 8.79
5/15/2021 5:00:00 AM 12.71 54.878 171 7.74 3.21 8.77
5/15/2021 5:15:00 AM 12.71 54.878 171 7.74 3.21 8.76
5/15/2021 5:30:00 AM 12.71 54.878 171 7.73 3.12 8.75
5/15/2021 5:45:00 AM 12.7 54.86 168 7.67 3.5 9.08
5/15/2021 6:00:00 AM 12.68 54.824 168 7.64 3.62 9.29
5/15/2021 6:15:00 AM 12.62 54.716 169 7.64 3.55 9.27
5/15/2021 6:30:00 AM 12.57 54.626 169 7.64 3.64 9.28
5/15/2021 6:45:00 AM 12.51 54.518 169 7.63 3.56 9.31
5/15/2021 7:00:00 AM 12.48 54.464 169 7.63 3.78 9.32
5/15/2021 7:15:00 AM 12.46 54.428 170 7.62 3.54 9.32
5/15/2021 7:30:00 AM 12.45 54.41 170 7.63 3.45 9.3
5/15/2021 7:45:00 AM 12.45 54.41 170 7.63 3.48 9.25
5/15/2021 8:00:00 AM 12.46 54.428 170 7.63 3.55 9.22
5/15/2021 8:15:00 AM 12.48 54.464 170 7.63 3.43 9.16
5/15/2021 8:30:00 AM 12.5 54.5 170 7.63 3.48 9.13
5/15/2021 8:45:00 AM 12.53 54.554 170 7.63 3.43 9.1
5/15/2021 9:00:00 AM 12.57 54.626 170 7.63 3.49 9.06
5/15/2021 9:15:00 AM 12.6 54.68 170 7.63 3.39 9.09
5/15/2021 9:30:00 AM 12.64 54.752 170 7.63 3.4 9.09
5/15/2021 9:45:00 AM 12.69 54.842 171 7.63 3.35 9.12
5/15/2021 10:00:00 AM 12.74 54.932 172 7.64 3.44 9.32
5/15/2021 10:15:00 AM 12.78 55.004 172 7.65 3.72 9.41
5/15/2021 10:30:00 AM 12.83 55.094 172 7.65 3.45 9.4
5/15/2021 10:45:00 AM 12.88 55.184 172 7.65 3.3 9.38
5/15/2021 11:00:00 AM 12.94 55.292 172 7.65 3.3 9.3
5/15/2021 11:15:00 AM 13 55.4 172 7.65 3.31 9.39
5/15/2021 11:30:00 AM 13.08 55.544 173 7.67 3.37 9.44
5/15/2021 11:45:00 AM 13.15 55.67 172 7.67 3.37 9.43
5/15/2021 12:00:00 PM 13.24 55.832 174 7.69 3.41 9.63
5/15/2021 12:15:00 PM 13.3 55.94 174 7.68 3.51 9.52
5/15/2021 12:30:00 PM 13.36 56.048 174 7.68 3.64 9.55
5/15/2021 12:45:00 PM 13.42 56.156 174 7.68 3.36 9.57
5/15/2021 1:00:00 PM 13.46 56.228 174 7.68 3.22 9.57
5/15/2021 1:15:00 PM 13.51 56.318 178 7.76 3.96 10.2
5/15/2021 1:30:00 PM 13.55 56.39 178 7.77 3.59 10.4
5/15/2021 1:45:00 PM 13.57 56.426 179 7.77 3.35 10.49
5/15/2021 2:00:00 PM 13.59 56.462 179 7.78 3.11 10.42
5/15/2021 2:15:00 PM 13.59 56.462 179 7.77 3 10.31
5/15/2021 2:30:00 PM 13.6 56.48 178 7.77 3.06 10.2
5/15/2021 2:45:00 PM 13.6 56.48 176 7.76 2.97 10.06
5/15/2021 3:00:00 PM 13.6 56.48 176 7.76 3.05 9.9
5/15/2021 3:15:00 PM 13.6 56.48 177 7.74 2.83 9.81
5/15/2021 3:30:00 PM 13.6 56.48 177 7.74 3.12 9.77
5/15/2021 3:45:00 PM 13.6 56.48 176 7.74 3.01 9.73
5/15/2021 4:00:00 PM 13.6 56.48 176 7.74 2.85 9.68
5/15/2021 4:15:00 PM 13.59 56.462 176 7.73 2.99 9.63
5/15/2021 4:30:00 PM 13.59 56.462 176 7.73 2.79 9.65
5/15/2021 4:45:00 PM 13.59 56.462 176 7.73 2.83 9.57
5/15/2021 5:00:00 PM 13.58 56.444 175 7.73 2.82 9.58
5/15/2021 5:15:00 PM 13.58 56.444 176 7.73 2.75 9.55
5/15/2021 5:30:00 PM 13.58 56.444 176 7.73 2.75 9.51
5/15/2021 5:45:00 PM 13.57 56.426 176 7.73 2.78 9.5
5/15/2021 6:00:00 PM 13.57 56.426 176 7.73 2.91 9.47
5/15/2021 6:15:00 PM 13.57 56.426 176 7.73 2.65 9.42
5/15/2021 6:30:00 PM 13.56 56.408 176 7.72 2.81 9.4
5/15/2021 6:45:00 PM 13.56 56.408 176 7.73 2.73 9.39
5/15/2021 7:00:00 PM 13.56 56.408 176 7.73 2.74 9.37
5/15/2021 7:15:00 PM 13.56 56.408 176 7.73 2.61 9.36
5/15/2021 7:30:00 PM 13.55 56.39 176 7.72 2.64 9.31
5/15/2021 7:45:00 PM 13.55 56.39 176 7.72 2.69 9.31
5/15/2021 8:00:00 PM 13.55 56.39 176 7.73 2.66 9.29
5/15/2021 8:15:00 PM 13.54 56.372 176 7.73 2.62 9.28
5/15/2021 8:30:00 PM 13.54 56.372 176 7.73 2.58 9.25
5/15/2021 8:45:00 PM 13.54 56.372 176 7.73 2.61 9.26
5/15/2021 9:00:00 PM 13.53 56.354 176 7.72 2.57 9.22
5/15/2021 9:15:00 PM 13.53 56.354 176 7.73 2.54 9.21
5/15/2021 9:30:00 PM 13.53 56.354 176 7.73 2.58 9.18
5/15/2021 9:45:00 PM 13.52 56.336 176 7.73 2.55 9.17
5/15/2021 10:00:00 PM 13.52 56.336 176 7.73 2.6 9.16
5/15/2021 10:15:00 PM 13.52 56.336 176 7.73 2.53 9.14
5/15/2021 10:30:00 PM 13.51 56.318 176 7.73 2.53 9.13
5/15/2021 10:45:00 PM 13.51 56.318 176 7.73 2.5 9.08
5/15/2021 11:00:00 PM 13.51 56.318 176 7.73 2.51 9.06
5/15/2021 11:15:00 PM 13.5 56.3 176 7.74 2.55 9.05
5/15/2021 11:30:00 PM 13.5 56.3 176 7.73 2.62 9.07
5/15/2021 11:45:00 PM 13.5 56.3 176 7.74 2.58 9.07
5/16/2021 12:00:00 AM 13.5 56.3 176 7.74 2.51 9.05
5/16/2021 12:15:00 AM 13.49 56.282 176 7.74 2.58 9.04
5/16/2021 12:30:00 AM 13.49 56.282 176 7.74 2.48 9.05
5/16/2021 12:45:00 AM 13.49 56.282 176 7.74 2.42 9.05
5/16/2021 1:00:00 AM 13.49 56.282 177 7.74 2.42 9.01
5/16/2021 1:15:00 AM 13.48 56.264 177 7.74 2.48 8.99
5/16/2021 1:30:00 AM 13.48 56.264 176 7.74 2.41 8.96
5/16/2021 1:45:00 AM 13.48 56.264 177 7.74 2.45 8.95
5/16/2021 2:00:00 AM 13.47 56.246 176 7.74 2.41 8.95
5/16/2021 2:15:00 AM 13.47 56.246 176 7.75 2.4 8.96
5/16/2021 2:30:00 AM 13.47 56.246 177 7.74 2.39 8.89
5/16/2021 2:45:00 AM 13.47 56.246 176 7.75 2.39 8.9
5/16/2021 3:00:00 AM 13.46 56.228 176 7.74 2.48 8.9
5/16/2021 3:15:00 AM 13.46 56.228 176 7.74 2.37 8.9
5/16/2021 3:30:00 AM 13.46 56.228 176 7.74 2.4 8.92
5/16/2021 3:45:00 AM 13.45 56.21 176 7.73 2.45 8.9
5/16/2021 4:00:00 AM 13.45 56.21 176 7.73 2.5 8.89
5/16/2021 4:15:00 AM 13.45 56.21 176 7.74 2.4 8.85
5/16/2021 4:30:00 AM 13.45 56.21 177 7.73 2.5 8.84
5/16/2021 4:45:00 AM 13.45 56.21 177 7.74 2.35 8.87
5/16/2021 5:00:00 AM 13.44 56.192 176 7.74 2.38 8.81
5/16/2021 5:15:00 AM 13.44 56.192 176 7.74 2.39 8.8
5/16/2021 5:30:00 AM 13.44 56.192 176 7.74 2.37 8.8
5/16/2021 5:45:00 AM 13.43 56.174 176 7.74 2.29 8.81
5/16/2021 6:00:00 AM 13.39 56.102 176 7.69 2.52 8.85
5/16/2021 6:15:00 AM 13.36 56.048 176 7.68 2.41 8.95
5/16/2021 6:30:00 AM 13.37 56.066 176 7.69 2.49 8.89
5/16/2021 6:45:00 AM 13.39 56.102 176 7.69 2.36 8.88
5/16/2021 7:00:00 AM 13.41 56.138 176 7.68 2.5 8.93
5/16/2021 7:15:00 AM 13.43 56.174 177 7.69 2.42 8.95
5/16/2021 7:30:00 AM 13.44 56.192 177 7.69 2.36 8.91
5/16/2021 7:45:00 AM 13.45 56.21 177 7.68 2.4 8.81
5/16/2021 8:00:00 AM 13.46 56.228 177 7.69 2.38 8.9
5/16/2021 8:15:00 AM 13.47 56.246 177 7.69 2.33 8.89
5/16/2021 8:30:00 AM 13.48 56.264 177 7.69 2.47 8.85
5/16/2021 8:45:00 AM 13.49 56.282 177 7.68 2.37 9.05
5/16/2021 9:00:00 AM 13.5 56.3 178 7.68 2.34 9.02
5/16/2021 9:15:00 AM 13.52 56.336 178 7.69 2.28 9.01
5/16/2021 9:30:00 AM 13.53 56.354 178 7.69 2.26 8.98
5/16/2021 9:45:00 AM 13.55 56.39 178 7.69 2.31 8.9
5/16/2021 10:00:00 AM 13.56 56.408 178 7.7 2.25 8.87
5/16/2021 10:15:00 AM 13.58 56.444 178 7.7 2.28 8.89
5/16/2021 10:30:00 AM 13.6 56.48 177 7.69 2.28 8.8
5/16/2021 10:45:00 AM 13.62 56.516 178 7.69 2.24 8.78
5/16/2021 11:00:00 AM 13.66 56.588 178 7.69 2.25 8.76
5/16/2021 11:15:00 AM 13.7 56.66 178 7.69 2.3 8.75
5/16/2021 11:30:00 AM 13.73 56.714 180 7.7 2.18 9.09
5/16/2021 11:45:00 AM 13.77 56.786 180 7.69 2.4 9.02
5/16/2021 12:00:00 PM 13.8 56.84 180 7.7 2.16 8.98
5/16/2021 12:15:00 PM 13.84 56.912 180 7.71 2.25 8.95
5/16/2021 12:30:00 PM 13.87 56.966 180 7.7 2.14 8.9
5/16/2021 12:45:00 PM 13.9 57.02 181 7.7 2.23 8.85
5/16/2021 1:00:00 PM 13.93 57.074 180 7.7 2.15 8.8
5/16/2021 1:15:00 PM 13.97 57.146 180 7.7 2.27 8.74
5/16/2021 1:30:00 PM 14.03 57.254 187 7.75 2.55 9.32
5/16/2021 1:45:00 PM 14.07 57.326 189 7.79 3 10.07
5/16/2021 2:00:00 PM 14.1 57.38 189 7.81 2.88 10.19
5/16/2021 2:15:00 PM 14.12 57.416 189 7.81 2.41 10.21
5/16/2021 2:30:00 PM 14.13 57.434 189 7.82 2.27 10.16
5/16/2021 2:45:00 PM 14.14 57.452 190 7.82 2.33 10.13
5/16/2021 3:00:00 PM 14.14 57.452 189 7.83 2.17 10.08
5/16/2021 3:15:00 PM 14.14 57.452 189 7.83 2.05 10.02
5/16/2021 3:30:00 PM 14.15 57.47 189 7.83 1.94 9.97
5/16/2021 3:45:00 PM 14.15 57.47 189 7.83 2.02 9.91
5/16/2021 4:00:00 PM 14.14 57.452 189 7.83 1.89 9.85
5/16/2021 4:15:00 PM 14.14 57.452 189 7.83 1.95 9.74
5/16/2021 4:30:00 PM 14.14 57.452 187 7.83 1.99 9.6
5/16/2021 4:45:00 PM 14.13 57.434 187 7.81 1.94 9.47
5/16/2021 5:00:00 PM 14.13 57.434 186 7.8 1.96 9.34
5/16/2021 5:15:00 PM 14.13 57.434 186 7.79 1.99 9.26
5/16/2021 5:30:00 PM 14.12 57.416 185 7.78 1.98 9.17
5/16/2021 5:45:00 PM 14.12 57.416 185 7.77 2.02 9.11
5/16/2021 6:00:00 PM 14.11 57.398 184 7.76 2.14 9.07
5/16/2021 6:15:00 PM 14.11 57.398 184 7.75 2.08 9.02
5/16/2021 6:30:00 PM 14.11 57.398 183 7.75 2.03 8.99
5/16/2021 6:45:00 PM 14.1 57.38 183 7.74 2.05 8.99
5/16/2021 7:00:00 PM 14.1 57.38 183 7.75 2.05 8.96
5/16/2021 7:15:00 PM 14.1 57.38 183 7.74 2.06 8.95
5/16/2021 7:30:00 PM 14.09 57.362 184 7.74 2.15 8.93
5/16/2021 7:45:00 PM 14.09 57.362 183 7.74 1.99 8.92
5/16/2021 8:00:00 PM 14.08 57.344 183 7.73 2.04 8.91
5/16/2021 8:15:00 PM 14.08 57.344 184 7.74 1.95 8.89
5/16/2021 8:30:00 PM 14.08 57.344 184 7.75 1.96 8.88
5/16/2021 8:45:00 PM 14.07 57.326 184 7.74 2.01 8.86
5/16/2021 9:00:00 PM 14.07 57.326 183 7.75 2.01 8.83
5/16/2021 9:15:00 PM 14.07 57.326 184 7.75 1.97 8.82
5/16/2021 9:30:00 PM 14.06 57.308 184 7.75 1.91 8.77
5/16/2021 9:45:00 PM 14.06 57.308 183 7.74 1.94 8.78
5/16/2021 10:00:00 PM 14.06 57.308 184 7.75 2.21 8.77
5/16/2021 10:15:00 PM 14.05 57.29 184 7.75 1.98 8.76
5/16/2021 10:30:00 PM 14.05 57.29 184 7.74 2.07 8.75
5/16/2021 10:45:00 PM 14.05 57.29 184 7.74 1.92 8.75
5/16/2021 11:00:00 PM 14.04 57.272 184 7.74 1.96 8.72
5/16/2021 11:15:00 PM 14.04 57.272 184 7.74 1.95 8.7
5/16/2021 11:30:00 PM 14.04 57.272 184 7.75 1.92 8.69
5/16/2021 11:45:00 PM 14.03 57.254 184 7.74 1.9 8.67
5/17/2021 12:00:00 AM 14.03 57.254 184 7.75 1.91 8.66
5/17/2021 12:15:00 AM 14.03 57.254 184 7.74 1.93 8.65
5/17/2021 12:30:00 AM 14.02 57.236 184 7.74 1.91 8.64
5/17/2021 12:45:00 AM 14.02 57.236 184 7.74 1.91 8.62
5/17/2021 1:00:00 AM 14.02 57.236 184 7.75 1.9 8.6
5/17/2021 1:15:00 AM 14.01 57.218 184 7.74 1.83 8.59
5/17/2021 1:30:00 AM 14.01 57.218 184 7.75 1.84 8.58
5/17/2021 1:45:00 AM 14.01 57.218 184 7.74 1.82 8.56
5/17/2021 2:00:00 AM 14 57.2 184 7.75 1.86 8.56
5/17/2021 2:15:00 AM 14 57.2 184 7.74 1.84 8.53
5/17/2021 2:30:00 AM 14 57.2 184 7.74 1.83 8.53
5/17/2021 2:45:00 AM 13.99 57.182 184 7.74 1.8 8.52
5/17/2021 3:00:00 AM 13.99 57.182 184 7.75 1.86 8.5
5/17/2021 3:15:00 AM 13.99 57.182 184 7.74 1.81 8.49
5/17/2021 3:30:00 AM 13.98 57.164 184 7.74 2.07 8.47
5/17/2021 3:45:00 AM 13.98 57.164 184 7.74 1.83 8.45
5/17/2021 4:00:00 AM 13.98 57.164 184 7.74 1.83 8.45
5/17/2021 4:15:00 AM 13.98 57.164 184 7.74 1.87 8.43
5/17/2021 4:30:00 AM 13.97 57.146 184 7.74 1.8 8.41
5/17/2021 4:45:00 AM 13.97 57.146 184 7.74 1.76 8.42
5/17/2021 5:00:00 AM 13.97 57.146 184 7.74 1.78 8.42
5/17/2021 5:15:00 AM 13.96 57.128 184 7.74 1.81 8.42
5/17/2021 5:30:00 AM 13.96 57.128 184 7.74 1.83 8.4
5/17/2021 5:45:00 AM 13.96 57.128 184 7.75 1.75 8.38
5/17/2021 6:00:00 AM 13.94 57.092 184 7.74 1.91 8.33
5/17/2021 6:15:00 AM 13.9 57.02 184 7.74 1.81 8.36
5/17/2021 6:30:00 AM 13.92 57.056 184 7.74 1.75 8.33
5/17/2021 6:45:00 AM 13.94 57.092 184 7.74 1.85 8.3
5/17/2021 7:00:00 AM 13.96 57.128 184 7.74 2 8.29
5/17/2021 7:15:00 AM 13.97 57.146 185 7.75 1.71 8.26
5/17/2021 7:30:00 AM 13.97 57.146 185 7.75 1.77 8.23
5/17/2021 7:45:00 AM 13.98 57.164 185 7.75 1.73 8.2
5/17/2021 8:00:00 AM 13.99 57.182 185 7.75 1.72 8.17
5/17/2021 8:15:00 AM 14.01 57.218 185 7.75 1.73 8.18
5/17/2021 8:30:00 AM 14.02 57.236 185 7.73 1.71 8.24
5/17/2021 8:45:00 AM 14.05 57.29 185 7.74 1.68 8.26
5/17/2021 9:00:00 AM 14.07 57.326 186 7.75 1.67 8.35
5/17/2021 9:15:00 AM 14.1 57.38 186 7.75 1.69 8.38
5/17/2021 9:30:00 AM 14.13 57.434 186 7.74 1.74 8.3
5/17/2021 9:45:00 AM 14.17 57.506 187 7.74 1.8 8.3
5/17/2021 10:00:00 AM 14.21 57.578 187 7.74 1.73 8.37
5/17/2021 10:15:00 AM 14.26 57.668 187 7.74 1.82 8.41
5/17/2021 10:30:00 AM 14.32 57.776 188 7.74 1.94 8.44
5/17/2021 10:45:00 AM 14.38 57.884 190 7.75 1.73 8.66
5/17/2021 11:00:00 AM 14.44 57.992 190 7.75 1.94 8.65
5/17/2021 11:15:00 AM 14.5 58.1 190 7.75 2.01 8.76
5/17/2021 11:30:00 AM 14.56 58.208 191 7.77 1.89 8.94
5/17/2021 11:45:00 AM 14.63 58.334 192 7.76 2.1 8.84
5/17/2021 12:00:00 PM 14.7 58.46 193 7.78 2.06 9.1
5/17/2021 12:15:00 PM 14.77 58.586 197 7.86 2.36 9.94
5/17/2021 12:30:00 PM 14.82 58.676 197 7.86 2.37 9.74
5/17/2021 12:45:00 PM 14.88 58.784 196 7.86 2.39 9.68
5/17/2021 1:00:00 PM 14.95 58.91 196 7.87 2.53 9.75
5/17/2021 1:15:00 PM 15.02 59.036 196 7.88 2.18 9.77
5/17/2021 1:30:00 PM 15.09 59.162 198 7.9 2.5 10.02
5/17/2021 1:45:00 PM 15.16 59.288 199 7.92 2.1 10.06
5/17/2021 2:00:00 PM 15.21 59.378 200 7.9 2.22 10.08
5/17/2021 2:15:00 PM 15.26 59.468 200 7.9 2.33 10.19
5/17/2021 2:30:00 PM 15.31 59.558 202 7.98 2.64 10.69
5/17/2021 2:45:00 PM 15.35 59.63 202 7.97 2.21 10.66
5/17/2021 3:00:00 PM 15.37 59.666 202 7.97 3.02 10.63
5/17/2021 3:15:00 PM 15.38 59.684 202 7.96 2.29 10.54
5/17/2021 3:30:00 PM 15.39 59.702 202 7.96 1.93 10.49
5/17/2021 3:45:00 PM 15.4 59.72 201 7.95 2.04 10.47
5/17/2021 4:00:00 PM 15.4 59.72 201 7.95 1.91 10.47
5/17/2021 4:15:00 PM 15.4 59.72 201 7.94 1.88 10.43
5/17/2021 4:30:00 PM 15.4 59.72 201 7.94 1.88 10.4
5/17/2021 4:45:00 PM 15.39 59.702 201 7.94 1.92 10.38
5/17/2021 5:00:00 PM 15.39 59.702 201 7.93 1.93 10.36
5/17/2021 5:15:00 PM 15.39 59.702 201 7.94 1.85 10.35
5/17/2021 5:30:00 PM 15.38 59.684 201 7.94 1.76 10.34
5/17/2021 5:45:00 PM 15.38 59.684 202 7.96 1.71 10.34
5/17/2021 6:00:00 PM 15.38 59.684 201 7.94 1.79 10.34
5/17/2021 6:15:00 PM 15.37 59.666 202 7.94 1.66 10.29
5/17/2021 6:30:00 PM 15.36 59.648 202 7.94 1.67 10.31
5/17/2021 6:45:00 PM 15.36 59.648 202 7.96 1.78 10.28
5/17/2021 7:00:00 PM 15.35 59.63 202 7.94 1.75 10.27
5/17/2021 7:15:00 PM 15.35 59.63 202 7.95 1.72 10.25
5/17/2021 7:30:00 PM 15.34 59.612 202 7.95 1.66 10.25
5/17/2021 7:45:00 PM 15.33 59.594 202 7.95 1.69 10.21
5/17/2021 8:00:00 PM 15.33 59.594 202 7.95 1.69 10.19
5/17/2021 8:15:00 PM 15.32 59.576 202 7.94 1.63 10.18
5/17/2021 8:30:00 PM 15.32 59.576 202 7.93 1.68 10.14
5/17/2021 8:45:00 PM 15.31 59.558 202 7.95 1.68 10.16
5/17/2021 9:00:00 PM 15.31 59.558 202 7.95 1.65 10.17
5/17/2021 9:15:00 PM 15.3 59.54 202 7.94 1.55 10.17
5/17/2021 9:30:00 PM 15.29 59.522 202 7.95 1.6 10.14
5/17/2021 9:45:00 PM 15.29 59.522 202 7.93 1.57 10.11
5/17/2021 10:00:00 PM 15.28 59.504 202 7.94 1.63 10.09
5/17/2021 10:15:00 PM 15.27 59.486 202 7.94 1.62 10.07
5/17/2021 10:30:00 PM 15.27 59.486 202 7.96 1.62 10.09
5/17/2021 10:45:00 PM 15.26 59.468 202 7.93 1.54 10.04
5/17/2021 11:00:00 PM 15.26 59.468 202 7.93 1.51 10.03
5/17/2021 11:15:00 PM 15.25 59.45 202 7.93 1.55 10.01
5/17/2021 11:30:00 PM 15.25 59.45 202 7.93 1.49 9.98
5/17/2021 11:45:00 PM 15.24 59.432 202 7.93 1.48 9.99
5/18/2021 12:00:00 AM 15.24 59.432 202 7.93 1.5 9.97
5/18/2021 12:15:00 AM 15.23 59.414 202 7.93 1.48 9.95
5/18/2021 12:30:00 AM 15.23 59.414 202 7.92 1.49 9.93
5/18/2021 12:45:00 AM 15.22 59.396 202 7.93 1.53 9.95
5/18/2021 1:00:00 AM 15.22 59.396 202 7.92 1.46 9.92
5/18/2021 1:15:00 AM 15.21 59.378 202 7.92 1.48 9.9
5/18/2021 1:30:00 AM 15.21 59.378 202 7.93 1.49 9.87
5/18/2021 1:45:00 AM 15.2 59.36 202 7.92 1.48 9.87
5/18/2021 2:00:00 AM 15.2 59.36 202 7.92 1.46 9.86
5/18/2021 2:15:00 AM 15.19 59.342 202 7.92 1.49 9.92
5/18/2021 2:30:00 AM 15.19 59.342 203 7.92 1.57 9.94
5/18/2021 2:45:00 AM 15.18 59.324 203 7.91 1.55 9.94
5/18/2021 3:00:00 AM 15.18 59.324 203 7.91 1.49 10
5/18/2021 3:15:00 AM 15.17 59.306 203 7.91 1.5 9.91
5/18/2021 3:30:00 AM 15.17 59.306 203 7.91 1.51 9.85
5/18/2021 3:45:00 AM 15.16 59.288 203 7.9 1.48 9.87
5/18/2021 4:00:00 AM 15.16 59.288 203 7.9 1.53 9.87
5/18/2021 4:15:00 AM 15.15 59.27 203 7.9 1.44 9.84
5/18/2021 4:30:00 AM 15.15 59.27 203 7.9 1.57 9.83
5/18/2021 4:45:00 AM 15.14 59.252 203 7.91 1.42 9.81
5/18/2021 5:00:00 AM 15.14 59.252 203 7.9 1.54 9.83
5/18/2021 5:15:00 AM 15.14 59.252 203 7.89 1.56 9.87
5/18/2021 5:30:00 AM 15.13 59.234 203 7.89 1.53 9.84
5/18/2021 5:45:00 AM 15.13 59.234 203 7.89 1.55 9.83
5/18/2021 6:00:00 AM 15.12 59.216 203 7.9 1.62 9.76
5/18/2021 6:15:00 AM 15.11 59.198 203 7.9 1.62 9.76
5/18/2021 6:30:00 AM 15.05 59.09 203 7.89 1.56 9.77
5/18/2021 6:45:00 AM 14.97 58.946 203 7.88 1.5 9.71
5/18/2021 7:00:00 AM 14.92 58.856 203 7.88 1.56 9.72
5/18/2021 7:15:00 AM 14.87 58.766 203 7.87 1.61 9.71
5/18/2021 7:30:00 AM 14.84 58.712 203 7.87 1.68 9.69
5/18/2021 7:45:00 AM 14.83 58.694 203 7.87 1.59 9.66
5/18/2021 8:00:00 AM 14.82 58.676 203 7.87 1.64 9.63
5/18/2021 8:15:00 AM 14.83 58.694 204 7.87 1.58 9.57
5/18/2021 8:30:00 AM 14.84 58.712 204 7.87 1.51 9.54
5/18/2021 8:45:00 AM 14.86 58.748 204 7.87 1.48 9.53
5/18/2021 9:00:00 AM 14.89 58.802 204 7.88 1.49 9.52
5/18/2021 9:15:00 AM 14.91 58.838 204 7.87 1.65 9.5
5/18/2021 9:30:00 AM 14.95 58.91 204 7.87 1.59 9.46
5/18/2021 9:45:00 AM 14.99 58.982 204 7.85 1.59 9.47
5/18/2021 10:00:00 AM 15.01 59.018 205 7.85 1.73 9.5
5/18/2021 10:15:00 AM 15.07 59.126 205 7.86 1.6 9.43
5/18/2021 10:30:00 AM 15.12 59.216 205 7.86 1.52 9.56
5/18/2021 10:45:00 AM 15.18 59.324 206 7.87 1.79 9.66
5/18/2021 11:00:00 AM 15.24 59.432 207 7.87 1.66 9.77
5/18/2021 11:15:00 AM 15.31 59.558 207 7.9 2.16 9.75
5/18/2021 11:30:00 AM 15.38 59.684 207 7.88 2 9.7
5/18/2021 11:45:00 AM 15.46 59.828 207 7.88 2.13 9.84
5/18/2021 12:00:00 PM 15.54 59.972 208 7.88 1.93 9.87
5/18/2021 12:15:00 PM 15.62 60.116 209 7.91 1.84 9.94
5/18/2021 12:30:00 PM 15.7 60.26 209 7.93 2.2 10.16
5/18/2021 12:45:00 PM 15.77 60.386 210 7.94 2.22 10.21
5/18/2021 1:00:00 PM 15.84 60.512 210 7.94 2.1 10.26
5/18/2021 1:15:00 PM 15.92 60.656 210 7.96 1.98 10.34
5/18/2021 1:30:00 PM 16.01 60.818 211 7.98 1.87 10.52
5/18/2021 1:45:00 PM 16.09 60.962 211 8 2.17 10.55
5/18/2021 2:00:00 PM 16.17 61.106 212 8.01 2.05 10.63
5/18/2021 2:15:00 PM 16.26 61.268 212 8.04 1.96 10.75
5/18/2021 2:30:00 PM 16.32 61.376 213 8.1 2.21 11.12
5/18/2021 2:45:00 PM 16.36 61.448 213 8.13 2.58 11.16
5/18/2021 3:00:00 PM 16.38 61.484 213 8.13 2.29 11.15
5/18/2021 3:15:00 PM 16.4 61.52 213 8.13 2.19 11.12
5/18/2021 3:30:00 PM 16.41 61.538 213 8.18 2.47 11.31
5/18/2021 3:45:00 PM 16.42 61.556 213 8.15 2.02 11.25
5/18/2021 4:00:00 PM 16.42 61.556 213 8.14 1.97 11.24
5/18/2021 4:15:00 PM 16.41 61.538 213 8.14 1.82 11.19
5/18/2021 4:30:00 PM 16.4 61.52 213 8.14 1.7 11.16
5/18/2021 4:45:00 PM 16.4 61.52 213 8.13 1.92 11.12
5/18/2021 5:00:00 PM 16.4 61.52 213 8.12 1.69 11.06
5/18/2021 5:15:00 PM 16.39 61.502 213 8.13 1.9 11.07
5/18/2021 5:30:00 PM 16.39 61.502 213 8.12 1.7 11.06
5/18/2021 5:45:00 PM 16.38 61.484 213 8.12 1.78 11.04
5/18/2021 6:00:00 PM 16.38 61.484 213 8.12 1.6 11.06
5/18/2021 6:15:00 PM 16.37 61.466 213 8.11 1.61 11.1
5/18/2021 6:30:00 PM 16.36 61.448 213 8.12 1.71 11.06
5/18/2021 6:45:00 PM 16.36 61.448 213 8.11 1.58 11.02
5/18/2021 7:00:00 PM 16.35 61.43 213 8.11 1.51 11
5/18/2021 7:15:00 PM 16.34 61.412 213 8.1 1.59 10.98
5/18/2021 7:30:00 PM 16.33 61.394 213 8.1 1.7 10.96
5/18/2021 7:45:00 PM 16.33 61.394 213 8.1 1.57 10.95
5/18/2021 8:00:00 PM 16.32 61.376 213 8.09 1.57 10.92
5/18/2021 8:15:00 PM 16.32 61.376 213 8.09 1.53 10.88
5/18/2021 8:30:00 PM 16.31 61.358 213 8.09 1.47 10.87
5/18/2021 8:45:00 PM 16.3 61.34 213 8.09 1.56 10.84
5/18/2021 9:00:00 PM 16.29 61.322 213 8.08 1.53 10.84
5/18/2021 9:15:00 PM 16.29 61.322 214 8.07 1.46 10.82
5/18/2021 9:30:00 PM 16.28 61.304 213 8.07 1.53 10.77
5/18/2021 9:45:00 PM 16.28 61.304 214 8.07 1.57 10.75
5/18/2021 10:00:00 PM 16.27 61.286 213 8.07 1.52 10.76
5/18/2021 10:15:00 PM 16.26 61.268 214 8.07 1.49 10.72
5/18/2021 10:30:00 PM 16.26 61.268 214 8.06 1.61 10.72
5/18/2021 10:45:00 PM 16.25 61.25 214 8.06 1.46 10.69
5/18/2021 11:00:00 PM 16.24 61.232 214 8.06 1.39 10.68
5/18/2021 11:15:00 PM 16.24 61.232 214 8.05 1.49 10.66
5/18/2021 11:30:00 PM 16.23 61.214 214 8.05 1.48 10.65
5/18/2021 11:45:00 PM 16.23 61.214 214 8.05 1.42 10.62
5/19/2021 12:00:00 AM 16.22 61.196 214 8.05 1.54 10.6
5/19/2021 12:15:00 AM 16.21 61.178 214 8.03 1.34 10.59
5/19/2021 12:30:00 AM 16.21 61.178 214 8.03 1.35 10.57
5/19/2021 12:45:00 AM 16.2 61.16 214 8.03 1.41 10.53
5/19/2021 1:00:00 AM 16.2 61.16 214 8.02 1.34 10.51
5/19/2021 1:15:00 AM 16.19 61.142 214 8.01 1.35 10.48
5/19/2021 1:30:00 AM 16.19 61.142 214 8.02 1.42 10.46
5/19/2021 1:45:00 AM 16.18 61.124 214 8.01 1.34 10.44
5/19/2021 2:00:00 AM 16.18 61.124 214 8 1.38 10.45
5/19/2021 2:15:00 AM 16.17 61.106 214 8.01 1.41 10.44
5/19/2021 2:30:00 AM 16.17 61.106 214 8.01 1.25 10.43
5/19/2021 2:45:00 AM 16.16 61.088 214 8.01 1.32 10.41
5/19/2021 3:00:00 AM 16.15 61.07 214 8 1.27 10.36
5/19/2021 3:15:00 AM 16.15 61.07 214 7.98 1.23 10.34
5/19/2021 3:30:00 AM 16.14 61.052 214 7.99 1.32 10.31
5/19/2021 3:45:00 AM 16.14 61.052 214 8 1.32 10.3
5/19/2021 4:00:00 AM 16.13 61.034 214 8 1.17 10.29
5/19/2021 4:15:00 AM 16.12 61.016 214 7.97 1.25 10.24
5/19/2021 4:30:00 AM 16.12 61.016 214 7.96 1.25 10.22
5/19/2021 4:45:00 AM 16.11 60.998 214 7.98 1.24 10.24
5/19/2021 5:00:00 AM 16.11 60.998 214 7.97 1.4 10.22
5/19/2021 5:15:00 AM 16.1 60.98 214 7.98 1.27 10.19
5/19/2021 5:30:00 AM 16.1 60.98 214 7.97 1.24 10.2
5/19/2021 5:45:00 AM 16.09 60.962 214 7.98 1.38 10.18
5/19/2021 6:00:00 AM 16.07 60.926 214 7.97 1.28 10.09
5/19/2021 6:15:00 AM 16.02 60.836 214 7.96 1.32 10.07
5/19/2021 6:30:00 AM 16.1 60.98 214 7.95 1.52 9.93
5/19/2021 6:45:00 AM 16.14 61.052 214 7.94 1.35 9.87
5/19/2021 7:00:00 AM 16.19 61.142 215 7.94 1.46 9.85
5/19/2021 7:15:00 AM 16.22 61.196 215 7.93 1.41 9.8
5/19/2021 7:30:00 AM 16.24 61.232 215 7.92 1.55 9.72
5/19/2021 7:45:00 AM 16.24 61.232 215 7.93 1.44 9.65
5/19/2021 8:00:00 AM 16.25 61.25 215 7.92 1.58 9.66
5/19/2021 8:15:00 AM 16.26 61.268 216 7.92 1.34 9.64
5/19/2021 8:30:00 AM 16.27 61.286 216 7.91 1.25 9.47
5/19/2021 8:45:00 AM 16.28 61.304 216 7.91 1.33 9.48
5/19/2021 9:00:00 AM 16.31 61.358 216 7.91 1.33 9.44
5/19/2021 9:15:00 AM 16.34 61.412 216 7.91 1.29 9.36
5/19/2021 9:30:00 AM 16.37 61.466 217 7.91 1.41 9.44
5/19/2021 9:45:00 AM 16.41 61.538 217 7.92 1.52 9.37
5/19/2021 10:00:00 AM 16.45 61.61 218 7.92 1.43 9.64
5/19/2021 10:15:00 AM 16.5 61.7 218 7.96 1.8 9.65
5/19/2021 10:30:00 AM 16.56 61.808 219 7.96 1.62 9.78
5/19/2021 10:45:00 AM 16.61 61.898 219 7.97 1.57 9.85
5/19/2021 11:00:00 AM 16.67 62.006 220 7.99 1.74 9.97
5/19/2021 11:15:00 AM 16.73 62.114 220 8.02 2.24 10.1
5/19/2021 11:30:00 AM 16.8 62.24 221 8.05 2.2 10.32
5/19/2021 11:45:00 AM 16.87 62.366 221 8.09 1.72 10.37
5/19/2021 12:00:00 PM 16.94 62.492 222 8.09 2.15 10.62
5/19/2021 12:15:00 PM 17.02 62.636 222 8.13 1.96 10.79
5/19/2021 12:30:00 PM 17.1 62.78 222 8.15 1.81 10.93
5/19/2021 12:45:00 PM 17.18 62.924 223 8.19 2.01 11.06
5/19/2021 1:00:00 PM 17.26 63.068 223 8.21 1.98 11.08
5/19/2021 1:15:00 PM 17.34 63.212 223 8.23 2.27 11.18
5/19/2021 1:30:00 PM 17.43 63.374 223 8.27 1.92 11.29
5/19/2021 1:45:00 PM 17.51 63.518 223 8.3 2.3 11.39
5/19/2021 2:00:00 PM 17.58 63.644 223 8.31 1.98 11.37
5/19/2021 2:15:00 PM 17.66 63.788 224 8.32 2.41 11.46
5/19/2021 2:30:00 PM 17.74 63.932 224 8.35 2.18 11.51
5/19/2021 2:45:00 PM 17.82 64.076 224 8.39 2.42 11.66
5/19/2021 3:00:00 PM 17.9 64.22 224 8.42 2.25 11.74
5/19/2021 3:15:00 PM 17.97 64.346 224 8.43 2.01 11.72
5/19/2021 3:30:00 PM 18.04 64.472 224 8.44 1.94 11.75
5/19/2021 3:45:00 PM 18.11 64.598 224 8.47 1.85 11.91
5/19/2021 4:00:00 PM 18.19 64.742 224 8.51 1.75 11.98
5/19/2021 4:15:00 PM 18.24 64.832 224 8.52 1.88 12
5/19/2021 4:30:00 PM 18.24 64.832 225 8.66 2.28 12.43
5/19/2021 4:45:00 PM 18.27 64.886 225 8.67 2.25 12.49
5/19/2021 5:00:00 PM 18.29 64.922 225 8.7 2.1 12.51
5/19/2021 5:15:00 PM 18.3 64.94 225 8.69 2.13 12.48
5/19/2021 5:30:00 PM 18.29 64.922 225 8.65 1.9 12.45
5/19/2021 5:45:00 PM 18.31 64.958 225 8.66 2.12 12.44
5/19/2021 6:00:00 PM 18.31 64.958 225 8.67 1.98 12.39
5/19/2021 6:15:00 PM 18.31 64.958 225 8.65 1.77 12.38
5/19/2021 6:30:00 PM 18.3 64.94 225 8.64 1.63 12.37
5/19/2021 6:45:00 PM 18.3 64.94 225 8.65 1.69 12.31
5/19/2021 7:00:00 PM 18.29 64.922 225 8.63 1.55 12.25
5/19/2021 7:15:00 PM 18.28 64.904 225 8.62 1.81 12.23
5/19/2021 7:30:00 PM 18.27 64.886 225 8.62 1.62 12.25
5/19/2021 7:45:00 PM 18.26 64.868 225 8.62 1.76 12.19
5/19/2021 8:00:00 PM 18.25 64.85 225 8.61 1.54 12.16
5/19/2021 8:15:00 PM 18.25 64.85 225 8.6 1.43 12.15
5/19/2021 8:30:00 PM 18.24 64.832 225 8.59 1.57 12.11
5/19/2021 8:45:00 PM 18.22 64.796 225 8.59 1.52 12.06
5/19/2021 9:00:00 PM 18.22 64.796 225 8.58 1.66 12.03
5/19/2021 9:15:00 PM 18.21 64.778 225 8.57 1.53 12
5/19/2021 9:30:00 PM 18.2 64.76 225 8.56 1.5 11.98
5/19/2021 9:45:00 PM 18.19 64.742 225 8.56 1.47 11.94
5/19/2021 10:00:00 PM 18.18 64.724 225 8.55 1.57 11.91
5/19/2021 10:15:00 PM 18.17 64.706 225 8.53 1.73 11.89
5/19/2021 10:30:00 PM 18.16 64.688 225 8.53 1.41 11.88
5/19/2021 10:45:00 PM 18.15 64.67 225 8.53 1.55 11.82
5/19/2021 11:00:00 PM 18.14 64.652 225 8.52 1.46 11.78
5/19/2021 11:15:00 PM 18.14 64.652 225 8.51 1.39 11.76
5/19/2021 11:30:00 PM 18.12 64.616 225 8.5 1.35 11.73
5/19/2021 11:45:00 PM 18.12 64.616 225 8.49 1.36 11.7
5/20/2021 12:00:00 AM 18.11 64.598 225 8.48 1.33 11.68
5/20/2021 12:15:00 AM 18.1 64.58 225 8.49 1.33 11.64
5/20/2021 12:30:00 AM 18.09 64.562 225 8.47 1.54 11.61
5/20/2021 12:45:00 AM 18.08 64.544 225 8.45 1.29 11.55
5/20/2021 1:00:00 AM 18.07 64.526 225 8.45 1.33 11.53
5/20/2021 1:15:00 AM 18.06 64.508 225 8.45 1.42 11.52
5/20/2021 1:30:00 AM 18.05 64.49 226 8.44 1.38 11.52
5/20/2021 1:45:00 AM 18.04 64.472 226 8.43 1.3 11.42
5/20/2021 2:00:00 AM 18.04 64.472 226 8.41 1.35 11.4
5/20/2021 2:15:00 AM 18.03 64.454 226 8.42 1.31 11.32
5/20/2021 2:30:00 AM 18.02 64.436 226 8.41 1.4 11.34
5/20/2021 2:45:00 AM 18.01 64.418 226 8.4 1.33 11.3
5/20/2021 3:00:00 AM 18 64.4 226 8.39 1.39 11.26
5/20/2021 3:15:00 AM 17.99 64.382 226 8.38 1.27 11.22
5/20/2021 3:30:00 AM 17.98 64.364 226 8.38 1.26 11.2
5/20/2021 3:45:00 AM 17.98 64.364 226 8.37 1.39 11.16
5/20/2021 4:00:00 AM 17.97 64.346 226 8.36 1.25 11.11
5/20/2021 4:15:00 AM 17.96 64.328 226 8.35 1.33 11.1
5/20/2021 4:30:00 AM 17.96 64.328 226 8.34 1.28 11.08
5/20/2021 4:45:00 AM 17.95 64.31 226 8.33 1.28 11.03
5/20/2021 5:00:00 AM 17.94 64.292 226 8.32 1.36 10.98
5/20/2021 5:15:00 AM 17.93 64.274 226 8.3 1.29 10.9
5/20/2021 5:30:00 AM 17.92 64.256 226 8.29 1.27 10.88
5/20/2021 5:45:00 AM 17.92 64.256 226 8.3 1.44 10.9
5/20/2021 6:00:00 AM 17.88 64.184 226 8.27 1.34 10.8
5/20/2021 6:15:00 AM 17.76 63.968 226 8.26 1.36 10.74
5/20/2021 6:30:00 AM 17.73 63.914 226 8.24 1.24 10.7
5/20/2021 6:45:00 AM 17.74 63.932 226 8.25 1.25 10.6
5/20/2021 7:00:00 AM 17.75 63.95 226 8.25 1.29 10.55
5/20/2021 7:15:00 AM 17.75 63.95 227 8.2 1.43 10.43
5/20/2021 7:30:00 AM 17.74 63.932 227 8.19 1.35 10.33
5/20/2021 7:45:00 AM 17.76 63.968 227 8.17 1.41 10.24
5/20/2021 8:00:00 AM 17.78 64.004 227 8.15 1.27 10.13
5/20/2021 8:15:00 AM 17.8 64.04 227 8.15 1.33 10.03
5/20/2021 8:30:00 AM 17.83 64.094 227 8.15 1.5 10
5/20/2021 8:45:00 AM 17.86 64.148 228 8.15 1.34 10
5/20/2021 9:00:00 AM 17.89 64.202 228 8.14 1.35 9.98
5/20/2021 9:15:00 AM 17.92 64.256 228 8.16 1.84 10.09
5/20/2021 9:30:00 AM 17.95 64.31 229 8.18 1.62 10.12
5/20/2021 9:45:00 AM 17.99 64.382 229 8.19 1.63 10.23
5/20/2021 10:00:00 AM 18.03 64.454 230 8.25 1.75 10.38
5/20/2021 10:15:00 AM 18.08 64.544 230 8.31 1.78 10.62
5/20/2021 10:30:00 AM 18.13 64.634 231 8.3 1.66 10.67
5/20/2021 10:45:00 AM 18.19 64.742 231 8.33 1.88 10.81
5/20/2021 11:00:00 AM 18.25 64.85 231 8.35 1.78 10.92
5/20/2021 11:15:00 AM 18.32 64.976 231 8.39 1.72 11.05
5/20/2021 11:30:00 AM 18.37 65.066 232 8.42 2.06 11.1
5/20/2021 11:45:00 AM 18.44 65.192 232 8.45 1.92 11.09
5/20/2021 12:00:00 PM 18.5 65.3 232 8.49 2.43 11.37
5/20/2021 12:15:00 PM 18.58 65.444 232 8.54 2.21 11.56
5/20/2021 12:30:00 PM 18.66 65.588 232 8.55 2.14 11.63
5/20/2021 12:45:00 PM 18.77 65.786 232 8.6 2.01 11.77
5/20/2021 1:00:00 PM 18.86 65.948 233 8.62 2.15 11.91
5/20/2021 1:15:00 PM 18.96 66.128 233 8.65 1.89 11.96
5/20/2021 1:30:00 PM 19.04 66.272 233 8.68 2.25 12.11
5/20/2021 1:45:00 PM 19.12 66.416 233 8.71 2.02 12.22
5/20/2021 2:00:00 PM 19.2 66.56 233 8.73 1.9 12.35
5/20/2021 2:15:00 PM 19.26 66.668 233 8.77 1.9 12.34
5/20/2021 2:30:00 PM 19.21 66.578 233 8.8 1.99 12.6
5/20/2021 2:45:00 PM 19.26 66.668 233 8.81 2.23 12.58
5/20/2021 3:00:00 PM 19.32 66.776 233 8.83 2.22 12.66
5/20/2021 3:15:00 PM 19.36 66.848 233 8.84 2.12 12.67
5/20/2021 3:30:00 PM 19.39 66.902 233 8.85 2.02 12.76
5/20/2021 3:45:00 PM 19.39 66.902 233 8.82 2.07 12.72
5/20/2021 4:00:00 PM 19.38 66.884 233 8.83 1.76 12.67
5/20/2021 4:15:00 PM 19.39 66.902 233 8.84 1.98 12.64
5/20/2021 4:30:00 PM 19.38 66.884 233 8.81 1.92 12.59
5/20/2021 4:45:00 PM 19.36 66.848 233 8.8 1.72 12.57
5/20/2021 5:00:00 PM 19.37 66.866 233 8.8 1.6 12.56
5/20/2021 5:15:00 PM 19.36 66.848 233 8.8 1.93 12.53
5/20/2021 5:30:00 PM 19.35 66.83 233 8.79 1.61 12.5
5/20/2021 5:45:00 PM 19.34 66.812 233 8.79 1.66 12.45
5/20/2021 6:00:00 PM 19.33 66.794 233 8.79 1.66 12.39
5/20/2021 6:15:00 PM 19.33 66.794 234 8.77 1.78 12.38
5/20/2021 6:30:00 PM 19.31 66.758 234 8.75 1.41 12.35
5/20/2021 6:45:00 PM 19.31 66.758 234 8.75 1.71 12.32
5/20/2021 7:00:00 PM 19.3 66.74 234 8.75 1.54 12.27
5/20/2021 7:15:00 PM 19.29 66.722 234 8.74 1.48 12.22
5/20/2021 7:30:00 PM 19.28 66.704 234 8.74 1.49 12.19
5/20/2021 7:45:00 PM 19.27 66.686 234 8.74 1.68 12.16
5/20/2021 8:00:00 PM 19.26 66.668 234 8.72 1.57 12.13
5/20/2021 8:15:00 PM 19.25 66.65 234 8.72 1.5 12.1
5/20/2021 8:30:00 PM 19.24 66.632 234 8.7 1.43 12.05
5/20/2021 8:45:00 PM 19.22 66.596 234 8.69 1.57 12.01
5/20/2021 9:00:00 PM 19.21 66.578 234 8.69 1.54 11.97
5/20/2021 9:15:00 PM 19.2 66.56 234 8.69 1.39 11.93
5/20/2021 9:30:00 PM 19.19 66.542 234 8.68 1.36 11.9
5/20/2021 9:45:00 PM 19.18 66.524 234 8.67 1.45 11.88
5/20/2021 10:00:00 PM 19.18 66.524 234 8.65 1.43 11.81
5/20/2021 10:15:00 PM 19.16 66.488 234 8.64 1.45 11.78
5/20/2021 10:30:00 PM 19.16 66.488 234 8.64 1.47 11.74
5/20/2021 10:45:00 PM 19.15 66.47 234 8.63 1.38 11.72
5/20/2021 11:00:00 PM 19.14 66.452 234 8.62 1.39 11.66
5/20/2021 11:15:00 PM 19.13 66.434 234 8.6 1.47 11.62
5/20/2021 11:30:00 PM 19.12 66.416 234 8.6 1.35 11.64
5/20/2021 11:45:00 PM 19.11 66.398 234 8.59 1.4 11.61
5/21/2021 12:00:00 AM 19.1 66.38 234 8.59 1.38 11.56
5/21/2021 12:15:00 AM 19.09 66.362 234 8.59 1.33 11.52
5/21/2021 12:30:00 AM 19.08 66.344 234 8.58 1.43 11.5
5/21/2021 12:45:00 AM 19.07 66.326 235 8.56 1.36 11.44
5/21/2021 1:00:00 AM 19.06 66.308 235 8.53 1.3 11.38
5/21/2021 1:15:00 AM 19.06 66.308 235 8.53 1.26 11.34
5/21/2021 1:30:00 AM 19.05 66.29 235 8.53 1.33 11.36
5/21/2021 1:45:00 AM 19.04 66.272 235 8.53 1.37 11.33
5/21/2021 2:00:00 AM 19.03 66.254 235 8.52 1.3 11.29
5/21/2021 2:15:00 AM 19.02 66.236 235 8.52 1.33 11.27
5/21/2021 2:30:00 AM 19.01 66.218 235 8.51 1.3 11.21
5/21/2021 2:45:00 AM 19 66.2 235 8.51 1.28 11.21
5/21/2021 3:00:00 AM 18.99 66.182 235 8.49 1.28 11.15
5/21/2021 3:15:00 AM 18.98 66.164 235 8.49 1.36 11.11
5/21/2021 3:30:00 AM 18.98 66.164 235 8.47 1.29 11.09
5/21/2021 3:45:00 AM 18.97 66.146 235 8.47 1.24 11.07
5/21/2021 4:00:00 AM 18.96 66.128 235 8.44 1.31 10.99
5/21/2021 4:15:00 AM 18.95 66.11 235 8.43 1.25 10.9
5/21/2021 4:30:00 AM 18.95 66.11 235 8.41 1.36 10.87
5/21/2021 4:45:00 AM 18.94 66.092 235 8.39 1.31 10.81
5/21/2021 5:00:00 AM 18.93 66.074 235 8.4 1.36 10.79
5/21/2021 5:15:00 AM 18.92 66.056 235 8.39 1.24 10.76
5/21/2021 5:30:00 AM 18.92 66.056 235 8.38 1.26 10.7
5/21/2021 5:45:00 AM 18.9 66.02 235 8.35 1.61 10.18
5/21/2021 6:00:00 AM 18.88 65.984 235 8.37 1.27 10.62
5/21/2021 6:15:00 AM 18.88 65.984 235 8.34 1.26 10.54
5/21/2021 6:30:00 AM 18.96 66.128 236 8.32 1.26 10.48
5/21/2021 6:45:00 AM 19.04 66.272 236 8.32 1.37 10.43
5/21/2021 7:00:00 AM 19.13 66.434 236 8.33 1.67 10.38
5/21/2021 7:15:00 AM 19.18 66.524 237 8.34 1.66 10.44
5/21/2021 7:30:00 AM 19.22 66.596 237 8.37 1.93 10.46
5/21/2021 7:45:00 AM 19.24 66.632 238 8.41 2 10.51
5/21/2021 8:00:00 AM 19.26 66.668 238 8.45 2.09 10.6
5/21/2021 8:15:00 AM 19.26 66.668 239 8.46 1.91 10.59
5/21/2021 8:30:00 AM 19.26 66.668 239 8.47 2.16 10.63
5/21/2021 8:45:00 AM 19.28 66.704 239 8.5 2.12 10.63
5/21/2021 9:00:00 AM 19.28 66.704 239 8.52 2.03 10.73
5/21/2021 9:15:00 AM 19.29 66.722 239 8.54 2.56 10.68
5/21/2021 9:30:00 AM 19.32 66.776 240 8.56 2.07 10.82
5/21/2021 9:45:00 AM 19.38 66.884 240 8.6 2.32 10.96
5/21/2021 10:00:00 AM 19.41 66.938 240 8.61 2.06 11.04
5/21/2021 10:15:00 AM 19.46 67.028 240 8.66 2.27 11.11
5/21/2021 10:30:00 AM 19.52 67.136 240 8.71 2.32 11.29
5/21/2021 10:45:00 AM 19.57 67.226 241 8.69 2.29 11.39
5/21/2021 11:00:00 AM 19.65 67.37 241 8.74 2.35 11.46
5/21/2021 11:15:00 AM 19.72 67.496 241 8.77 2.56 11.61
5/21/2021 11:30:00 AM 19.77 67.586 241 8.75 2.12 11.65
5/21/2021 11:45:00 AM 19.86 67.748 241 8.81 2.17 11.79
5/21/2021 12:00:00 PM 19.93 67.874 241 8.81 2.31 11.81
5/21/2021 12:15:00 PM 19.98 67.964 241 8.81 2.29 11.88
5/21/2021 12:30:00 PM 20.09 68.162 241 8.86 2.41 12.05
5/21/2021 12:45:00 PM 20.17 68.306 241 8.88 2.11 12.04
5/21/2021 1:00:00 PM 20.24 68.432 242 8.89 2.73 12.21
5/21/2021 1:15:00 PM 20.34 68.612 242 8.91 2.27 12.33
5/21/2021 1:30:00 PM 20.41 68.738 242 8.94 2.97 12.44
5/21/2021 1:45:00 PM 20.49 68.882 242 8.95 2.65 12.48
5/21/2021 2:00:00 PM 20.58 69.044 242 8.97 2.95 12.61
5/21/2021 2:15:00 PM 20.56 69.008 242 9.01 2.34 12.68
5/21/2021 2:30:00 PM 20.56 69.008 242 9 2.25 12.73
5/21/2021 2:45:00 PM 20.65 69.17 242 9 2.16 12.7
5/21/2021 3:00:00 PM 20.69 69.242 242 9 2.48 12.76
5/21/2021 3:15:00 PM 20.72 69.296 242 9 2.03 12.72
5/21/2021 3:30:00 PM 20.73 69.314 242 9 2.66 12.68
5/21/2021 3:45:00 PM 20.74 69.332 242 9.01 2.18 12.7
5/21/2021 4:00:00 PM 20.74 69.332 242 9 1.82 12.66
5/21/2021 4:15:00 PM 20.74 69.332 242 8.99 1.79 12.61
5/21/2021 4:30:00 PM 20.73 69.314 242 8.99 1.76 12.57
5/21/2021 4:45:00 PM 20.73 69.314 242 8.98 1.97 12.54
5/21/2021 5:00:00 PM 20.72 69.296 242 8.98 1.75 12.52
5/21/2021 5:15:00 PM 20.71 69.278 242 8.96 1.62 12.46
5/21/2021 5:30:00 PM 20.7 69.26 242 8.96 1.68 12.42
5/21/2021 5:45:00 PM 20.68 69.224 242 8.95 1.81 12.37
5/21/2021 6:00:00 PM 20.68 69.224 242 8.93 1.66 12.3
5/21/2021 6:15:00 PM 20.66 69.188 243 8.94 1.71 12.28
5/21/2021 6:30:00 PM 20.65 69.17 243 8.93 1.46 12.25
5/21/2021 6:45:00 PM 20.64 69.152 243 8.92 1.53 12.2
5/21/2021 7:00:00 PM 20.63 69.134 243 8.91 1.76 12.1
5/21/2021 7:15:00 PM 20.62 69.116 243 8.91 1.84 12.06
5/21/2021 7:30:00 PM 20.6 69.08 243 8.89 1.46 12.02
5/21/2021 7:45:00 PM 20.59 69.062 243 8.88 4.65 11.98
5/21/2021 8:00:00 PM 20.58 69.044 243 8.88 1.63 11.95
5/21/2021 8:15:00 PM 20.57 69.026 243 8.88 1.58 11.93
5/21/2021 8:30:00 PM 20.56 69.008 243 8.86 1.51 11.88
5/21/2021 8:45:00 PM 20.54 68.972 243 8.86 1.7 11.84
5/21/2021 9:00:00 PM 20.53 68.954 243 8.86 1.46 11.79
5/21/2021 9:15:00 PM 20.52 68.936 243 8.85 1.4 11.8
5/21/2021 9:30:00 PM 20.51 68.918 243 8.83 1.47 11.73
5/21/2021 9:45:00 PM 20.5 68.9 243 8.84 1.49 11.69
5/21/2021 10:00:00 PM 20.49 68.882 243 8.82 1.37 11.62
5/21/2021 10:15:00 PM 20.48 68.864 243 8.82 1.51 11.57
5/21/2021 10:30:00 PM 20.47 68.846 243 8.79 1.42 11.52
5/21/2021 10:45:00 PM 20.45 68.81 243 8.79 1.43 11.49
5/21/2021 11:00:00 PM 20.45 68.81 243 8.8 1.51 11.45
5/21/2021 11:15:00 PM 20.43 68.774 243 8.78 1.59 11.44
5/21/2021 11:30:00 PM 20.42 68.756 243 8.78 1.41 11.42
5/21/2021 11:45:00 PM 20.41 68.738 243 8.77 1.49 11.37
5/22/2021 12:00:00 AM 20.4 68.72 243 8.77 1.38 11.33
5/22/2021 12:15:00 AM 20.39 68.702 243 8.77 1.39 11.26
5/22/2021 12:30:00 AM 20.38 68.684 244 8.75 1.43 11.19
5/22/2021 12:45:00 AM 20.37 68.666 244 8.74 1.51 11.19
5/22/2021 1:00:00 AM 20.36 68.648 244 8.73 1.34 11.14
5/22/2021 1:15:00 AM 20.35 68.63 244 8.73 1.45 11.11
5/22/2021 1:30:00 AM 20.34 68.612 244 8.73 1.39 11.07
5/22/2021 1:45:00 AM 20.33 68.594 244 8.72 1.35 11.03
5/22/2021 2:00:00 AM 20.32 68.576 244 8.71 1.33 11
5/22/2021 2:15:00 AM 20.31 68.558 244 8.7 1.44 10.97
5/22/2021 2:30:00 AM 20.3 68.54 244 8.69 1.37 10.91
5/22/2021 2:45:00 AM 20.3 68.54 244 8.69 1.45 10.85
5/22/2021 3:00:00 AM 20.29 68.522 244 8.66 1.43 10.81
5/22/2021 3:15:00 AM 20.28 68.504 244 8.66 1.37 10.76
5/22/2021 3:30:00 AM 20.27 68.486 244 8.63 1.78 10.65
5/22/2021 3:45:00 AM 20.26 68.468 244 8.62 1.42 10.6
5/22/2021 4:00:00 AM 20.25 68.45 244 8.64 1.38 10.59
5/22/2021 4:15:00 AM 20.24 68.432 244 8.62 1.35 10.59
5/22/2021 4:30:00 AM 20.23 68.414 244 8.61 1.35 10.55
5/22/2021 4:45:00 AM 20.22 68.396 244 8.6 1.39 10.47
5/22/2021 5:00:00 AM 20.22 68.396 244 8.59 1.36 10.43
5/22/2021 5:15:00 AM 20.21 68.378 244 8.58 1.32 10.36
5/22/2021 5:30:00 AM 20.2 68.36 245 8.56 1.32 10.32
5/22/2021 5:45:00 AM 20.19 68.342 245 8.55 1.29 10.27
5/22/2021 6:00:00 AM 20.15 68.27 245 8.53 1.46 10.2
5/22/2021 6:15:00 AM 19.98 67.964 245 8.52 1.38 10.16
5/22/2021 6:30:00 AM 20.12 68.216 245 8.5 1.5 10.08
5/22/2021 6:45:00 AM 20.34 68.612 245 8.51 1.52 10.09
5/22/2021 7:00:00 AM 20.5 68.9 246 8.53 1.63 10.08
5/22/2021 7:15:00 AM 20.6 69.08 247 8.55 2.12 10.12
5/22/2021 7:30:00 AM 20.66 69.188 247 8.58 1.51 10.05
5/22/2021 7:45:00 AM 20.69 69.242 247 8.53 1.82 9.92
5/22/2021 8:00:00 AM 20.64 69.152 248 8.58 1.96 9.93
5/22/2021 8:15:00 AM 20.55 68.99 51 8.07 244.79 9.52
5/22/2021 8:30:00 AM 20.43 68.774 1 7.91 265.69 9.54
5/22/2021 8:45:00 AM 20.27 68.486 0 7.73 150.16 9.58
5/22/2021 9:00:00 AM 20.15 68.27 0 7.7 63.53 9.61
5/22/2021 9:15:00 AM 20.08 68.144 0 7.7 53.57 9.62
5/22/2021 9:30:00 AM 20.07 68.126 0 7.7 56.01 9.61
5/22/2021 9:45:00 AM 20.06 68.108 0 7.72 42.84 9.62
5/22/2021 10:00:00 AM 19.95 67.91 0 7.8 27.86 9.66
5/22/2021 10:15:00 AM 19.92 67.856 0 7.84 23.4 9.67
5/22/2021 10:30:00 AM 19.9 67.82 0 7.92 14.06 9.67
5/22/2021 10:45:00 AM 20.16 68.288 0 8.01 35.24 9.6
5/22/2021 11:00:00 AM 20.05 68.09 0 8.05 18.11 9.65
5/22/2021 11:15:00 AM 20.07 68.126 0 8.06 30.98 9.63
5/22/2021 11:30:00 AM 20.17 68.306 0 8.08 47.47 9.6
5/22/2021 11:45:00 AM 20.27 68.486 0 8.11 51.65 9.57
5/22/2021 12:00:00 PM 20.34 68.612 0 8.12 65.88 9.55
5/22/2021 12:15:00 PM 20.42 68.756 0 8.13 90.86 9.53
5/22/2021 12:30:00 PM 20.53 68.954 0 8.15 147.54 9.51
5/22/2021 12:45:00 PM 20.72 69.296 1 8.37 226.71 9.45
5/22/2021 1:00:00 PM 20.85 69.53 4 8.51 273.43 9.42
5/22/2021 1:15:00 PM 21.04 69.872 50 8.59 230.51 9.38
5/22/2021 1:30:00 PM 21.25 70.25 253 8.98 2.6 11.55
5/22/2021 1:45:00 PM 21.35 70.43 253 8.98 2.35 11.65
5/22/2021 2:00:00 PM 21.42 70.556 253 8.98 2.37 11.64
5/22/2021 2:15:00 PM 21.47 70.646 253 8.98 2.05 11.67
5/22/2021 2:30:00 PM 21.44 70.592 253 8.98 1.96 11.73
5/22/2021 2:45:00 PM 21.43 70.574 253 8.99 2.15 11.78
5/22/2021 3:00:00 PM 21.46 70.628 253 9.01 2.48 11.85
5/22/2021 3:15:00 PM 21.48 70.664 253 8.98 2.1 11.86
5/22/2021 3:30:00 PM 21.49 70.682 253 9.01 1.94 11.86
5/22/2021 3:45:00 PM 21.49 70.682 253 9.02 1.76 11.82
5/22/2021 4:00:00 PM 21.49 70.682 253 9 2.16 11.76
5/22/2021 4:15:00 PM 21.49 70.682 253 8.99 1.87 11.69
5/22/2021 4:30:00 PM 21.49 70.682 253 8.99 2.08 11.66
5/22/2021 4:45:00 PM 21.49 70.682 253 8.99 1.79 11.65
5/22/2021 5:00:00 PM 21.48 70.664 253 8.99 1.85 11.63
5/22/2021 5:15:00 PM 21.47 70.646 253 8.97 1.59 11.55
5/22/2021 5:30:00 PM 21.46 70.628 253 8.97 1.74 11.52
5/22/2021 5:45:00 PM 21.45 70.61 253 8.96 1.97 11.48
5/22/2021 6:00:00 PM 21.44 70.592 253 8.95 1.91 11.41
5/22/2021 6:15:00 PM 21.43 70.574 253 8.94 1.72 11.35
5/22/2021 6:30:00 PM 21.42 70.556 253 8.94 1.71 11.33
5/22/2021 6:45:00 PM 21.41 70.538 253 8.93 1.63 11.28
5/22/2021 7:00:00 PM 21.4 70.52 253 8.92 1.52 11.23
5/22/2021 7:15:00 PM 21.39 70.502 254 8.92 1.63 11.2
5/22/2021 7:30:00 PM 21.38 70.484 254 8.9 1.58 11.14
5/22/2021 7:45:00 PM 21.37 70.466 254 8.9 1.51 11.11
5/22/2021 8:00:00 PM 21.35 70.43 254 8.9 1.65 11.04
5/22/2021 8:15:00 PM 21.35 70.43 254 8.89 1.56 10.99
5/22/2021 8:30:00 PM 21.33 70.394 254 8.89 1.52 10.93
5/22/2021 8:45:00 PM 21.32 70.376 254 8.87 1.71 10.86
5/22/2021 9:00:00 PM 21.31 70.358 254 8.87 1.57 10.87
5/22/2021 9:15:00 PM 21.3 70.34 254 8.85 1.55 10.75
5/22/2021 9:30:00 PM 21.29 70.32201 254 8.85 1.6 10.74
5/22/2021 9:45:00 PM 21.28 70.304 254 8.84 1.38 10.7
5/22/2021 10:00:00 PM 21.27 70.286 254 8.83 1.47 10.67
5/22/2021 10:15:00 PM 21.26 70.268 254 8.81 1.45 10.62
5/22/2021 10:30:00 PM 21.25 70.25 254 8.81 1.51 10.53
5/22/2021 10:45:00 PM 21.24 70.232 254 8.81 1.79 10.49
5/22/2021 11:00:00 PM 21.23 70.214 254 8.81 1.43 10.48
5/22/2021 11:15:00 PM 21.22 70.196 254 8.8 1.41 10.43
5/22/2021 11:30:00 PM 21.21 70.17799 254 8.78 1.44 10.34
5/22/2021 11:45:00 PM 21.19 70.142 254 8.78 1.64 10.33
5/23/2021 12:00:00 AM 21.18 70.124 254 8.77 1.55 10.28
5/23/2021 12:15:00 AM 21.17 70.106 255 8.77 1.51 10.24
5/23/2021 12:30:00 AM 21.16 70.088 255 8.75 1.5 10.17
5/23/2021 12:45:00 AM 21.15 70.07 255 8.75 1.47 10.14
5/23/2021 1:00:00 AM 21.14 70.052 255 8.73 2.01 10.09
5/23/2021 1:15:00 AM 21.13 70.034 255 8.72 1.37 10.03
5/23/2021 1:30:00 AM 21.12 70.016 255 8.72 1.36 9.98
5/23/2021 1:45:00 AM 21.11 69.998 255 8.7 1.37 9.93
5/23/2021 2:00:00 AM 21.1 69.98 255 8.69 1.46 9.88
5/23/2021 2:15:00 AM 21.09 69.962 255 8.69 1.35 9.86
5/23/2021 2:30:00 AM 21.08 69.944 255 8.67 1.51 9.81
5/23/2021 2:45:00 AM 21.07 69.926 255 8.66 1.61 9.75
5/23/2021 3:00:00 AM 21.07 69.926 255 8.65 1.42 9.69
5/23/2021 3:15:00 AM 21.06 69.908 255 8.64 1.58 9.66
5/23/2021 3:30:00 AM 21.05 69.89 255 8.63 1.47 9.59
5/23/2021 3:45:00 AM 21.04 69.872 255 8.63 1.4 9.54
5/23/2021 4:00:00 AM 21.03 69.854 255 8.6 1.25 9.46
5/23/2021 4:15:00 AM 21.02 69.836 255 8.6 1.27 9.4
5/23/2021 4:30:00 AM 21.01 69.818 255 8.59 1.51 9.36
5/23/2021 4:45:00 AM 21 69.8 256 8.58 1.48 9.32
5/23/2021 5:00:00 AM 21 69.8 256 8.57 1.49 9.26
5/23/2021 5:15:00 AM 20.99 69.782 256 8.55 1.59 9.24
5/23/2021 5:30:00 AM 20.97 69.746 256 8.55 1.4 9.17
5/23/2021 5:45:00 AM 20.97 69.746 256 8.53 1.43 9.1
5/23/2021 6:00:00 AM 20.95 69.71 256 8.52 1.63 9.04
5/23/2021 6:15:00 AM 20.9 69.62 256 8.5 1.25 8.99
5/23/2021 6:30:00 AM 20.63 69.134 0 7.78 1.41 9.43
5/23/2021 6:45:00 AM 20.29 68.522 0 7.71 1.31 9.5
5/23/2021 7:00:00 AM 20.3 68.54 0 7.69 1.34 9.51
5/23/2021 7:15:00 AM 20.16 68.288 0 7.67 1.35 9.51
5/23/2021 7:30:00 AM 20.09 68.162 0 7.69 1.35 9.56
5/23/2021 7:45:00 AM 20.05 68.09 0 7.74 1.3 9.56
5/23/2021 8:00:00 AM 20.05 68.09 0 7.72 1.25 9.56
5/23/2021 8:15:00 AM 20.05 68.09 0 7.73 1.36 9.56
5/23/2021 8:30:00 AM 20.03 68.054 0 7.77 1.31 9.57
5/23/2021 8:45:00 AM 20.04 68.07201 0 7.81 1.33 9.56
5/23/2021 9:00:00 AM 20.05 68.09 0 7.78 1.38 9.57
5/23/2021 9:15:00 AM 20.06 68.108 0 7.78 1.35 9.57
5/23/2021 9:30:00 AM 20.09 68.162 0 7.79 1.37 9.57
5/23/2021 9:45:00 AM 20.11 68.198 0 7.84 1.38 9.56
5/23/2021 10:00:00 AM 20.15 68.27 0 7.85 1.39 9.55
5/23/2021 10:15:00 AM 20.18 68.324 0 7.83 1.44 9.53
5/23/2021 10:30:00 AM 20.21 68.378 0 7.83 1.5 9.54
5/23/2021 10:45:00 AM 20.24 68.432 0 7.84 1.45 9.53
5/23/2021 11:00:00 AM 20.28 68.504 0 7.86 1.51 9.52
5/23/2021 11:15:00 AM 20.31 68.558 0 7.88 1.52 9.51
5/23/2021 11:30:00 AM 20.33 68.594 0 7.87 1.59 9.51
5/23/2021 11:45:00 AM 20.34 68.612 0 7.88 1.69 9.52
5/23/2021 12:00:00 PM 20.35 68.63 0 7.92 1.66 9.51
5/23/2021 12:15:00 PM 20.37 68.666 0 7.93 1.52 9.51
5/23/2021 12:30:00 PM 20.37 68.666 0 7.95 1.56 9.5
5/23/2021 12:45:00 PM 20.38 68.684 0 7.94 1.59 9.49
5/23/2021 1:00:00 PM 20.4 68.72 0 7.95 1.54 9.49
5/23/2021 1:15:00 PM 20.16 68.288 0 7.99 1.59 9.54
5/23/2021 1:30:00 PM 22.13 71.834 263 8.96 3.06 10.83
5/23/2021 1:45:00 PM 22.24 72.032 262 8.95 2.25 10.86
5/23/2021 2:00:00 PM 22.38 72.284 262 8.96 2.05 10.88
5/23/2021 2:15:00 PM 22.41 72.338 262 8.97 2.33 9.83
5/23/2021 2:30:00 PM 22.42 72.356 262 8.96 1.87 10.84
5/23/2021 2:45:00 PM 22.45 72.41 262 8.96 1.78 10.84
5/23/2021 3:00:00 PM 22.47 72.446 262 8.94 1.79 10.8
5/23/2021 3:15:00 PM 22.48 72.464 262 8.94 1.62 10.76
5/23/2021 3:30:00 PM 22.48 72.464 262 8.94 1.82 10.71
5/23/2021 3:45:00 PM 22.48 72.464 262 8.92 1.61 10.65
5/23/2021 4:00:00 PM 22.48 72.464 262 8.93 1.44 10.62
5/23/2021 4:15:00 PM 22.47 72.446 262 8.93 1.64 10.57
5/23/2021 4:30:00 PM 22.46 72.42799 262 8.93 1.51 10.53
5/23/2021 4:45:00 PM 22.45 72.41 262 8.92 1.82 10.49
5/23/2021 5:00:00 PM 22.45 72.41 262 8.91 1.63 10.41
5/23/2021 5:15:00 PM 22.44 72.392 262 8.9 1.66 10.4
5/23/2021 5:30:00 PM 22.43 72.374 262 8.89 1.43 10.35
5/23/2021 5:45:00 PM 22.42 72.356 263 8.88 1.55 10.3
5/23/2021 6:00:00 PM 22.41 72.338 263 8.87 1.34 10.21
5/23/2021 6:15:00 PM 22.39 72.302 263 8.87 1.41 10.2
5/23/2021 6:30:00 PM 22.38 72.284 263 8.86 1.58 10.14
5/23/2021 6:45:00 PM 22.37 72.266 263 8.85 1.55 10.08
5/23/2021 7:00:00 PM 22.35 72.23 263 8.85 2.2 10.03
5/23/2021 7:15:00 PM 22.34 72.212 263 8.84 1.35 9.98
5/23/2021 7:30:00 PM 22.33 72.194 263 8.83 1.52 9.93
5/23/2021 7:45:00 PM 22.32 72.176 263 8.82 1.3 9.87
5/23/2021 8:00:00 PM 22.31 72.158 263 8.81 1.5 9.79
5/23/2021 8:15:00 PM 22.29 72.122 263 8.8 1.4 9.78
5/23/2021 8:30:00 PM 22.28 72.104 263 8.79 1.27 9.75
5/23/2021 8:45:00 PM 22.27 72.086 263 8.79 1.47 9.69
5/23/2021 9:00:00 PM 22.26 72.068 263 8.78 2.25 9.65
5/23/2021 9:15:00 PM 22.25 72.05 263 8.77 1.44 9.59
5/23/2021 9:30:00 PM 22.24 72.032 263 8.76 1.87 9.56
5/23/2021 9:45:00 PM 22.22 71.996 263 8.75 1.46 9.51
5/23/2021 10:00:00 PM 22.21 71.978 263 8.74 1.6 9.45
5/23/2021 10:15:00 PM 22.2 71.96 264 8.73 1.27 9.39
5/23/2021 10:30:00 PM 22.19 71.942 264 8.72 1.4 9.36
5/23/2021 10:45:00 PM 22.18 71.924 264 8.72 1.69 9.29
5/23/2021 11:00:00 PM 22.16 71.888 264 8.71 1.32 9.25
5/23/2021 11:15:00 PM 22.15 71.87 264 8.7 2.03 9.2
5/23/2021 11:30:00 PM 22.15 71.87 264 8.69 1.83 9.12
5/23/2021 11:45:00 PM 22.13 71.834 264 8.67 2.22 9.08
5/24/2021 12:00:00 AM 22.13 71.834 264 8.67 1.35 9.06
5/24/2021 12:15:00 AM 22.11 71.798 264 8.66 1.22 9
5/24/2021 12:30:00 AM 22.1 71.78 264 8.65 1.2 8.95
5/24/2021 12:45:00 AM 22.09 71.762 264 8.63 1.49 8.9
5/24/2021 1:00:00 AM 22.08 71.744 264 8.63 1.23 8.87
5/24/2021 1:15:00 AM 22.07 71.726 264 8.61 1.31 8.77
5/24/2021 1:30:00 AM 22.05 71.69 264 8.6 1.39 8.75
5/24/2021 1:45:00 AM 22.05 71.69 264 8.59 2.04 8.7
5/24/2021 2:00:00 AM 22.04 71.672 264 8.59 1.58 8.66
5/24/2021 2:15:00 AM 22.03 71.654 264 8.58 1.72 8.61
5/24/2021 2:30:00 AM 22.01 71.618 264 8.55 1.8 8.56
5/24/2021 2:45:00 AM 22 71.6 264 8.56 1.13 8.51
5/24/2021 3:00:00 AM 21.99 71.582 265 8.55 2 8.46
5/24/2021 3:15:00 AM 21.98 71.564 265 8.54 1.87 8.41
5/24/2021 3:30:00 AM 21.97 71.546 265 8.53 1.79 8.37
5/24/2021 3:45:00 AM 21.96 71.528 265 8.52 1.45 8.3
5/24/2021 4:00:00 AM 21.94 71.492 265 8.49 1.1 8.24
5/24/2021 4:15:00 AM 21.58 70.844 0 7.72 1.13 9.25
5/24/2021 4:30:00 AM 20.82 69.476 0 7.68 1.2 9.43
5/24/2021 4:45:00 AM 20.27 68.486 0 7.74 1.15 9.54
5/24/2021 5:00:00 AM 19.91 67.838 0 7.77 1.16 9.61
5/24/2021 5:15:00 AM 19.66 67.388 0 7.79 1.16 9.68
5/24/2021 5:30:00 AM 19.48 67.064 0 7.84 1.22 9.73
5/24/2021 5:45:00 AM 19.34 66.812 0 7.83 1.2 9.75
5/24/2021 6:00:00 AM 19.23 66.614 0 7.83 1.2 9.78
5/24/2021 6:15:00 AM 19.14 66.452 0 7.81 1.21 9.8
5/24/2021 6:30:00 AM 19.05 66.29 0 7.81 1.25 9.82
5/24/2021 6:45:00 AM 18.99 66.182 0 7.83 1.23 9.83
5/24/2021 7:00:00 AM 18.95 66.11 0 7.8 1.19 9.84
5/24/2021 7:15:00 AM 18.91 66.038 0 7.83 1.17 9.85
5/24/2021 7:30:00 AM 18.86 65.948 0 7.87 1.21 9.87
5/24/2021 7:45:00 AM 18.82 65.876 0 7.87 1.15 9.88
5/24/2021 8:00:00 AM 18.78 65.804 0 7.83 1.18 9.89
5/24/2021 8:15:00 AM 18.75 65.75 0 7.87 1.18 9.89
5/24/2021 8:30:00 AM 18.72 65.696 0 7.86 1.12 9.9
5/24/2021 8:45:00 AM 18.68 65.624 0 7.84 1.16 9.91
5/24/2021 9:00:00 AM 18.65 65.57 0 7.86 1.12 9.91
5/24/2021 9:15:00 AM 18.63 65.534 0 7.87 1.14 9.91
5/24/2021 9:30:00 AM 18.67 65.606 0 7.85 1.12 9.91
5/24/2021 9:45:00 AM 18.94 66.092 0 7.81 1.11 9.86
5/24/2021 10:00:00 AM 19.01 66.218 0 7.84 1.14 9.86
5/24/2021 10:15:00 AM 19.05 66.29 0 7.82 1.12 9.84
5/24/2021 10:30:00 AM 19.07 66.326 0 7.86 1.23 9.84
5/24/2021 10:45:00 AM 19.08 66.344 0 7.84 1.22 9.84
5/24/2021 11:00:00 AM 19.07 66.326 0 7.83 1.18 9.85
5/24/2021 11:15:00 AM 19.05 66.29 0 7.85 1.21 9.85
5/24/2021 11:30:00 AM 19.01 66.218 0 7.84 1.13 9.86
5/24/2021 11:45:00 AM 18.98 66.164 0 7.88 1.11 9.87
5/24/2021 12:00:00 PM 18.95 66.11 0 7.87 1.1 9.87
5/24/2021 12:15:00 PM 18.92 66.056 0 7.89 1.15 9.88
5/24/2021 12:30:00 PM 18.89 66.002 0 7.88 1.13 9.88
5/24/2021 12:45:00 PM 18.86 65.948 0 7.87 1.15 9.89
5/24/2021 1:00:00 PM 18.83 65.894 0 7.87 1.13 9.89
5/24/2021 1:15:00 PM 18.79 65.82201 0 7.86 1.22 9.9
5/24/2021 1:30:00 PM 18.76 65.768 0 7.9 1.18 9.91
5/24/2021 1:45:00 PM 21.16 70.088 270 8.63 2.07 8.81
5/24/2021 2:00:00 PM 21.29 70.32201 270 8.62 1.8 8.82
5/24/2021 2:15:00 PM 21.33 70.394 270 8.64 1.54 8.85
5/24/2021 2:30:00 PM 21.35 70.43 270 8.65 2.05 8.92
5/24/2021 2:45:00 PM 21.36 70.448 270 8.66 1.66 8.96
5/24/2021 3:00:00 PM 21.37 70.466 271 8.66 2.03 8.98
5/24/2021 3:15:00 PM 21.37 70.466 271 8.67 1.72 8.95
5/24/2021 3:30:00 PM 21.37 70.466 271 8.67 1.55 8.96
5/24/2021 3:45:00 PM 21.37 70.466 271 8.67 1.57 8.91
5/24/2021 4:00:00 PM 21.37 70.466 271 8.65 1.68 8.87
5/24/2021 4:15:00 PM 21.37 70.466 271 8.65 1.63 8.81
5/24/2021 4:30:00 PM 21.36 70.448 271 8.65 1.45 8.77
5/24/2021 4:45:00 PM 21.35 70.43 271 8.63 1.52 8.72
5/24/2021 5:00:00 PM 21.35 70.43 271 8.61 1.75 8.66
5/24/2021 5:15:00 PM 21.34 70.412 271 8.61 1.55 8.61
5/24/2021 5:30:00 PM 21.33 70.394 271 8.61 2.13 8.58
5/24/2021 5:45:00 PM 21.33 70.394 271 8.59 2.31 8.53
5/24/2021 6:00:00 PM 21.32 70.376 272 8.58 1.84 8.5
5/24/2021 6:15:00 PM 21.31 70.358 272 8.58 2.05 8.46
5/24/2021 6:30:00 PM 21.31 70.358 272 8.57 2.33 8.38
5/24/2021 6:45:00 PM 21.3 70.34 272 8.56 1.42 8.33
5/24/2021 7:00:00 PM 21.3 70.34 272 8.55 1.44 8.3
5/24/2021 7:15:00 PM 21.29 70.32201 272 8.54 2.09 8.23
5/24/2021 7:30:00 PM 21.28 70.304 272 8.53 2.51 8.19
5/24/2021 7:45:00 PM 21.28 70.304 272 8.52 1.33 8.16
5/24/2021 8:00:00 PM 21.27 70.286 272 8.52 1.32 8.12
5/24/2021 8:15:00 PM 21.26 70.268 272 8.5 2.25 8.06
5/24/2021 8:30:00 PM 21.25 70.25 272 8.5 2.41 8.02
5/24/2021 8:45:00 PM 21.25 70.25 272 8.49 1.85 7.98
5/24/2021 9:00:00 PM 21.24 70.232 273 8.48 2.1 7.93
5/24/2021 9:15:00 PM 21.23 70.214 273 8.47 1.68 7.87
5/24/2021 9:30:00 PM 21.22 70.196 273 8.45 1.28 7.82
5/24/2021 9:45:00 PM 21.22 70.196 273 8.44 1.18 7.79
5/24/2021 10:00:00 PM 21.21 70.17799 273 8.43 1.63 7.73
5/24/2021 10:15:00 PM 21.21 70.17799 273 8.42 1.42 7.65
5/24/2021 10:30:00 PM 21.2 70.16 273 8.41 1.35 7.63
5/24/2021 10:45:00 PM 21.19 70.142 273 8.4 1.94 7.61
5/24/2021 11:00:00 PM 21.18 70.124 273 8.39 1.47 7.55
5/24/2021 11:15:00 PM 21.17 70.106 273 8.38 1.3 7.49
5/24/2021 11:30:00 PM 21.17 70.106 273 8.37 1.23 7.47
5/24/2021 11:45:00 PM 21.16 70.088 273 8.36 1.62 7.42
5/25/2021 12:00:00 AM 21.16 70.088 273 8.35 1.15 7.36
5/25/2021 12:15:00 AM 21.15 70.07 273 8.35 1.58 7.33
5/25/2021 12:30:00 AM 21.14 70.052 273 8.34 1.41 7.27
5/25/2021 12:45:00 AM 21.13 70.034 274 8.32 1.34 7.21
5/25/2021 1:00:00 AM 21.12 70.016 274 8.3 1.82 7.14
5/25/2021 1:15:00 AM 21.12 70.016 274 8.3 1.37 7.09
5/25/2021 1:30:00 AM 21.11 69.998 274 8.28 2 7.04
5/25/2021 1:45:00 AM 21.1 69.98 274 8.27 1.26 7.01
5/25/2021 2:00:00 AM 21.09 69.962 274 8.27 1.19 6.97
5/25/2021 2:15:00 AM 21.09 69.962 274 8.26 1.27 6.93
5/25/2021 2:30:00 AM 21.08 69.944 274 8.24 1.41 6.89
5/25/2021 2:45:00 AM 21.07 69.926 274 8.23 1.23 6.84
5/25/2021 3:00:00 AM 21.06 69.908 274 8.22 1.31 6.81
5/25/2021 3:15:00 AM 21.05 69.89 274 8.22 1.19 6.76
5/25/2021 3:30:00 AM 21.05 69.89 274 8.2 1.29 6.7
5/25/2021 3:45:00 AM 21.04 69.872 274 8.18 1.29 6.65
5/25/2021 4:00:00 AM 21.03 69.854 274 8.18 1.36 6.62
5/25/2021 4:15:00 AM 21.03 69.854 274 8.18 1.99 6.56
5/25/2021 4:30:00 AM 21.01 69.818 275 8.17 1.23 6.53
5/25/2021 4:45:00 AM 21.01 69.818 275 8.16 1.63 6.49
5/25/2021 5:00:00 AM 21 69.8 275 8.15 1.44 6.44
5/25/2021 5:15:00 AM 20.99 69.782 275 8.14 1.25 6.42
5/25/2021 5:30:00 AM 20.98 69.764 275 8.14 1.89 6.36
5/25/2021 5:45:00 AM 20.98 69.764 275 8.12 1.32 6.3
5/25/2021 6:00:00 AM 20.85 69.53 0 7.73 1.09 9.25
5/25/2021 6:15:00 AM 20.05 68.09 0 7.64 1.07 9.56
5/25/2021 6:30:00 AM 19.39 66.902 0 7.68 1.09 9.7
5/25/2021 6:45:00 AM 18.96 66.128 0 7.73 1.11 9.81
5/25/2021 7:00:00 AM 18.68 65.624 0 7.76 1.1 9.87
5/25/2021 7:15:00 AM 18.48 65.264 0 7.72 1.12 9.9
5/25/2021 7:30:00 AM 18.35 65.03 0 7.73 1.14 9.94
5/25/2021 7:45:00 AM 18.24 64.832 0 7.72 1.12 9.97
5/25/2021 8:00:00 AM 18.16 64.688 0 7.74 1.12 9.99
5/25/2021 8:15:00 AM 18.1 64.58 0 7.75 1.14 10.01
5/25/2021 8:30:00 AM 18.06 64.508 0 7.74 1.16 10.02
5/25/2021 8:45:00 AM 18.03 64.454 0 7.75 1.12 10.02
5/25/2021 9:00:00 AM 18.01 64.418 0 7.78 1.19 10.03
5/25/2021 9:15:00 AM 18 64.4 0 7.77 1.1 10.03
5/25/2021 9:30:00 AM 17.98 64.364 0 7.77 1.21 10.04
5/25/2021 9:45:00 AM 17.97 64.346 0 7.77 1.16 10.04
5/25/2021 10:00:00 AM 17.97 64.346 0 7.78 1.11 10.04
5/25/2021 10:15:00 AM 18.16 64.688 0 7.76 1.2 10.01
5/25/2021 10:30:00 AM 18.28 64.904 0 7.78 1.15 9.99
5/25/2021 10:45:00 AM 18.32 64.976 0 7.76 1.11 9.98
5/25/2021 11:00:00 AM 18.35 65.03 0 7.79 1.08 9.97
5/25/2021 11:15:00 AM 18.36 65.048 0 7.77 1.19 9.98
5/25/2021 11:30:00 AM 18.37 65.066 0 7.77 1.14 9.97
5/25/2021 11:45:00 AM 18.37 65.066 0 7.77 1.07 9.97
5/25/2021 12:00:00 PM 18.38 65.084 0 7.79 1.11 9.97
5/25/2021 12:15:00 PM 18.66 65.588 0 7.82 12.63 9.93
5/25/2021 12:30:00 PM 19.54 67.172 0 7.72 75.71 9.71
5/25/2021 12:45:00 PM 19.77 67.586 0 7.72 61.7 9.66
5/25/2021 1:00:00 PM 19.86 67.748 0 7.73 50.93 9.65
5/25/2021 1:15:00 PM 19.95 67.91 0 7.77 64.18 9.62
5/25/2021 1:30:00 PM 20.02 68.036 0 7.75 52.36 9.61
5/25/2021 1:45:00 PM 20.05 68.09 0 7.73 42.27 9.61
5/25/2021 2:00:00 PM 20.11 68.198 0 7.75 38.18 9.59
5/25/2021 2:15:00 PM 20.76 69.368 281 8.58 1.77 9.53
5/25/2021 2:30:00 PM 20.85 69.53 281 8.58 1.99 9.53
5/25/2021 2:45:00 PM 20.9 69.62 281 8.57 2.01 9.52
5/25/2021 3:00:00 PM 20.92 69.656 281 8.58 1.54 9.5
5/25/2021 3:15:00 PM 20.94 69.692 281 8.57 1.81 9.44
5/25/2021 3:30:00 PM 20.94 69.692 281 8.55 1.72 9.4
5/25/2021 3:45:00 PM 20.94 69.692 281 8.55 1.69 9.34
5/25/2021 4:00:00 PM 20.94 69.692 281 8.53 1.33 9.3
5/25/2021 4:15:00 PM 20.94 69.692 281 8.52 1.35 9.25
5/25/2021 4:30:00 PM 20.94 69.692 281 8.52 1.48 9.21
5/25/2021 4:45:00 PM 20.93 69.674 282 8.51 1.63 9.17
5/25/2021 5:00:00 PM 20.93 69.674 282 8.51 1.5 9.16
5/25/2021 5:15:00 PM 20.92 69.656 282 8.5 1.41 9.13
5/25/2021 5:30:00 PM 20.91 69.638 282 8.48 1.49 9.05
5/25/2021 5:45:00 PM 20.91 69.638 282 8.47 1.52 8.97
5/25/2021 6:00:00 PM 20.9 69.62 282 8.45 1.19 8.92
5/25/2021 6:15:00 PM 20.89 69.602 282 8.47 1.3 8.91
5/25/2021 6:30:00 PM 20.89 69.602 282 8.45 1.23 8.86
5/25/2021 6:45:00 PM 20.88 69.584 282 8.44 1.21 8.83
5/25/2021 7:00:00 PM 20.87 69.566 282 8.43 1.29 8.81
5/25/2021 7:15:00 PM 20.86 69.548 282 8.43 1.24 8.77
5/25/2021 7:30:00 PM 20.86 69.548 282 8.42 1.87 8.72
5/25/2021 7:45:00 PM 20.85 69.53 282 8.4 1.34 8.64
5/25/2021 8:00:00 PM 20.84 69.512 282 8.38 1.19 8.55
5/25/2021 8:15:00 PM 20.84 69.512 282 8.38 1.19 8.56
5/25/2021 8:30:00 PM 20.83 69.494 282 8.38 1.23 8.53
5/25/2021 8:45:00 PM 20.82 69.476 282 8.37 1.4 8.48
5/25/2021 9:00:00 PM 20.82 69.476 282 8.36 1.22 8.43
5/25/2021 9:15:00 PM 20.81 69.458 282 8.35 1.17 8.39
5/25/2021 9:30:00 PM 20.8 69.44 282 8.34 1.09 8.37
5/25/2021 9:45:00 PM 20.8 69.44 282 8.33 1.14 8.34
5/25/2021 10:00:00 PM 20.79 69.422 282 8.33 1.32 8.32
5/25/2021 10:15:00 PM 20.78 69.404 283 8.31 1.15 8.24
5/25/2021 10:30:00 PM 20.78 69.404 283 8.32 1.1 8.18
5/25/2021 10:45:00 PM 20.77 69.386 283 8.31 1.03 8.16
5/25/2021 11:00:00 PM 20.76 69.368 283 8.29 1.13 8.11
5/25/2021 11:15:00 PM 20.76 69.368 283 8.28 1.08 8.07
5/25/2021 11:30:00 PM 20.75 69.35 283 8.27 1.08 8.02
5/25/2021 11:45:00 PM 20.74 69.332 283 8.27 1.04 8.03
5/26/2021 12:00:00 AM 20.74 69.332 283 8.26 1 8
5/26/2021 12:15:00 AM 20.73 69.314 283 8.26 1.23 7.96
5/26/2021 12:30:00 AM 20.72 69.296 283 8.23 1.09 7.9
5/26/2021 12:45:00 AM 20.71 69.278 283 8.23 1.33 7.85
5/26/2021 1:00:00 AM 20.71 69.278 283 8.23 0.99 7.81
5/26/2021 1:15:00 AM 20.7 69.26 283 8.21 1.15 7.74
5/26/2021 1:30:00 AM 20.69 69.242 283 8.21 1.37 7.68
5/26/2021 1:45:00 AM 20.69 69.242 283 8.2 1.38 7.6
5/26/2021 2:00:00 AM 20.68 69.224 283 8.18 1.27 7.55
5/26/2021 2:15:00 AM 20.67 69.206 283 8.16 1 7.51
5/26/2021 2:30:00 AM 20.67 69.206 283 8.16 1.03 7.49
5/26/2021 2:45:00 AM 20.66 69.188 283 8.16 1.15 7.45
5/26/2021 3:00:00 AM 20.66 69.188 283 8.13 1.44 7.37
5/26/2021 3:15:00 AM 20.65 69.17 283 8.13 1.16 7.28
5/26/2021 3:30:00 AM 20.64 69.152 283 8.12 1.05 7.3
5/26/2021 3:45:00 AM 20.63 69.134 283 8.12 1.18 7.27
5/26/2021 4:00:00 AM 20.63 69.134 283 8.12 1.04 7.24
5/26/2021 4:15:00 AM 20.62 69.116 284 8.08 0.94 7.12
5/26/2021 4:30:00 AM 20.61 69.098 284 8.09 1.04 7.12
5/26/2021 4:45:00 AM 20.6 69.08 284 8.09 1.05 7.08
5/26/2021 5:00:00 AM 20.6 69.08 284 8.08 1.02 7.03
5/26/2021 5:15:00 AM 20.59 69.062 284 8.07 1.04 6.94
5/26/2021 5:30:00 AM 20.59 69.062 284 8.07 1.05 6.92
5/26/2021 5:45:00 AM 20.58 69.044 284 8.06 1.1 6.88
5/26/2021 6:00:00 AM 20.53 68.954 0 7.56 59.2 9.32
5/26/2021 6:15:00 AM 20.1 68.18 0 7.59 1.04 9.49
5/26/2021 6:30:00 AM 19.75 67.55 0 7.59 1.08 9.58
5/26/2021 6:45:00 AM 19.46 67.028 0 7.62 1.14 9.66
5/26/2021 7:00:00 AM 19.26 66.668 0 7.67 1.08 9.71
5/26/2021 7:15:00 AM 19.13 66.434 0 7.67 1.12 9.73
5/26/2021 7:30:00 AM 19.04 66.272 0 7.69 1.14 9.75
5/26/2021 7:45:00 AM 18.98 66.164 0 7.71 1.14 9.77
5/26/2021 8:00:00 AM 18.94 66.092 0 7.75 1.13 9.79
5/26/2021 8:15:00 AM 18.92 66.056 0 7.74 1.09 9.79
5/26/2021 8:30:00 AM 18.91 66.038 0 7.74 1.1 9.79
5/26/2021 8:45:00 AM 18.9 66.02 0 7.75 1.14 9.78
5/26/2021 9:00:00 AM 18.91 66.038 0 7.76 1.07 9.79
5/26/2021 9:15:00 AM 18.91 66.038 0 7.77 1.1 9.79
5/26/2021 9:30:00 AM 18.92 66.056 0 7.78 1.15 9.79
5/26/2021 9:45:00 AM 18.93 66.074 0 7.88 1.11 9.79
5/26/2021 10:00:00 AM 18.94 66.092 0 7.81 1.04 9.78
5/26/2021 10:15:00 AM 18.96 66.128 0 7.89 1.15 9.78
5/26/2021 10:30:00 AM 18.97 66.146 0 7.87 1.15 9.78
5/26/2021 10:45:00 AM 18.99 66.182 0 7.97 1.07 9.77
5/26/2021 11:00:00 AM 19 66.2 0 8.01 1.11 9.77
5/26/2021 11:15:00 AM 19.02 66.236 0 8.01 1.11 9.76
5/26/2021 11:30:00 AM 19.04 66.272 0 8.02 1.1 9.76
5/26/2021 11:45:00 AM 19.07 66.326 0 7.99 1.15 9.75
5/26/2021 12:00:00 PM 19.1 66.38 0 8.03 1.06 9.74
5/26/2021 12:15:00 PM 19.12 66.416 0 8.07 1.17 9.73
5/26/2021 12:30:00 PM 19.15 66.47 0 8.02 1.2 9.72
5/26/2021 12:45:00 PM 22.15 71.87 291 8.52 2.83 9.45
5/26/2021 1:00:00 PM 22.4 72.32 291 8.5 1.87 9.47
5/26/2021 1:15:00 PM 22.49 72.482 291 8.5 1.83 9.45
5/26/2021 1:30:00 PM 22.22 71.996 0 7.96 1.01 9.12
5/26/2021 1:45:00 PM 22.44 72.392 291 8.48 1.85 9.37
5/26/2021 2:00:00 PM 22.5 72.5 291 8.46 1.6 9.31
5/26/2021 2:15:00 PM 22.53 72.554 291 8.46 1.84 9.27
5/26/2021 2:30:00 PM 22.55 72.59 291 8.45 1.36 9.23
5/26/2021 2:45:00 PM 22.55 72.59 291 8.42 2.1 9.19
5/26/2021 3:00:00 PM 22.55 72.59 291 8.44 1.49 9.14
5/26/2021 3:15:00 PM 22.54 72.57201 291 8.44 1.43 9.11
5/26/2021 3:30:00 PM 22.53 72.554 291 8.43 1.73 9.09
5/26/2021 3:45:00 PM 22.53 72.554 291 8.43 1.67 9.07
5/26/2021 4:00:00 PM 22.52 72.536 291 8.41 1.74 8.99
5/26/2021 4:15:00 PM 22.51 72.518 292 8.4 1.57 8.92
5/26/2021 4:30:00 PM 22.5 72.5 292 8.39 1.89 8.87
5/26/2021 4:45:00 PM 22.49 72.482 292 8.38 1.93 8.79
5/26/2021 5:00:00 PM 22.48 72.464 292 8.36 1.85 8.71
5/26/2021 5:15:00 PM 22.46 72.42799 292 8.35 2.18 8.66
5/26/2021 5:30:00 PM 22.45 72.41 292 8.34 1.39 8.64
5/26/2021 5:45:00 PM 22.44 72.392 292 8.33 1.54 8.6
5/26/2021 6:00:00 PM 22.43 72.374 292 8.33 1.64 8.57
5/26/2021 6:15:00 PM 22.41 72.338 292 8.32 1.15 8.51
5/26/2021 6:30:00 PM 22.4 72.32 292 8.31 1.46 8.49
5/26/2021 6:45:00 PM 22.39 72.302 292 8.31 1.43 8.45
5/26/2021 7:00:00 PM 22.38 72.284 292 8.28 1.65 8.39
5/26/2021 7:15:00 PM 22.36 72.248 292 8.28 1.19 8.32
5/26/2021 7:30:00 PM 22.35 72.23 292 8.26 1.43 8.22
5/26/2021 7:45:00 PM 22.34 72.212 292 8.26 1.36 8.2
5/26/2021 8:00:00 PM 22.33 72.194 292 8.25 1.64 8.13
5/26/2021 8:15:00 PM 22.32 72.176 292 8.24 1.44 8.08
5/26/2021 8:30:00 PM 22.3 72.14 292 8.22 1.5 8.01
5/26/2021 8:45:00 PM 22.29 72.122 292 8.22 1.06 7.88
5/26/2021 9:00:00 PM 22.28 72.104 292 8.21 1.08 7.94
5/26/2021 9:15:00 PM 22.27 72.086 292 8.21 1.42 7.91
5/26/2021 9:30:00 PM 22.26 72.068 293 8.19 1.51 7.83
5/26/2021 9:45:00 PM 22.25 72.05 293 8.17 1.35 7.77
5/26/2021 10:00:00 PM 22.24 72.032 293 8.16 0.95 7.7
5/26/2021 10:15:00 PM 22.23 72.014 293 8.16 1.06 7.7
5/26/2021 10:30:00 PM 22.21 71.978 293 8.15 1.25 7.64
5/26/2021 10:45:00 PM 22.2 71.96 293 8.14 1.27 7.6
5/26/2021 11:00:00 PM 22.19 71.942 293 8.13 1.22 7.54
5/26/2021 11:15:00 PM 22.18 71.924 293 8.13 1.28 7.5
5/26/2021 11:30:00 PM 22.17 71.906 293 8.12 1.09 7.46
5/26/2021 11:45:00 PM 22.16 71.888 293 8.11 1.39 7.39
5/27/2021 12:00:00 AM 22.15 71.87 293 8.08 1.11 7.31
5/27/2021 12:15:00 AM 22.14 71.852 293 8.08 0.99 7.29
5/27/2021 12:30:00 AM 22.13 71.834 293 8.09 0.99 7.23
5/27/2021 12:45:00 AM 22.12 71.816 293 8.07 0.86 7.1
5/27/2021 1:00:00 AM 22.11 71.798 293 8.06 1.13 7.17
5/27/2021 1:15:00 AM 22.1 71.78 293 8.05 1.35 7.07
5/27/2021 1:30:00 AM 22.09 71.762 293 8.04 1 7.02
5/27/2021 1:45:00 AM 22.08 71.744 293 8.04 1.18 6.98
5/27/2021 2:00:00 AM 22.06 71.708 293 8.02 1.23 6.95
5/27/2021 2:15:00 AM 22.05 71.69 293 8.01 1.33 6.91
5/27/2021 2:30:00 AM 22.04 71.672 293 8.01 1.32 6.86
5/27/2021 2:45:00 AM 22.03 71.654 293 8.01 1.4 6.82
5/27/2021 3:00:00 AM 22.02 71.636 293 8 1.25 6.76
5/27/2021 3:15:00 AM 22.01 71.618 294 7.99 1.31 6.71
5/27/2021 3:30:00 AM 22 71.6 294 7.98 0.95 6.67
5/27/2021 3:45:00 AM 21.99 71.582 294 7.98 1.12 6.61
5/27/2021 4:00:00 AM 21.98 71.564 294 7.96 1.22 6.57
5/27/2021 4:15:00 AM 21.97 71.546 294 7.96 1.21 6.54
5/27/2021 4:30:00 AM 21.96 71.528 294 7.95 1.04 6.46
5/27/2021 4:45:00 AM 21.95 71.51 294 7.93 0.91 6.4
5/27/2021 5:00:00 AM 21.94 71.492 294 7.94 1.08 6.38
5/27/2021 5:15:00 AM 21.93 71.474 294 7.92 1.2 6.3
5/27/2021 5:30:00 AM 21.92 71.456 294 7.92 1.17 6.24
5/27/2021 5:45:00 AM 21.91 71.438 294 7.91 0.89 6.2
5/27/2021 6:00:00 AM 21.82 71.276 0 7.65 14.97 9
5/27/2021 6:15:00 AM 21.35 70.43 0 7.57 1.03 9.26
5/27/2021 6:30:00 AM 20.8 69.44 0 7.6 1.05 9.36
5/27/2021 6:45:00 AM 20.31 68.558 0 7.66 1.02 9.47
5/27/2021 7:00:00 AM 20.03 68.054 0 7.71 1.06 9.54
5/27/2021 7:15:00 AM 19.85 67.73 0 7.72 1.08 9.57
5/27/2021 7:30:00 AM 19.73 67.514 0 7.74 1.04 9.61
5/27/2021 7:45:00 AM 19.64 67.352 0 7.79 1.01 9.63
5/27/2021 8:00:00 AM 19.57 67.226 0 7.76 1.02 9.65
5/27/2021 8:15:00 AM 19.56 67.208 0 7.76 1.06 9.65
5/27/2021 8:30:00 AM 19.71 67.478 0 7.74 1.03 9.63
5/27/2021 8:45:00 AM 19.71 67.478 0 7.75 1.06 9.63
5/27/2021 9:00:00 AM 19.7 67.46 0 7.75 1.02 9.63
5/27/2021 9:15:00 AM 19.69 67.442 0 7.75 1.04 9.64
5/27/2021 9:30:00 AM 19.67 67.406 0 7.76 1.08 9.64
5/27/2021 9:45:00 AM 19.66 67.388 0 7.77 1.08 9.65
5/27/2021 10:00:00 AM 19.64 67.352 0 7.77 1.12 9.65
5/27/2021 10:15:00 AM 19.62 67.316 0 7.78 1.1 9.65
5/27/2021 10:30:00 AM 19.6 67.28 0 7.79 1.08 9.66
5/27/2021 10:45:00 AM 19.58 67.244 0 7.79 1.14 9.67
5/27/2021 11:00:00 AM 19.55 67.19 0 7.8 1.09 9.67
5/27/2021 11:15:00 AM 19.51 67.118 0 7.82 1.07 9.68
5/27/2021 11:30:00 AM 19.48 67.064 0 7.82 1.13 9.68
5/27/2021 11:45:00 AM 19.45 67.01 0 7.84 1.13 9.68
5/27/2021 12:00:00 PM 19.43 66.974 0 7.89 1.06 9.68
5/27/2021 12:15:00 PM 19.41 66.938 0 7.83 1.06 9.68
5/27/2021 12:30:00 PM 19.4 66.92 0 7.87 1.13 9.68
5/27/2021 12:45:00 PM 19.39 66.902 0 7.82 1.09 9.69
5/27/2021 1:00:00 PM 19.38 66.884 0 7.84 1.11 9.69
5/27/2021 1:15:00 PM 19.39 66.902 0 7.84 1.12 9.68
5/27/2021 1:30:00 PM 19.39 66.902 0 7.89 1.11 9.69
5/27/2021 1:45:00 PM 19.4 66.92 0 7.93 1.09 9.68
5/27/2021 2:00:00 PM 19.4 66.92 0 7.86 1.02 9.69
5/27/2021 2:15:00 PM 19.41 66.938 0 7.85 1.13 9.68
5/27/2021 2:30:00 PM 22.89 73.202 300 8.4 3.36 9.21
5/27/2021 2:45:00 PM 23.26 73.868 299 8.4 1.9 9.23
5/27/2021 3:00:00 PM 23.37 74.066 299 8.4 1.62 9.22
5/27/2021 3:15:00 PM 23.41 74.138 299 8.39 1.74 9.2
5/27/2021 3:30:00 PM 23.43 74.174 299 8.38 1.55 9.17
5/27/2021 3:45:00 PM 23.44 74.192 299 8.38 1.98 9.13
5/27/2021 4:00:00 PM 23.44 74.192 299 8.37 1.65 9.08
5/27/2021 4:15:00 PM 23.44 74.192 299 8.37 1.48 9.06
5/27/2021 4:30:00 PM 23.43 74.174 299 8.36 1.66 8.98
5/27/2021 4:45:00 PM 23.42 74.156 299 8.36 1.43 8.96
5/27/2021 5:00:00 PM 23.41 74.138 299 8.34 1.72 8.93
5/27/2021 5:15:00 PM 23.4 74.12 300 8.33 1.46 8.85
5/27/2021 5:30:00 PM 23.39 74.102 300 8.32 1.67 8.8
5/27/2021 5:45:00 PM 23.38 74.084 300 8.32 1.72 8.76
5/27/2021 6:00:00 PM 23.36 74.048 300 8.3 1.43 8.69
5/27/2021 6:15:00 PM 23.35 74.03 300 8.29 1.56 8.65
5/27/2021 6:30:00 PM 23.34 74.012 300 8.26 1.66 8.55
5/27/2021 6:45:00 PM 23.32 73.976 300 8.26 1.49 8.54
5/27/2021 7:00:00 PM 23.31 73.958 300 8.26 1.57 8.46
5/27/2021 7:15:00 PM 23.3 73.94 300 8.23 1.55 8.42
5/27/2021 7:30:00 PM 23.28 73.904 300 8.24 1.19 8.38
5/27/2021 7:45:00 PM 23.27 73.886 300 8.22 1.5 8.3
5/27/2021 8:00:00 PM 23.26 73.868 300 8.22 1.58 8.23
5/27/2021 8:15:00 PM 23.24 73.832 300 8.2 1.43 8.17
5/27/2021 8:30:00 PM 23.22 73.796 300 8.19 1.59 8.12
5/27/2021 8:45:00 PM 23.21 73.778 300 8.18 1.45 8.09
5/27/2021 9:00:00 PM 23.2 73.76 300 8.17 1.37 8.02
5/27/2021 9:15:00 PM 23.19 73.742 300 8.16 1.46 7.97
5/27/2021 9:30:00 PM 23.17 73.706 300 8.14 1.24 7.89
5/27/2021 9:45:00 PM 23.16 73.688 300 8.14 1.12 7.86
5/27/2021 10:00:00 PM 23.15 73.67 300 8.13 1.26 7.82
5/27/2021 10:15:00 PM 23.13 73.634 300 8.13 1.1 7.77
5/27/2021 10:30:00 PM 23.12 73.616 301 8.12 1.29 7.67
5/27/2021 10:45:00 PM 23.11 73.598 301 8.11 1.3 7.67
5/27/2021 11:00:00 PM 23.09 73.562 301 8.1 1.35 7.61
5/27/2021 11:15:00 PM 23.08 73.544 301 8.09 1.19 7.57
5/27/2021 11:30:00 PM 23.07 73.526 301 8.08 1.31 7.5
5/27/2021 11:45:00 PM 23.05 73.49 301 8.07 1.19 7.43
5/28/2021 12:00:00 AM 23.04 73.472 301 8.05 1.31 7.34
5/28/2021 12:15:00 AM 23.03 73.454 301 8.05 1.11 7.28
5/28/2021 12:30:00 AM 23.02 73.436 301 8.04 1.47 7.25
5/28/2021 12:45:00 AM 23.01 73.418 301 8.03 1.29 7.19
5/28/2021 1:00:00 AM 22.99 73.382 301 8.03 1.13 7.19
5/28/2021 1:15:00 AM 22.98 73.364 301 8.01 1.22 7.13
5/28/2021 1:30:00 AM 22.96 73.328 301 8.01 1.18 7.05
5/28/2021 1:45:00 AM 22.95 73.31 301 8 1.39 7
5/28/2021 2:00:00 AM 22.94 73.292 301 7.99 0.97 6.94
5/28/2021 2:15:00 AM 22.92 73.256 301 7.98 1.3 6.89
5/28/2021 2:30:00 AM 22.91 73.238 301 7.97 1.29 6.85
5/28/2021 2:45:00 AM 22.9 73.22 301 7.97 1.27 6.8
5/28/2021 3:00:00 AM 22.88 73.184 301 7.95 1.12 6.71
5/28/2021 3:15:00 AM 22.87 73.166 301 7.95 1.22 6.69
5/28/2021 3:30:00 AM 22.85 73.13 301 7.95 1.32 6.62
5/28/2021 3:45:00 AM 22.84 73.112 301 7.93 1.27 6.58
5/28/2021 4:00:00 AM 22.83 73.094 301 7.93 1.07 6.53
5/28/2021 4:15:00 AM 22.82 73.076 301 7.92 1.27 6.48
5/28/2021 4:30:00 AM 22.81 73.058 301 7.91 1.09 6.42
5/28/2021 4:45:00 AM 22.79 73.022 301 7.91 1.2 6.39
5/28/2021 5:00:00 AM 22.77 72.986 301 7.9 1.34 6.35
5/28/2021 5:15:00 AM 22.76 72.968 302 7.87 1.12 6.25
5/28/2021 5:30:00 AM 22.75 72.95 302 7.88 1.14 6.2
5/28/2021 5:45:00 AM 22.74 72.932 302 7.87 1.18 6.16
5/28/2021 6:00:00 AM 22.59 72.662 0 7.54 105.69 8.84
5/28/2021 6:15:00 AM 21.7 71.06 0 7.62 4.82 9.23
5/28/2021 6:30:00 AM 21.38 70.484 0 7.62 2.19 9.31
5/28/2021 6:45:00 AM 21.17 70.106 0 7.65 1.12 9.35
5/28/2021 7:00:00 AM 21.03 69.854 0 7.68 0.98 9.39
5/28/2021 7:15:00 AM 20.92 69.656 0 7.7 0.94 9.4
5/28/2021 7:30:00 AM 20.82 69.476 0 7.72 0.94 9.43
5/28/2021 7:45:00 AM 20.75 69.35 0 7.74 0.94 9.45
5/28/2021 8:00:00 AM 20.69 69.242 0 7.76 1 9.45
5/28/2021 8:15:00 AM 20.64 69.152 0 7.76 1.02 9.46
5/28/2021 8:30:00 AM 20.61 69.098 0 7.77 0.96 9.46
5/28/2021 8:45:00 AM 20.57 69.026 0 7.78 0.99 9.47
5/28/2021 9:00:00 AM 20.56 69.008 0 7.78 1.14 9.47
5/28/2021 9:15:00 AM 20.53 68.954 0 7.78 1.04 9.48
5/28/2021 9:30:00 AM 20.48 68.864 0 7.83 1.05 9.49
5/28/2021 9:45:00 AM 20.42 68.756 0 7.8 1.12 9.49
5/28/2021 10:00:00 AM 20.35 68.63 0 7.81 1.16 9.51
5/28/2021 10:15:00 AM 20.36 68.648 0 7.82 1.18 9.51
5/28/2021 10:30:00 AM 19.93 67.874 0 7.81 1.17 9.56
5/28/2021 10:45:00 AM 19.48 67.064 0 7.84 1.23 9.65
5/28/2021 11:00:00 AM 19.52 67.136 0 7.83 1.2 9.65
5/28/2021 11:15:00 AM 19.49 67.082 0 7.82 1.21 9.66
5/28/2021 11:30:00 AM 19.44 66.992 0 7.82 1.23 9.66
5/28/2021 11:45:00 AM 19.42 66.956 0 7.81 1.16 9.67
5/28/2021 12:00:00 PM 19.39 66.902 0 7.81 1.17 9.67
5/28/2021 12:15:00 PM 19.34 66.812 0 7.8 1.24 9.67
5/28/2021 12:30:00 PM 19.28 66.704 0 7.81 1.24 9.68
5/28/2021 12:45:00 PM 19.23 66.614 0 7.8 1.24 9.69
5/28/2021 1:00:00 PM 19.19 66.542 0 7.8 1.2 9.71
5/28/2021 1:15:00 PM 19.15 66.47 0 7.83 1.19